<?xml version="1.0" encoding="UTF-8" standalone="no" ?><gpx xmlns="http://www.topografix.com/GPX/1/1" xmlns:gpxx="http://www.garmin.com/xmlschemas/GpxExtensions/v3" xmlns:wptx1="http://www.garmin.com/xmlschemas/WaypointExtension/v1" xmlns:gpxtpx="http://www.garmin.com/xmlschemas/TrackPointExtension/v1" creator="GuideVTT.com" version="1.1" xmlns:xsi="http://www.w3.org/2001/XMLSchema-instance" xsi:schemaLocation="http://www.topografix.com/GPX/1/1 http://www.topografix.com/GPX/1/1/gpx.xsd http://www.garmin.com/xmlschemas/GpxExtensions/v3 http://www8.garmin.com/xmlschemas/GpxExtensionsv3.xsd http://www.garmin.com/xmlschemas/WaypointExtension/v1 http://www8.garmin.com/xmlschemas/WaypointExtensionv1.xsd http://www.garmin.com/xmlschemas/TrackPointExtension/v1 http://www.garmin.com/xmlschemas/TrackPointExtensionv1.xsd">
<metadata><link href="http://www.garmin.com"><text>Garmin International</text></link><time>2013-06-22T15:13:50Z</time></metadata>
<trk><name>rp_vtt_2012_12.gpx</name><extensions><gpxx:TrackExtension><gpxx:DisplayColor>Cyan</gpxx:DisplayColor></gpxx:TrackExtension></extensions><trkseg>
<trkpt lat="46.7893603072" lon="6.5247711539"><ele>578.85</ele><time>2012-06-02T11:57:54Z</time></trkpt>
<trkpt lat="46.7894598842" lon="6.5248284861"><ele>584.62</ele><time>2012-06-02T11:58:16Z</time></trkpt>
<trkpt lat="46.7894766480" lon="6.5248387959"><ele>580.29</ele><time>2012-06-02T11:58:27Z</time></trkpt>
<trkpt lat="46.7894628178" lon="6.5248994809"><ele>585.58</ele><time>2012-06-02T11:58:44Z</time></trkpt>
<trkpt lat="46.7894516699" lon="6.5248953737"><ele>585.58</ele><time>2012-06-02T11:59:03Z</time></trkpt>
<trkpt lat="46.7894657515" lon="6.5249126405"><ele>588.46</ele><time>2012-06-02T11:59:27Z</time></trkpt>
<trkpt lat="46.7894577887" lon="6.5249222796"><ele>585.58</ele><time>2012-06-02T11:59:44Z</time></trkpt>
<trkpt lat="46.7894577887" lon="6.5249222796"><ele>585.58</ele><time>2012-06-02T12:00:09Z</time></trkpt>
<trkpt lat="46.7894561123" lon="6.5249218605"><ele>585.58</ele><time>2012-06-02T12:00:32Z</time></trkpt>
<trkpt lat="46.7894502450" lon="6.5249196813"><ele>585.58</ele><time>2012-06-02T12:00:56Z</time></trkpt>
<trkpt lat="46.7894502450" lon="6.5249196813"><ele>585.58</ele><time>2012-06-02T12:01:18Z</time></trkpt>
<trkpt lat="46.7894445453" lon="6.5249133110"><ele>585.58</ele><time>2012-06-02T12:01:45Z</time></trkpt>
<trkpt lat="46.7894445453" lon="6.5249133110"><ele>585.58</ele><time>2012-06-02T12:02:15Z</time></trkpt>
<trkpt lat="46.7894452997" lon="6.5249097068"><ele>586.06</ele><time>2012-06-02T12:02:38Z</time></trkpt>
<trkpt lat="46.7894380074" lon="6.5249069408"><ele>585.58</ele><time>2012-06-02T12:03:07Z</time></trkpt>
<trkpt lat="46.7894380074" lon="6.5249069408"><ele>585.58</ele><time>2012-06-02T12:03:29Z</time></trkpt>
<trkpt lat="46.7894401867" lon="6.5249058511"><ele>586.54</ele><time>2012-06-02T12:04:01Z</time></trkpt>
<trkpt lat="46.7894373368" lon="6.5249030851"><ele>587.02</ele><time>2012-06-02T12:04:28Z</time></trkpt>
<trkpt lat="46.7894373368" lon="6.5249030851"><ele>587.02</ele><time>2012-06-02T12:04:54Z</time></trkpt>
<trkpt lat="46.7894259375" lon="6.5249128081"><ele>586.54</ele><time>2012-06-02T12:05:15Z</time></trkpt>
<trkpt lat="46.7894228362" lon="6.5249159932"><ele>587.02</ele><time>2012-06-02T12:05:31Z</time></trkpt>
<trkpt lat="46.7894216627" lon="6.5249173343"><ele>587.02</ele><time>2012-06-02T12:05:57Z</time></trkpt>
<trkpt lat="46.7894216627" lon="6.5249173343"><ele>587.02</ele><time>2012-06-02T12:06:19Z</time></trkpt>
<trkpt lat="46.7894119397" lon="6.5249056835"><ele>587.02</ele><time>2012-06-02T12:06:35Z</time></trkpt>
<trkpt lat="46.7894119397" lon="6.5249056835"><ele>587.02</ele><time>2012-06-02T12:06:50Z</time></trkpt>
<trkpt lat="46.7894074973" lon="6.5249005705"><ele>586.54</ele><time>2012-06-02T12:07:05Z</time></trkpt>
<trkpt lat="46.7894074973" lon="6.5249005705"><ele>586.54</ele><time>2012-06-02T12:07:35Z</time></trkpt>
<trkpt lat="46.7893987801" lon="6.5248868242"><ele>586.54</ele><time>2012-06-02T12:08:03Z</time></trkpt>
<trkpt lat="46.7893984448" lon="6.5248848125"><ele>586.54</ele><time>2012-06-02T12:08:32Z</time></trkpt>
<trkpt lat="46.7893971875" lon="6.5248852316"><ele>587.02</ele><time>2012-06-02T12:09:07Z</time></trkpt>
<trkpt lat="46.7893971875" lon="6.5248852316"><ele>587.02</ele><time>2012-06-02T12:09:38Z</time></trkpt>
<trkpt lat="46.7893955950" lon="6.5248822141"><ele>587.5</ele><time>2012-06-02T12:10:10Z</time></trkpt>
<trkpt lat="46.7893943377" lon="6.5248815436"><ele>587.5</ele><time>2012-06-02T12:10:40Z</time></trkpt>
<trkpt lat="46.7893933319" lon="6.5248828009"><ele>587.5</ele><time>2012-06-02T12:11:20Z</time></trkpt>
<trkpt lat="46.7893924937" lon="6.5248803701"><ele>587.02</ele><time>2012-06-02T12:11:58Z</time></trkpt>
<trkpt lat="46.7893924937" lon="6.5248841420"><ele>587.02</ele><time>2012-06-02T12:12:39Z</time></trkpt>
<trkpt lat="46.7893906496" lon="6.5248850640"><ele>587.02</ele><time>2012-06-02T12:13:11Z</time></trkpt>
<trkpt lat="46.7893906496" lon="6.5248850640"><ele>587.02</ele><time>2012-06-02T12:13:39Z</time></trkpt>
<trkpt lat="46.7893918231" lon="6.5248850640"><ele>587.02</ele><time>2012-06-02T12:14:17Z</time></trkpt>
<trkpt lat="46.7893884704" lon="6.5248833038"><ele>586.54</ele><time>2012-06-02T12:14:47Z</time></trkpt>
<trkpt lat="46.7893867940" lon="6.5248839743"><ele>587.02</ele><time>2012-06-02T12:15:13Z</time></trkpt>
<trkpt lat="46.7893854529" lon="6.5248831362"><ele>587.02</ele><time>2012-06-02T12:15:41Z</time></trkpt>
<trkpt lat="46.7893864587" lon="6.5248885844"><ele>586.54</ele><time>2012-06-02T12:16:20Z</time></trkpt>
<trkpt lat="46.7893864587" lon="6.5248885844"><ele>586.54</ele><time>2012-06-02T12:16:50Z</time></trkpt>
<trkpt lat="46.7893877160" lon="6.5248839743"><ele>587.02</ele><time>2012-06-02T12:17:22Z</time></trkpt>
<trkpt lat="46.7893881351" lon="6.5248699766"><ele>587.02</ele><time>2012-06-02T12:17:42Z</time></trkpt>
<trkpt lat="46.7893831059" lon="6.5248634387"><ele>587.98</ele><time>2012-06-02T12:17:50Z</time></trkpt>
<trkpt lat="46.7894349899" lon="6.5249217767"><ele>587.02</ele><time>2012-06-02T12:18:01Z</time></trkpt>
<trkpt lat="46.7894371692" lon="6.5249279793"><ele>587.5</ele><time>2012-06-02T12:18:13Z</time></trkpt>
<trkpt lat="46.7894371692" lon="6.5249279793"><ele>587.5</ele><time>2012-06-02T12:18:25Z</time></trkpt>
<trkpt lat="46.7894358281" lon="6.5249252971"><ele>587.02</ele><time>2012-06-02T12:18:49Z</time></trkpt>
<trkpt lat="46.7894358281" lon="6.5249252971"><ele>587.02</ele><time>2012-06-02T12:19:03Z</time></trkpt>
<trkpt lat="46.7894358281" lon="6.5249252971"><ele>587.02</ele><time>2012-06-02T12:19:17Z</time></trkpt>
<trkpt lat="46.7894346546" lon="6.5249254648"><ele>587.02</ele><time>2012-06-02T12:19:28Z</time></trkpt>
<trkpt lat="46.7894346546" lon="6.5249254648"><ele>587.02</ele><time>2012-06-02T12:19:50Z</time></trkpt>
<trkpt lat="46.7894290388" lon="6.5249221958"><ele>587.02</ele><time>2012-06-02T12:20:14Z</time></trkpt>
<trkpt lat="46.7894290388" lon="6.5249221958"><ele>587.02</ele><time>2012-06-02T12:20:37Z</time></trkpt>
<trkpt lat="46.7894286197" lon="6.5249306615"><ele>587.02</ele><time>2012-06-02T12:21:01Z</time></trkpt>
<trkpt lat="46.7894269433" lon="6.5249289852"><ele>587.02</ele><time>2012-06-02T12:21:29Z</time></trkpt>
<trkpt lat="46.7894269433" lon="6.5249289852"><ele>587.02</ele><time>2012-06-02T12:21:43Z</time></trkpt>
<trkpt lat="46.7894304637" lon="6.5249353554"><ele>587.02</ele><time>2012-06-02T12:21:57Z</time></trkpt>
<trkpt lat="46.7894304637" lon="6.5249353554"><ele>587.02</ele><time>2012-06-02T12:22:13Z</time></trkpt>
<trkpt lat="46.7894431204" lon="6.5249347687"><ele>587.98</ele><time>2012-06-02T12:22:25Z</time></trkpt>
<trkpt lat="46.7894431204" lon="6.5249418933"><ele>587.98</ele><time>2012-06-02T12:22:41Z</time></trkpt>
<trkpt lat="46.7894431204" lon="6.5249418933"><ele>587.98</ele><time>2012-06-02T12:23:04Z</time></trkpt>
<trkpt lat="46.7894527595" lon="6.5249491856"><ele>587.02</ele><time>2012-06-02T12:23:32Z</time></trkpt>
<trkpt lat="46.7894535977" lon="6.5249487665"><ele>587.02</ele><time>2012-06-02T12:23:53Z</time></trkpt>
<trkpt lat="46.7894555256" lon="6.5249469224"><ele>587.02</ele><time>2012-06-02T12:24:08Z</time></trkpt>
<trkpt lat="46.7894555256" lon="6.5249469224"><ele>587.02</ele><time>2012-06-02T12:24:12Z</time></trkpt>
<trkpt lat="46.7896512430" lon="6.5251229424"><ele>588.46</ele><time>2012-06-02T12:24:24Z</time></trkpt>
<trkpt lat="46.7899005208" lon="6.5252274647"><ele>589.43</ele><time>2012-06-02T12:24:35Z</time></trkpt>
<trkpt lat="46.7902062926" lon="6.5252312366"><ele>590.39</ele><time>2012-06-02T12:24:45Z</time></trkpt>
<trkpt lat="46.7906092107" lon="6.5252357628"><ele>591.35</ele><time>2012-06-02T12:24:59Z</time></trkpt>
<trkpt lat="46.7909568083" lon="6.5252108686"><ele>591.83</ele><time>2012-06-02T12:25:10Z</time></trkpt>
<trkpt lat="46.7912794277" lon="6.5253550373"><ele>593.27</ele><time>2012-06-02T12:25:21Z</time></trkpt>
<trkpt lat="46.7915300466" lon="6.5256487392"><ele>595.19</ele><time>2012-06-02T12:25:30Z</time></trkpt>
<trkpt lat="46.7915080022" lon="6.5259969234"><ele>596.15</ele><time>2012-06-02T12:25:36Z</time></trkpt>
<trkpt lat="46.7914867122" lon="6.5260784794"><ele>596.15</ele><time>2012-06-02T12:25:37Z</time></trkpt>
<trkpt lat="46.7915237602" lon="6.5266755223"><ele>592.79</ele><time>2012-06-02T12:25:43Z</time></trkpt>
<trkpt lat="46.7917084135" lon="6.5274129622"><ele>587.98</ele><time>2012-06-02T12:25:53Z</time></trkpt>
<trkpt lat="46.7918580305" lon="6.5277945902"><ele>586.06</ele><time>2012-06-02T12:25:58Z</time></trkpt>
<trkpt lat="46.7920296919" lon="6.5280504897"><ele>585.58</ele><time>2012-06-02T12:26:02Z</time></trkpt>
<trkpt lat="46.7924830690" lon="6.5286200400"><ele>584.62</ele><time>2012-06-02T12:26:13Z</time></trkpt>
<trkpt lat="46.7929416429" lon="6.5293345973"><ele>585.1</ele><time>2012-06-02T12:26:27Z</time></trkpt>
<trkpt lat="46.7931036651" lon="6.5297586378"><ele>586.54</ele><time>2012-06-02T12:26:35Z</time></trkpt>
<trkpt lat="46.7932241131" lon="6.5303770546"><ele>588.46</ele><time>2012-06-02T12:26:46Z</time></trkpt>
<trkpt lat="46.7934575491" lon="6.5309564956"><ele>589.43</ele><time>2012-06-02T12:26:58Z</time></trkpt>
<trkpt lat="46.7937642429" lon="6.5313724056"><ele>591.35</ele><time>2012-06-02T12:27:08Z</time></trkpt>
<trkpt lat="46.7940702662" lon="6.5315034147"><ele>591.35</ele><time>2012-06-02T12:27:17Z</time></trkpt>
<trkpt lat="46.7945098970" lon="6.5316376928"><ele>593.75</ele><time>2012-06-02T12:27:29Z</time></trkpt>
<trkpt lat="46.7947579175" lon="6.5317879803"><ele>594.23</ele><time>2012-06-02T12:27:35Z</time></trkpt>
<trkpt lat="46.7952578980" lon="6.5324364044"><ele>591.35</ele><time>2012-06-02T12:27:46Z</time></trkpt>
<trkpt lat="46.7958971020" lon="6.5333434101"><ele>587.5</ele><time>2012-06-02T12:27:59Z</time></trkpt>
<trkpt lat="46.7963023670" lon="6.5339070093"><ele>587.98</ele><time>2012-06-02T12:28:07Z</time></trkpt>
<trkpt lat="46.7963482998" lon="6.5339785907"><ele>588.46</ele><time>2012-06-02T12:28:08Z</time></trkpt>
<trkpt lat="46.7969048582" lon="6.5347689204"><ele>593.27</ele><time>2012-06-02T12:28:19Z</time></trkpt>
<trkpt lat="46.7972889170" lon="6.5353864152"><ele>598.08</ele><time>2012-06-02T12:28:28Z</time></trkpt>
<trkpt lat="46.7973348498" lon="6.5354547277"><ele>598.56</ele><time>2012-06-02T12:28:29Z</time></trkpt>
<trkpt lat="46.7978918273" lon="6.5360838734"><ele>598.08</ele><time>2012-06-02T12:28:38Z</time></trkpt>
<trkpt lat="46.7981105950" lon="6.5362633299"><ele>597.12</ele><time>2012-06-02T12:28:41Z</time></trkpt>
<trkpt lat="46.7984281853" lon="6.5364044812"><ele>595.19</ele><time>2012-06-02T12:28:44Z</time></trkpt>
<trkpt lat="46.7987768725" lon="6.5367594548"><ele>592.79</ele><time>2012-06-02T12:28:48Z</time></trkpt>
<trkpt lat="46.7990616895" lon="6.5373561624"><ele>591.35</ele><time>2012-06-02T12:28:53Z</time></trkpt>
<trkpt lat="46.7995239515" lon="6.5380185004"><ele>590.87</ele><time>2012-06-02T12:29:00Z</time></trkpt>
<trkpt lat="46.7998315673" lon="6.5387092531"><ele>590.87</ele><time>2012-06-02T12:29:06Z</time></trkpt>
<trkpt lat="46.8000701163" lon="6.5389460418"><ele>589.43</ele><time>2012-06-02T12:29:09Z</time></trkpt>
<trkpt lat="46.8008477893" lon="6.5395755228"><ele>582.7</ele><time>2012-06-02T12:29:18Z</time></trkpt>
<trkpt lat="46.8009060435" lon="6.5396329388"><ele>582.22</ele><time>2012-06-02T12:29:19Z</time></trkpt>
<trkpt lat="46.8011136632" lon="6.5398667939"><ele>580.77</ele><time>2012-06-02T12:29:23Z</time></trkpt>
<trkpt lat="46.8017235305" lon="6.5403863881"><ele>571.16</ele><time>2012-06-02T12:29:34Z</time></trkpt>
<trkpt lat="46.8018287234" lon="6.5404918324"><ele>569.72</ele><time>2012-06-02T12:29:36Z</time></trkpt>
<trkpt lat="46.8021086790" lon="6.5407891385"><ele>567.32</ele><time>2012-06-02T12:29:42Z</time></trkpt>
<trkpt lat="46.8023607228" lon="6.5409799945"><ele>565.39</ele><time>2012-06-02T12:29:47Z</time></trkpt>
<trkpt lat="46.8030640483" lon="6.5414142609"><ele>559.62</ele><time>2012-06-02T12:29:59Z</time></trkpt>
<trkpt lat="46.8031228893" lon="6.5414595231"><ele>559.14</ele><time>2012-06-02T12:30:00Z</time></trkpt>
<trkpt lat="46.8032333627" lon="6.5415505506"><ele>558.66</ele><time>2012-06-02T12:30:02Z</time></trkpt>
<trkpt lat="46.8034018390" lon="6.5416653827"><ele>558.18</ele><time>2012-06-02T12:30:05Z</time></trkpt>
<trkpt lat="46.8036152422" lon="6.5418372955"><ele>559.14</ele><time>2012-06-02T12:30:09Z</time></trkpt>
<trkpt lat="46.8037123047" lon="6.5419557318"><ele>560.11</ele><time>2012-06-02T12:30:11Z</time></trkpt>
<trkpt lat="46.8039645161" lon="6.5422532894"><ele>563.47</ele><time>2012-06-02T12:30:16Z</time></trkpt>
<trkpt lat="46.8041726388" lon="6.5424117912"><ele>564.91</ele><time>2012-06-02T12:30:20Z</time></trkpt>
<trkpt lat="46.8044143729" lon="6.5425786749"><ele>569.24</ele><time>2012-06-02T12:30:28Z</time></trkpt>
<trkpt lat="46.8045046460" lon="6.5426241048"><ele>573.56</ele><time>2012-06-02T12:30:34Z</time></trkpt>
<trkpt lat="46.8047382496" lon="6.5427514259"><ele>575.97</ele><time>2012-06-02T12:30:48Z</time></trkpt>
<trkpt lat="46.8047536723" lon="6.5427597240"><ele>575.97</ele><time>2012-06-02T12:30:49Z</time></trkpt>
<trkpt lat="46.8049130961" lon="6.5429584589"><ele>584.62</ele><time>2012-06-02T12:31:02Z</time></trkpt>
<trkpt lat="46.8050374836" lon="6.5432245005"><ele>587.5</ele><time>2012-06-02T12:31:15Z</time></trkpt>
<trkpt lat="46.8051491305" lon="6.5434426814"><ele>591.35</ele><time>2012-06-02T12:31:27Z</time></trkpt>
<trkpt lat="46.8052389007" lon="6.5435897000"><ele>595.19</ele><time>2012-06-02T12:31:38Z</time></trkpt>
<trkpt lat="46.8052990828" lon="6.5437140036"><ele>604.33</ele><time>2012-06-02T12:31:49Z</time></trkpt>
<trkpt lat="46.8053247314" lon="6.5437860042"><ele>608.17</ele><time>2012-06-02T12:31:54Z</time></trkpt>
<trkpt lat="46.8054586742" lon="6.5439422429"><ele>610.09</ele><time>2012-06-02T12:32:06Z</time></trkpt>
<trkpt lat="46.8056042679" lon="6.5440983139"><ele>612.5</ele><time>2012-06-02T12:32:20Z</time></trkpt>
<trkpt lat="46.8056128174" lon="6.5441074502"><ele>612.98</ele><time>2012-06-02T12:32:21Z</time></trkpt>
<trkpt lat="46.8056447525" lon="6.5441467613"><ele>614.42</ele><time>2012-06-02T12:32:25Z</time></trkpt>
<trkpt lat="46.8057090417" lon="6.5441760980"><ele>614.9</ele><time>2012-06-02T12:32:29Z</time></trkpt>
<trkpt lat="46.8060747441" lon="6.5443910100"><ele>610.57</ele><time>2012-06-02T12:32:44Z</time></trkpt>
<trkpt lat="46.8061788473" lon="6.5444711410"><ele>610.57</ele><time>2012-06-02T12:32:50Z</time></trkpt>
<trkpt lat="46.8062161468" lon="6.5444936883"><ele>612.02</ele><time>2012-06-02T12:32:53Z</time></trkpt>
<trkpt lat="46.8063244410" lon="6.5446076822"><ele>617.3</ele><time>2012-06-02T12:33:03Z</time></trkpt>
<trkpt lat="46.8064764049" lon="6.5447582211"><ele>620.19</ele><time>2012-06-02T12:33:14Z</time></trkpt>
<trkpt lat="46.8065057416" lon="6.5448001307"><ele>620.19</ele><time>2012-06-02T12:33:17Z</time></trkpt>
<trkpt lat="46.8067043088" lon="6.5449771564"><ele>620.67</ele><time>2012-06-02T12:33:30Z</time></trkpt>
<trkpt lat="46.8068681750" lon="6.5451493207"><ele>617.3</ele><time>2012-06-02T12:33:41Z</time></trkpt>
<trkpt lat="46.8069720268" lon="6.5452166274"><ele>618.75</ele><time>2012-06-02T12:33:48Z</time></trkpt>
<trkpt lat="46.8071386591" lon="6.5452212375"><ele>619.71</ele><time>2012-06-02T12:33:58Z</time></trkpt>
<trkpt lat="46.8073903676" lon="6.5452532563"><ele>618.26</ele><time>2012-06-02T12:34:09Z</time></trkpt>
<trkpt lat="46.8075647950" lon="6.5452355705"><ele>619.71</ele><time>2012-06-02T12:34:17Z</time></trkpt>
<trkpt lat="46.8076998275" lon="6.5451446269"><ele>620.19</ele><time>2012-06-02T12:34:24Z</time></trkpt>
<trkpt lat="46.8078533001" lon="6.5449847002"><ele>618.75</ele><time>2012-06-02T12:34:35Z</time></trkpt>
<trkpt lat="46.8079648633" lon="6.5447668545"><ele>618.75</ele><time>2012-06-02T12:34:45Z</time></trkpt>
<trkpt lat="46.8081248738" lon="6.5445818659"><ele>619.71</ele><time>2012-06-02T12:34:54Z</time></trkpt>
<trkpt lat="46.8083764985" lon="6.5444280580"><ele>620.19</ele><time>2012-06-02T12:35:05Z</time></trkpt>
<trkpt lat="46.8085450586" lon="6.5444060974"><ele>621.63</ele><time>2012-06-02T12:35:14Z</time></trkpt>
<trkpt lat="46.8086981960" lon="6.5444165748"><ele>623.55</ele><time>2012-06-02T12:35:22Z</time></trkpt>
<trkpt lat="46.8088681810" lon="6.5444052592"><ele>624.03</ele><time>2012-06-02T12:35:30Z</time></trkpt>
<trkpt lat="46.8089895509" lon="6.5442150738"><ele>624.03</ele><time>2012-06-02T12:35:38Z</time></trkpt>
<trkpt lat="46.8090849370" lon="6.5440569911"><ele>624.03</ele><time>2012-06-02T12:35:44Z</time></trkpt>
<trkpt lat="46.8091587815" lon="6.5439733397"><ele>624.03</ele><time>2012-06-02T12:35:49Z</time></trkpt>
<trkpt lat="46.8092482165" lon="6.5437591821"><ele>624.51</ele><time>2012-06-02T12:35:54Z</time></trkpt>
<trkpt lat="46.8092348892" lon="6.5435782168"><ele>624.03</ele><time>2012-06-02T12:35:58Z</time></trkpt>
<trkpt lat="46.8093348015" lon="6.5434135962"><ele>624.51</ele><time>2012-06-02T12:36:06Z</time></trkpt>
<trkpt lat="46.8094415870" lon="6.5433902107"><ele>624.51</ele><time>2012-06-02T12:36:13Z</time></trkpt>
<trkpt lat="46.8095788825" lon="6.5432564355"><ele>624.99</ele><time>2012-06-02T12:36:21Z</time></trkpt>
<trkpt lat="46.8096303474" lon="6.5431261808"><ele>625.96</ele><time>2012-06-02T12:36:29Z</time></trkpt>
<trkpt lat="46.8098057806" lon="6.5429907292"><ele>628.36</ele><time>2012-06-02T12:36:36Z</time></trkpt>
<trkpt lat="46.8100510351" lon="6.5428185649"><ele>629.8</ele><time>2012-06-02T12:36:46Z</time></trkpt>
<trkpt lat="46.8100925256" lon="6.5427723806"><ele>630.28</ele><time>2012-06-02T12:36:48Z</time></trkpt>
<trkpt lat="46.8101802841" lon="6.5426817723"><ele>630.76</ele><time>2012-06-02T12:36:53Z</time></trkpt>
<trkpt lat="46.8103967048" lon="6.5422641020"><ele>630.28</ele><time>2012-06-02T12:37:06Z</time></trkpt>
<trkpt lat="46.8105402030" lon="6.5420857351"><ele>631.24</ele><time>2012-06-02T12:37:14Z</time></trkpt>
<trkpt lat="46.8106646743" lon="6.5419172589"><ele>632.68</ele><time>2012-06-02T12:37:23Z</time></trkpt>
<trkpt lat="46.8108217511" lon="6.5417979006"><ele>633.65</ele><time>2012-06-02T12:37:33Z</time></trkpt>
<trkpt lat="46.8109755591" lon="6.5415084735"><ele>635.57</ele><time>2012-06-02T12:37:44Z</time></trkpt>
<trkpt lat="46.8111255951" lon="6.5411933977"><ele>636.53</ele><time>2012-06-02T12:37:55Z</time></trkpt>
<trkpt lat="46.8112369068" lon="6.5409329720"><ele>639.89</ele><time>2012-06-02T12:38:07Z</time></trkpt>
<trkpt lat="46.8112827558" lon="6.5408443753"><ele>639.89</ele><time>2012-06-02T12:38:13Z</time></trkpt>
<trkpt lat="46.8113897927" lon="6.5405767411"><ele>641.82</ele><time>2012-06-02T12:38:25Z</time></trkpt>
<trkpt lat="46.8114715163" lon="6.5403855499"><ele>643.74</ele><time>2012-06-02T12:38:36Z</time></trkpt>
<trkpt lat="46.8115412537" lon="6.5401884913"><ele>644.7</ele><time>2012-06-02T12:38:47Z</time></trkpt>
<trkpt lat="46.8116031960" lon="6.5399299935"><ele>645.18</ele><time>2012-06-02T12:38:59Z</time></trkpt>
<trkpt lat="46.8116954807" lon="6.5396732558"><ele>647.1</ele><time>2012-06-02T12:39:12Z</time></trkpt>
<trkpt lat="46.8117562495" lon="6.5394657198"><ele>652.87</ele><time>2012-06-02T12:39:25Z</time></trkpt>
<trkpt lat="46.8117844127" lon="6.5394142549"><ele>654.31</ele><time>2012-06-02T12:39:27Z</time></trkpt>
<trkpt lat="46.8118646275" lon="6.5392535739"><ele>668.73</ele><time>2012-06-02T12:39:38Z</time></trkpt>
<trkpt lat="46.8118942156" lon="6.5392384864"><ele>672.1</ele><time>2012-06-02T12:39:40Z</time></trkpt>
<trkpt lat="46.8119701557" lon="6.5392032824"><ele>678.35</ele><time>2012-06-02T12:39:47Z</time></trkpt>
<trkpt lat="46.8120134901" lon="6.5391979180"><ele>681.71</ele><time>2012-06-02T12:39:51Z</time></trkpt>
<trkpt lat="46.8120621052" lon="6.5391611215"><ele>682.67</ele><time>2012-06-02T12:39:55Z</time></trkpt>
<trkpt lat="46.8121499475" lon="6.5390187968"><ele>683.15</ele><time>2012-06-02T12:40:07Z</time></trkpt>
<trkpt lat="46.8121967185" lon="6.5389199741"><ele>683.15</ele><time>2012-06-02T12:40:15Z</time></trkpt>
<trkpt lat="46.8122695573" lon="6.5388211515"><ele>684.6</ele><time>2012-06-02T12:40:25Z</time></trkpt>
<trkpt lat="46.8123122212" lon="6.5387254301"><ele>687</ele><time>2012-06-02T12:40:35Z</time></trkpt>
<trkpt lat="46.8123742472" lon="6.5386329778"><ele>688.44</ele><time>2012-06-02T12:40:46Z</time></trkpt>
<trkpt lat="46.8125897460" lon="6.5382391959"><ele>698.53</ele><time>2012-06-02T12:40:57Z</time></trkpt>
<trkpt lat="46.8127121218" lon="6.5380040836"><ele>699.98</ele><time>2012-06-02T12:41:08Z</time></trkpt>
<trkpt lat="46.8128437176" lon="6.5378847253"><ele>710.55</ele><time>2012-06-02T12:41:22Z</time></trkpt>
<trkpt lat="46.8128872197" lon="6.5378240403"><ele>715.36</ele><time>2012-06-02T12:41:27Z</time></trkpt>
<trkpt lat="46.8129166402" lon="6.5378072765"><ele>715.84</ele><time>2012-06-02T12:41:30Z</time></trkpt>
<trkpt lat="46.8129844498" lon="6.5377424005"><ele>715.84</ele><time>2012-06-02T12:41:38Z</time></trkpt>
<trkpt lat="46.8131008744" lon="6.5377014130"><ele>717.28</ele><time>2012-06-02T12:41:50Z</time></trkpt>
<trkpt lat="46.8132467195" lon="6.5376148280"><ele>717.28</ele><time>2012-06-02T12:42:01Z</time></trkpt>
<trkpt lat="46.8133357354" lon="6.5374353714"><ele>713.92</ele><time>2012-06-02T12:42:11Z</time></trkpt>
<trkpt lat="46.8133715261" lon="6.5373612754"><ele>711.51</ele><time>2012-06-02T12:42:17Z</time></trkpt>
<trkpt lat="46.8134061433" lon="6.5372586809"><ele>711.03</ele><time>2012-06-02T12:42:27Z</time></trkpt>
<trkpt lat="46.8134057242" lon="6.5371762030"><ele>711.51</ele><time>2012-06-02T12:42:38Z</time></trkpt>
<trkpt lat="46.8134120107" lon="6.5370305255"><ele>713.92</ele><time>2012-06-02T12:42:52Z</time></trkpt>
<trkpt lat="46.8135003559" lon="6.5367265139"><ele>715.36</ele><time>2012-06-02T12:43:03Z</time></trkpt>
<trkpt lat="46.8135906290" lon="6.5364300460"><ele>717.28</ele><time>2012-06-02T12:43:13Z</time></trkpt>
<trkpt lat="46.8136963248" lon="6.5362632461"><ele>716.8</ele><time>2012-06-02T12:43:23Z</time></trkpt>
<trkpt lat="46.8138186168" lon="6.5360321570"><ele>718.72</ele><time>2012-06-02T12:43:34Z</time></trkpt>
<trkpt lat="46.8138919584" lon="6.5359405428"><ele>719.68</ele><time>2012-06-02T12:43:43Z</time></trkpt>
<trkpt lat="46.8139746878" lon="6.5357841365"><ele>720.16</ele><time>2012-06-02T12:43:56Z</time></trkpt>
<trkpt lat="46.8140246440" lon="6.5356646944"><ele>719.68</ele><time>2012-06-02T12:44:07Z</time></trkpt>
<trkpt lat="46.8140264880" lon="6.5355420671"><ele>724.01</ele><time>2012-06-02T12:44:18Z</time></trkpt>
<trkpt lat="46.8140234705" lon="6.5355107188"><ele>725.45</ele><time>2012-06-02T12:44:20Z</time></trkpt>
<trkpt lat="46.8139906973" lon="6.5354580805"><ele>729.78</ele><time>2012-06-02T12:44:29Z</time></trkpt>
<trkpt lat="46.8139706645" lon="6.5353790391"><ele>736.51</ele><time>2012-06-02T12:44:38Z</time></trkpt>
<trkpt lat="46.8140011746" lon="6.5353498701"><ele>737.95</ele><time>2012-06-02T12:44:46Z</time></trkpt>
<trkpt lat="46.8139456026" lon="6.5352602676"><ele>736.99</ele><time>2012-06-02T12:44:55Z</time></trkpt>
<trkpt lat="46.8139394000" lon="6.5352575853"><ele>736.99</ele><time>2012-06-02T12:45:14Z</time></trkpt>
<trkpt lat="46.8139409088" lon="6.5352586750"><ele>736.99</ele><time>2012-06-02T12:45:41Z</time></trkpt>
<trkpt lat="46.8139409088" lon="6.5352586750"><ele>736.99</ele><time>2012-06-02T12:46:07Z</time></trkpt>
<trkpt lat="46.8139441777" lon="6.5352567472"><ele>737.47</ele><time>2012-06-02T12:46:32Z</time></trkpt>
<trkpt lat="46.8139471114" lon="6.5352653805"><ele>737.47</ele><time>2012-06-02T12:47:01Z</time></trkpt>
<trkpt lat="46.8139471114" lon="6.5352653805"><ele>737.47</ele><time>2012-06-02T12:47:19Z</time></trkpt>
<trkpt lat="46.8139503803" lon="6.5352604352"><ele>737.47</ele><time>2012-06-02T12:47:44Z</time></trkpt>
<trkpt lat="46.8139503803" lon="6.5352604352"><ele>737.47</ele><time>2012-06-02T12:48:10Z</time></trkpt>
<trkpt lat="46.8139482848" lon="6.5352621954"><ele>737.47</ele><time>2012-06-02T12:48:34Z</time></trkpt>
<trkpt lat="46.8139482848" lon="6.5352621954"><ele>737.47</ele><time>2012-06-02T12:48:53Z</time></trkpt>
<trkpt lat="46.8138801400" lon="6.5352539811"><ele>738.91</ele><time>2012-06-02T12:49:02Z</time></trkpt>
<trkpt lat="46.8137587700" lon="6.5352203697"><ele>733.14</ele><time>2012-06-02T12:49:08Z</time></trkpt>
<trkpt lat="46.8137817364" lon="6.5351906139"><ele>733.62</ele><time>2012-06-02T12:49:12Z</time></trkpt>
<trkpt lat="46.8138207961" lon="6.5350953117"><ele>737.95</ele><time>2012-06-02T12:49:24Z</time></trkpt>
<trkpt lat="46.8138405774" lon="6.5350005962"><ele>737.95</ele><time>2012-06-02T12:49:36Z</time></trkpt>
<trkpt lat="46.8138566706" lon="6.5350027755"><ele>738.91</ele><time>2012-06-02T12:49:48Z</time></trkpt>
<trkpt lat="46.8139290065" lon="6.5348692518"><ele>740.35</ele><time>2012-06-02T12:50:01Z</time></trkpt>
<trkpt lat="46.8139500450" lon="6.5348078962"><ele>740.35</ele><time>2012-06-02T12:50:12Z</time></trkpt>
<trkpt lat="46.8139880989" lon="6.5347008593"><ele>741.79</ele><time>2012-06-02T12:50:24Z</time></trkpt>
<trkpt lat="46.8140254822" lon="6.5346488915"><ele>742.28</ele><time>2012-06-02T12:50:34Z</time></trkpt>
<trkpt lat="46.8141118996" lon="6.5344227478"><ele>739.87</ele><time>2012-06-02T12:50:45Z</time></trkpt>
<trkpt lat="46.8141441699" lon="6.5343227517"><ele>739.39</ele><time>2012-06-02T12:50:56Z</time></trkpt>
<trkpt lat="46.8141785357" lon="6.5342384297"><ele>737.47</ele><time>2012-06-02T12:51:06Z</time></trkpt>
<trkpt lat="46.8142481055" lon="6.5340962727"><ele>737.95</ele><time>2012-06-02T12:51:17Z</time></trkpt>
<trkpt lat="46.8142557330" lon="6.5339997131"><ele>736.99</ele><time>2012-06-02T12:51:23Z</time></trkpt>
<trkpt lat="46.8142724130" lon="6.5337899141"><ele>736.51</ele><time>2012-06-02T12:51:34Z</time></trkpt>
<trkpt lat="46.8143241294" lon="6.5336916782"><ele>735.07</ele><time>2012-06-02T12:51:44Z</time></trkpt>
<trkpt lat="46.8143583275" lon="6.5335388761"><ele>742.76</ele><time>2012-06-02T12:51:55Z</time></trkpt>
<trkpt lat="46.8143599201" lon="6.5335289855"><ele>743.24</ele><time>2012-06-02T12:52:04Z</time></trkpt>
<trkpt lat="46.8143599201" lon="6.5335289855"><ele>743.24</ele><time>2012-06-02T12:52:15Z</time></trkpt>
<trkpt lat="46.8143599201" lon="6.5335289855"><ele>743.24</ele><time>2012-06-02T12:52:27Z</time></trkpt>
<trkpt lat="46.8143574893" lon="6.5335209388"><ele>743.72</ele><time>2012-06-02T12:52:36Z</time></trkpt>
<trkpt lat="46.8143574893" lon="6.5335209388"><ele>743.72</ele><time>2012-06-02T12:52:47Z</time></trkpt>
<trkpt lat="46.8143653683" lon="6.5334769338"><ele>749</ele><time>2012-06-02T12:52:59Z</time></trkpt>
<trkpt lat="46.8143905140" lon="6.5333180130"><ele>755.25</ele><time>2012-06-02T12:53:10Z</time></trkpt>
<trkpt lat="46.8144054338" lon="6.5332647040"><ele>756.21</ele><time>2012-06-02T12:53:22Z</time></trkpt>
<trkpt lat="46.8144054338" lon="6.5332647040"><ele>756.21</ele><time>2012-06-02T12:53:36Z</time></trkpt>
<trkpt lat="46.8144025840" lon="6.5332621057"><ele>756.69</ele><time>2012-06-02T12:53:57Z</time></trkpt>
<trkpt lat="46.8144025840" lon="6.5332621057"><ele>756.69</ele><time>2012-06-02T12:54:21Z</time></trkpt>
<trkpt lat="46.8144038413" lon="6.5332511254"><ele>757.18</ele><time>2012-06-02T12:54:44Z</time></trkpt>
<trkpt lat="46.8144038413" lon="6.5332511254"><ele>757.18</ele><time>2012-06-02T12:54:58Z</time></trkpt>
<trkpt lat="46.8144001532" lon="6.5332473535"><ele>757.18</ele><time>2012-06-02T12:55:16Z</time></trkpt>
<trkpt lat="46.8144001532" lon="6.5332473535"><ele>757.18</ele><time>2012-06-02T12:55:41Z</time></trkpt>
<trkpt lat="46.8143987283" lon="6.5332015883"><ele>757.66</ele><time>2012-06-02T12:55:58Z</time></trkpt>
<trkpt lat="46.8144348543" lon="6.5331484471"><ele>758.62</ele><time>2012-06-02T12:56:12Z</time></trkpt>
<trkpt lat="46.8145357724" lon="6.5330233891"><ele>762.94</ele><time>2012-06-02T12:56:24Z</time></trkpt>
<trkpt lat="46.8147915881" lon="6.5330109000"><ele>764.87</ele><time>2012-06-02T12:56:36Z</time></trkpt>
<trkpt lat="46.8149061687" lon="6.5328636300"><ele>767.75</ele><time>2012-06-02T12:56:45Z</time></trkpt>
<trkpt lat="46.8150198273" lon="6.5327660646"><ele>768.71</ele><time>2012-06-02T12:56:50Z</time></trkpt>
<trkpt lat="46.8151481543" lon="6.5325662401"><ele>769.19</ele><time>2012-06-02T12:56:58Z</time></trkpt>
<trkpt lat="46.8152991962" lon="6.5323903877"><ele>767.27</ele><time>2012-06-02T12:57:10Z</time></trkpt>
<trkpt lat="46.8154058140" lon="6.5324157849"><ele>769.19</ele><time>2012-06-02T12:57:22Z</time></trkpt>
<trkpt lat="46.8154493999" lon="6.5323973447"><ele>771.11</ele><time>2012-06-02T12:57:29Z</time></trkpt>
<trkpt lat="46.8155300338" lon="6.5322577022"><ele>772.56</ele><time>2012-06-02T12:57:40Z</time></trkpt>
<trkpt lat="46.8155388348" lon="6.5321920719"><ele>775.44</ele><time>2012-06-02T12:57:49Z</time></trkpt>
<trkpt lat="46.8155784812" lon="6.5321729612"><ele>777.84</ele><time>2012-06-02T12:57:59Z</time></trkpt>
<trkpt lat="46.8155705184" lon="6.5321339853"><ele>777.36</ele><time>2012-06-02T12:58:12Z</time></trkpt>
<trkpt lat="46.8155705184" lon="6.5321339853"><ele>777.36</ele><time>2012-06-02T12:58:21Z</time></trkpt>
<trkpt lat="46.8155705184" lon="6.5321339853"><ele>777.36</ele><time>2012-06-02T12:58:33Z</time></trkpt>
<trkpt lat="46.8154716119" lon="6.5318238549"><ele>783.13</ele><time>2012-06-02T12:58:44Z</time></trkpt>
<trkpt lat="46.8154183868" lon="6.5315890778"><ele>782.65</ele><time>2012-06-02T12:58:53Z</time></trkpt>
<trkpt lat="46.8154790718" lon="6.5314160753"><ele>792.74</ele><time>2012-06-02T12:59:04Z</time></trkpt>
<trkpt lat="46.8154779822" lon="6.5314070228"><ele>794.19</ele><time>2012-06-02T12:59:15Z</time></trkpt>
<trkpt lat="46.8154779822" lon="6.5314070228"><ele>794.19</ele><time>2012-06-02T12:59:28Z</time></trkpt>
<trkpt lat="46.8154779822" lon="6.5314070228"><ele>794.19</ele><time>2012-06-02T12:59:44Z</time></trkpt>
<trkpt lat="46.8154844362" lon="6.5314128902"><ele>793.71</ele><time>2012-06-02T12:59:58Z</time></trkpt>
<trkpt lat="46.8154936563" lon="6.5313415602"><ele>794.67</ele><time>2012-06-02T13:00:10Z</time></trkpt>
<trkpt lat="46.8154902197" lon="6.5313138161"><ele>794.67</ele><time>2012-06-02T13:00:26Z</time></trkpt>
<trkpt lat="46.8154902197" lon="6.5313138161"><ele>794.67</ele><time>2012-06-02T13:00:41Z</time></trkpt>
<trkpt lat="46.8154734559" lon="6.5312169213"><ele>796.59</ele><time>2012-06-02T13:00:52Z</time></trkpt>
<trkpt lat="46.8154734559" lon="6.5312169213"><ele>796.59</ele><time>2012-06-02T13:01:04Z</time></trkpt>
<trkpt lat="46.8154734559" lon="6.5312169213"><ele>796.59</ele><time>2012-06-02T13:01:26Z</time></trkpt>
<trkpt lat="46.8154788204" lon="6.5311983135"><ele>797.55</ele><time>2012-06-02T13:01:46Z</time></trkpt>
<trkpt lat="46.8154788204" lon="6.5311983135"><ele>797.55</ele><time>2012-06-02T13:02:02Z</time></trkpt>
<trkpt lat="46.8154799938" lon="6.5311944578"><ele>797.55</ele><time>2012-06-02T13:02:23Z</time></trkpt>
<trkpt lat="46.8154799938" lon="6.5311944578"><ele>797.55</ele><time>2012-06-02T13:02:45Z</time></trkpt>
<trkpt lat="46.8154800776" lon="6.5311641153"><ele>799.95</ele><time>2012-06-02T13:02:54Z</time></trkpt>
<trkpt lat="46.8154800776" lon="6.5311641153"><ele>799.95</ele><time>2012-06-02T13:03:09Z</time></trkpt>
<trkpt lat="46.8154921476" lon="6.5311272349"><ele>801.4</ele><time>2012-06-02T13:03:23Z</time></trkpt>
<trkpt lat="46.8155564368" lon="6.5308541525"><ele>807.16</ele><time>2012-06-02T13:03:32Z</time></trkpt>
<trkpt lat="46.8156861048" lon="6.5303953271"><ele>810.53</ele><time>2012-06-02T13:03:46Z</time></trkpt>
<trkpt lat="46.8157396652" lon="6.5301167127"><ele>811.97</ele><time>2012-06-02T13:03:57Z</time></trkpt>
<trkpt lat="46.8158335425" lon="6.5298374277"><ele>818.22</ele><time>2012-06-02T13:04:06Z</time></trkpt>
<trkpt lat="46.8159340415" lon="6.5293868165"><ele>827.83</ele><time>2012-06-02T13:04:18Z</time></trkpt>
<trkpt lat="46.8160125799" lon="6.5289146639"><ele>832.64</ele><time>2012-06-02T13:04:29Z</time></trkpt>
<trkpt lat="46.8160214648" lon="6.5288907755"><ele>834.08</ele><time>2012-06-02T13:04:42Z</time></trkpt>
<trkpt lat="46.8160214648" lon="6.5288907755"><ele>834.08</ele><time>2012-06-02T13:04:54Z</time></trkpt>
<trkpt lat="46.8161222152" lon="6.5286942199"><ele>838.89</ele><time>2012-06-02T13:05:06Z</time></trkpt>
<trkpt lat="46.8161603529" lon="6.5285595227"><ele>842.73</ele><time>2012-06-02T13:05:16Z</time></trkpt>
<trkpt lat="46.8161959760" lon="6.5283881966"><ele>846.58</ele><time>2012-06-02T13:05:26Z</time></trkpt>
<trkpt lat="46.8162084650" lon="6.5283301938"><ele>849.46</ele><time>2012-06-02T13:05:40Z</time></trkpt>
<trkpt lat="46.8163450062" lon="6.5281076543"><ele>853.31</ele><time>2012-06-02T13:05:53Z</time></trkpt>
<trkpt lat="46.8164593354" lon="6.5277924947"><ele>856.19</ele><time>2012-06-02T13:06:06Z</time></trkpt>
<trkpt lat="46.8166036718" lon="6.5274563804"><ele>857.15</ele><time>2012-06-02T13:06:18Z</time></trkpt>
<trkpt lat="46.8167148996" lon="6.5272059292"><ele>855.71</ele><time>2012-06-02T13:06:29Z</time></trkpt>
<trkpt lat="46.8167148996" lon="6.5272059292"><ele>855.71</ele><time>2012-06-02T13:06:43Z</time></trkpt>
<trkpt lat="46.8167148996" lon="6.5272059292"><ele>855.71</ele><time>2012-06-02T13:07:01Z</time></trkpt>
<trkpt lat="46.8167308252" lon="6.5271899197"><ele>855.71</ele><time>2012-06-02T13:07:22Z</time></trkpt>
<trkpt lat="46.8167308252" lon="6.5271899197"><ele>855.71</ele><time>2012-06-02T13:07:37Z</time></trkpt>
<trkpt lat="46.8167747464" lon="6.5271097887"><ele>857.15</ele><time>2012-06-02T13:07:48Z</time></trkpt>
<trkpt lat="46.8167957850" lon="6.5270671248"><ele>859.56</ele><time>2012-06-02T13:08:00Z</time></trkpt>
<trkpt lat="46.8170029018" lon="6.5268405620"><ele>864.36</ele><time>2012-06-02T13:08:12Z</time></trkpt>
<trkpt lat="46.8171142135" lon="6.5268411487"><ele>864.84</ele><time>2012-06-02T13:08:22Z</time></trkpt>
<trkpt lat="46.8173149601" lon="6.5266800486"><ele>851.87</ele><time>2012-06-02T13:08:33Z</time></trkpt>
<trkpt lat="46.8173546065" lon="6.5264990833"><ele>844.18</ele><time>2012-06-02T13:08:44Z</time></trkpt>
<trkpt lat="46.8173724599" lon="6.5264433436"><ele>844.66</ele><time>2012-06-02T13:08:53Z</time></trkpt>
<trkpt lat="46.8173919898" lon="6.5263548307"><ele>847.06</ele><time>2012-06-02T13:09:02Z</time></trkpt>
<trkpt lat="46.8174099270" lon="6.5261632204"><ele>844.66</ele><time>2012-06-02T13:09:16Z</time></trkpt>
<trkpt lat="46.8174261041" lon="6.5259930678"><ele>848.02</ele><time>2012-06-02T13:09:28Z</time></trkpt>
<trkpt lat="46.8174593803" lon="6.5258021280"><ele>852.35</ele><time>2012-06-02T13:09:38Z</time></trkpt>
<trkpt lat="46.8174634874" lon="6.5257670917"><ele>853.79</ele><time>2012-06-02T13:09:48Z</time></trkpt>
<trkpt lat="46.8174674269" lon="6.5257649124"><ele>853.31</ele><time>2012-06-02T13:10:00Z</time></trkpt>
<trkpt lat="46.8174674269" lon="6.5257649124"><ele>853.31</ele><time>2012-06-02T13:10:21Z</time></trkpt>
<trkpt lat="46.8174726237" lon="6.5256115235"><ele>843.69</ele><time>2012-06-02T13:10:38Z</time></trkpt>
<trkpt lat="46.8174681813" lon="6.5256091766"><ele>843.69</ele><time>2012-06-02T13:10:55Z</time></trkpt>
<trkpt lat="46.8174681813" lon="6.5256091766"><ele>843.21</ele><time>2012-06-02T13:11:15Z</time></trkpt>
<trkpt lat="46.8174679298" lon="6.5256092604"><ele>843.21</ele><time>2012-06-02T13:11:32Z</time></trkpt>
<trkpt lat="46.8174679298" lon="6.5256092604"><ele>843.21</ele><time>2012-06-02T13:11:49Z</time></trkpt>
<trkpt lat="46.8174691033" lon="6.5256040636"><ele>843.21</ele><time>2012-06-02T13:12:06Z</time></trkpt>
<trkpt lat="46.8174691033" lon="6.5256040636"><ele>843.21</ele><time>2012-06-02T13:12:20Z</time></trkpt>
<trkpt lat="46.8174683489" lon="6.5256043989"><ele>843.21</ele><time>2012-06-02T13:12:40Z</time></trkpt>
<trkpt lat="46.8174727075" lon="6.5255742241"><ele>842.25</ele><time>2012-06-02T13:12:49Z</time></trkpt>
<trkpt lat="46.8174929917" lon="6.5255330689"><ele>842.25</ele><time>2012-06-02T13:12:59Z</time></trkpt>
<trkpt lat="46.8175223283" lon="6.5255254414"><ele>842.73</ele><time>2012-06-02T13:13:11Z</time></trkpt>
<trkpt lat="46.8175233342" lon="6.5255206637"><ele>842.73</ele><time>2012-06-02T13:13:26Z</time></trkpt>
<trkpt lat="46.8175284471" lon="6.5255173948"><ele>842.73</ele><time>2012-06-02T13:13:47Z</time></trkpt>
<trkpt lat="46.8175264355" lon="6.5254763234"><ele>843.69</ele><time>2012-06-02T13:13:52Z</time></trkpt>
<trkpt lat="46.8174760602" lon="6.5252899099"><ele>845.62</ele><time>2012-06-02T13:14:03Z</time></trkpt>
<trkpt lat="46.8174464721" lon="6.5251348447"><ele>846.1</ele><time>2012-06-02T13:14:11Z</time></trkpt>
<trkpt lat="46.8174370844" lon="6.5249440726"><ele>847.54</ele><time>2012-06-02T13:14:23Z</time></trkpt>
<trkpt lat="46.8173835240" lon="6.5247556474"><ele>848.5</ele><time>2012-06-02T13:14:36Z</time></trkpt>
<trkpt lat="46.8173364177" lon="6.5246637817"><ele>849.94</ele><time>2012-06-02T13:14:48Z</time></trkpt>
<trkpt lat="46.8173088413" lon="6.5244948864"><ele>852.35</ele><time>2012-06-02T13:15:01Z</time></trkpt>
<trkpt lat="46.8172484078" lon="6.5242057946"><ele>857.15</ele><time>2012-06-02T13:15:12Z</time></trkpt>
<trkpt lat="46.8172545265" lon="6.5239423513"><ele>858.11</ele><time>2012-06-02T13:15:23Z</time></trkpt>
<trkpt lat="46.8172352482" lon="6.5237234160"><ele>859.56</ele><time>2012-06-02T13:15:31Z</time></trkpt>
<trkpt lat="46.8172541074" lon="6.5235157963"><ele>860.52</ele><time>2012-06-02T13:15:36Z</time></trkpt>
<trkpt lat="46.8172702845" lon="6.5232081804"><ele>864.84</ele><time>2012-06-02T13:15:50Z</time></trkpt>
<trkpt lat="46.8172717094" lon="6.5231901594"><ele>865.32</ele><time>2012-06-02T13:15:51Z</time></trkpt>
<trkpt lat="46.8173792493" lon="6.5229224414"><ele>866.77</ele><time>2012-06-02T13:16:04Z</time></trkpt>
<trkpt lat="46.8174615595" lon="6.5226393845"><ele>869.17</ele><time>2012-06-02T13:16:16Z</time></trkpt>
<trkpt lat="46.8175871205" lon="6.5223585907"><ele>871.09</ele><time>2012-06-02T13:16:30Z</time></trkpt>
<trkpt lat="46.8176113442" lon="6.5223393124"><ele>870.61</ele><time>2012-06-02T13:16:32Z</time></trkpt>
<trkpt lat="46.8176770583" lon="6.5224573296"><ele>869.17</ele><time>2012-06-02T13:16:43Z</time></trkpt>
<trkpt lat="46.8177571893" lon="6.5227003209"><ele>871.09</ele><time>2012-06-02T13:16:58Z</time></trkpt>
<trkpt lat="46.8179187924" lon="6.5229803603"><ele>872.53</ele><time>2012-06-02T13:17:14Z</time></trkpt>
<trkpt lat="46.8180602789" lon="6.5232044086"><ele>873.98</ele><time>2012-06-02T13:17:27Z</time></trkpt>
<trkpt lat="46.8181792181" lon="6.5233824402"><ele>875.9</ele><time>2012-06-02T13:17:38Z</time></trkpt>
<trkpt lat="46.8183073774" lon="6.5235737991"><ele>877.82</ele><time>2012-06-02T13:17:50Z</time></trkpt>
<trkpt lat="46.8184859119" lon="6.5238489769"><ele>880.71</ele><time>2012-06-02T13:18:07Z</time></trkpt>
<trkpt lat="46.8186421506" lon="6.5241058823"><ele>882.63</ele><time>2012-06-02T13:18:23Z</time></trkpt>
<trkpt lat="46.8187602516" lon="6.5242883563"><ele>883.59</ele><time>2012-06-02T13:18:35Z</time></trkpt>
<trkpt lat="46.8187971320" lon="6.5243350435"><ele>883.59</ele><time>2012-06-02T13:18:38Z</time></trkpt>
<trkpt lat="46.8188786879" lon="6.5243300982"><ele>885.03</ele><time>2012-06-02T13:18:42Z</time></trkpt>
<trkpt lat="46.8189227767" lon="6.5242192894"><ele>886.95</ele><time>2012-06-02T13:18:48Z</time></trkpt>
<trkpt lat="46.8188746646" lon="6.5238684230"><ele>887.91</ele><time>2012-06-02T13:19:01Z</time></trkpt>
<trkpt lat="46.8188077770" lon="6.5233638324"><ele>887.91</ele><time>2012-06-02T13:19:15Z</time></trkpt>
<trkpt lat="46.8186708167" lon="6.5228383709"><ele>887.43</ele><time>2012-06-02T13:19:28Z</time></trkpt>
<trkpt lat="46.8185771909" lon="6.5224017575"><ele>887.91</ele><time>2012-06-02T13:19:39Z</time></trkpt>
<trkpt lat="46.8184879236" lon="6.5220905375"><ele>890.8</ele><time>2012-06-02T13:19:49Z</time></trkpt>
<trkpt lat="46.8184258137" lon="6.5217499807"><ele>892.72</ele><time>2012-06-02T13:19:58Z</time></trkpt>
<trkpt lat="46.8183899391" lon="6.5212510061"><ele>895.61</ele><time>2012-06-02T13:20:11Z</time></trkpt>
<trkpt lat="46.8184029311" lon="6.5210428834"><ele>900.89</ele><time>2012-06-02T13:20:20Z</time></trkpt>
<trkpt lat="46.8183749355" lon="6.5208993852"><ele>909.06</ele><time>2012-06-02T13:20:29Z</time></trkpt>
<trkpt lat="46.8183711637" lon="6.5208152309"><ele>910.03</ele><time>2012-06-02T13:20:33Z</time></trkpt>
<trkpt lat="46.8182648811" lon="6.5205548052"><ele>911.95</ele><time>2012-06-02T13:20:40Z</time></trkpt>
<trkpt lat="46.8182491232" lon="6.5201329440"><ele>913.87</ele><time>2012-06-02T13:20:45Z</time></trkpt>
<trkpt lat="46.8182341196" lon="6.5200429223"><ele>913.39</ele><time>2012-06-02T13:20:47Z</time></trkpt>
<trkpt lat="46.8182033580" lon="6.5200244822"><ele>912.91</ele><time>2012-06-02T13:20:57Z</time></trkpt>
<trkpt lat="46.8181910366" lon="6.5199984983"><ele>912.43</ele><time>2012-06-02T13:21:05Z</time></trkpt>
<trkpt lat="46.8179321196" lon="6.5196873620"><ele>906.66</ele><time>2012-06-02T13:21:18Z</time></trkpt>
<trkpt lat="46.8177017849" lon="6.5195923112"><ele>904.74</ele><time>2012-06-02T13:21:28Z</time></trkpt>
<trkpt lat="46.8175043911" lon="6.5195965860"><ele>904.26</ele><time>2012-06-02T13:21:38Z</time></trkpt>
<trkpt lat="46.8172655068" lon="6.5195063129"><ele>900.89</ele><time>2012-06-02T13:21:49Z</time></trkpt>
<trkpt lat="46.8171172310" lon="6.5192587953"><ele>901.85</ele><time>2012-06-02T13:22:02Z</time></trkpt>
<trkpt lat="46.8170134630" lon="6.5190461464"><ele>904.26</ele><time>2012-06-02T13:22:12Z</time></trkpt>
<trkpt lat="46.8169164006" lon="6.5188150574"><ele>907.14</ele><time>2012-06-02T13:22:24Z</time></trkpt>
<trkpt lat="46.8167734891" lon="6.5184656996"><ele>910.51</ele><time>2012-06-02T13:22:41Z</time></trkpt>
<trkpt lat="46.8166702241" lon="6.5182113089"><ele>911.47</ele><time>2012-06-02T13:22:53Z</time></trkpt>
<trkpt lat="46.8165535480" lon="6.5178918745"><ele>912.43</ele><time>2012-06-02T13:23:08Z</time></trkpt>
<trkpt lat="46.8164848164" lon="6.5176590253"><ele>912.91</ele><time>2012-06-02T13:23:18Z</time></trkpt>
<trkpt lat="46.8163631950" lon="6.5172238369"><ele>915.31</ele><time>2012-06-02T13:23:35Z</time></trkpt>
<trkpt lat="46.8162545655" lon="6.5168583859"><ele>916.27</ele><time>2012-06-02T13:23:50Z</time></trkpt>
<trkpt lat="46.8161737639" lon="6.5166065935"><ele>917.24</ele><time>2012-06-02T13:24:02Z</time></trkpt>
<trkpt lat="46.8160969857" lon="6.5163252968"><ele>918.68</ele><time>2012-06-02T13:24:16Z</time></trkpt>
<trkpt lat="46.8159947265" lon="6.5159510449"><ele>922.04</ele><time>2012-06-02T13:24:34Z</time></trkpt>
<trkpt lat="46.8159073871" lon="6.5157243982"><ele>922.04</ele><time>2012-06-02T13:24:45Z</time></trkpt>
<trkpt lat="46.8157445267" lon="6.5154426824"><ele>923.48</ele><time>2012-06-02T13:24:58Z</time></trkpt>
<trkpt lat="46.8155506533" lon="6.5151685942"><ele>924.45</ele><time>2012-06-02T13:25:10Z</time></trkpt>
<trkpt lat="46.8153849430" lon="6.5149354097"><ele>927.33</ele><time>2012-06-02T13:25:22Z</time></trkpt>
<trkpt lat="46.8152585439" lon="6.5147132054"><ele>930.69</ele><time>2012-06-02T13:25:33Z</time></trkpt>
<trkpt lat="46.8152454682" lon="6.5146780014"><ele>932.14</ele><time>2012-06-02T13:25:40Z</time></trkpt>
<trkpt lat="46.8152515031" lon="6.5146673564"><ele>932.14</ele><time>2012-06-02T13:25:52Z</time></trkpt>
<trkpt lat="46.8152375892" lon="6.5146500897"><ele>932.14</ele><time>2012-06-02T13:26:00Z</time></trkpt>
<trkpt lat="46.8152230885" lon="6.5146285482"><ele>932.62</ele><time>2012-06-02T13:26:08Z</time></trkpt>
<trkpt lat="46.8152230885" lon="6.5146285482"><ele>932.62</ele><time>2012-06-02T13:26:27Z</time></trkpt>
<trkpt lat="46.8152225018" lon="6.5146281291"><ele>932.62</ele><time>2012-06-02T13:26:56Z</time></trkpt>
<trkpt lat="46.8152225018" lon="6.5146281291"><ele>932.62</ele><time>2012-06-02T13:27:23Z</time></trkpt>
<trkpt lat="46.8152225018" lon="6.5146281291"><ele>932.62</ele><time>2012-06-02T13:27:27Z</time></trkpt>
<trkpt lat="46.8152161315" lon="6.5146325715"><ele>932.62</ele><time>2012-06-02T13:27:36Z</time></trkpt>
<trkpt lat="46.8152403552" lon="6.5146433003"><ele>933.1</ele><time>2012-06-02T13:27:46Z</time></trkpt>
<trkpt lat="46.8152367510" lon="6.5146503411"><ele>933.1</ele><time>2012-06-02T13:27:58Z</time></trkpt>
<trkpt lat="46.8152367510" lon="6.5146503411"><ele>933.1</ele><time>2012-06-02T13:28:08Z</time></trkpt>
<trkpt lat="46.8152568676" lon="6.5146593098"><ele>932.14</ele><time>2012-06-02T13:28:19Z</time></trkpt>
<trkpt lat="46.8152426183" lon="6.5146417916"><ele>932.62</ele><time>2012-06-02T13:28:27Z</time></trkpt>
<trkpt lat="46.8152607232" lon="6.5146357566"><ele>932.14</ele><time>2012-06-02T13:28:36Z</time></trkpt>
<trkpt lat="46.8152673449" lon="6.5146467369"><ele>931.17</ele><time>2012-06-02T13:28:43Z</time></trkpt>
<trkpt lat="46.8152574543" lon="6.5146518499"><ele>931.17</ele><time>2012-06-02T13:28:44Z</time></trkpt>
<trkpt lat="46.8152104318" lon="6.5146433003"><ele>931.17</ele><time>2012-06-02T13:28:49Z</time></trkpt>
<trkpt lat="46.8151047360" lon="6.5144879837"><ele>934.06</ele><time>2012-06-02T13:29:03Z</time></trkpt>
<trkpt lat="46.8150890619" lon="6.5144686215"><ele>934.54</ele><time>2012-06-02T13:29:05Z</time></trkpt>
<trkpt lat="46.8150406983" lon="6.5143701341"><ele>936.94</ele><time>2012-06-02T13:29:14Z</time></trkpt>
<trkpt lat="46.8149512634" lon="6.5142412204"><ele>940.31</ele><time>2012-06-02T13:29:26Z</time></trkpt>
<trkpt lat="46.8148644269" lon="6.5141309146"><ele>942.23</ele><time>2012-06-02T13:29:37Z</time></trkpt>
<trkpt lat="46.8147774227" lon="6.5140419826"><ele>944.63</ele><time>2012-06-02T13:29:47Z</time></trkpt>
<trkpt lat="46.8147052545" lon="6.5139451716"><ele>947.52</ele><time>2012-06-02T13:29:58Z</time></trkpt>
<trkpt lat="46.8147113733" lon="6.5139133204"><ele>948</ele><time>2012-06-02T13:30:06Z</time></trkpt>
<trkpt lat="46.8147113733" lon="6.5139133204"><ele>948</ele><time>2012-06-02T13:30:31Z</time></trkpt>
<trkpt lat="46.8147108704" lon="6.5139132366"><ele>947.52</ele><time>2012-06-02T13:30:54Z</time></trkpt>
<trkpt lat="46.8147108704" lon="6.5139132366"><ele>947.52</ele><time>2012-06-02T13:31:14Z</time></trkpt>
<trkpt lat="46.8147101998" lon="6.5139124822"><ele>947.52</ele><time>2012-06-02T13:31:26Z</time></trkpt>
<trkpt lat="46.8147101998" lon="6.5139124822"><ele>947.52</ele><time>2012-06-02T13:31:38Z</time></trkpt>
<trkpt lat="46.8146988004" lon="6.5138967242"><ele>947.52</ele><time>2012-06-02T13:31:54Z</time></trkpt>
<trkpt lat="46.8147002254" lon="6.5138894320"><ele>947.04</ele><time>2012-06-02T13:32:05Z</time></trkpt>
<trkpt lat="46.8147002254" lon="6.5138894320"><ele>947.04</ele><time>2012-06-02T13:32:20Z</time></trkpt>
<trkpt lat="46.8147002254" lon="6.5138894320"><ele>947.04</ele><time>2012-06-02T13:32:32Z</time></trkpt>
<trkpt lat="46.8146278057" lon="6.5136521403"><ele>949.44</ele><time>2012-06-02T13:32:45Z</time></trkpt>
<trkpt lat="46.8145335093" lon="6.5134155191"><ele>950.88</ele><time>2012-06-02T13:32:58Z</time></trkpt>
<trkpt lat="46.8144715670" lon="6.5132248309"><ele>952.8</ele><time>2012-06-02T13:33:09Z</time></trkpt>
<trkpt lat="46.8144049309" lon="6.5129667521"><ele>955.69</ele><time>2012-06-02T13:33:22Z</time></trkpt>
<trkpt lat="46.8143341038" lon="6.5127246827"><ele>957.61</ele><time>2012-06-02T13:33:34Z</time></trkpt>
<trkpt lat="46.8142424896" lon="6.5124429669"><ele>960.01</ele><time>2012-06-02T13:33:49Z</time></trkpt>
<trkpt lat="46.8141775299" lon="6.5122322459"><ele>962.42</ele><time>2012-06-02T13:34:01Z</time></trkpt>
<trkpt lat="46.8141646218" lon="6.5120877419"><ele>964.34</ele><time>2012-06-02T13:34:09Z</time></trkpt>
<trkpt lat="46.8143004924" lon="6.5118908510"><ele>965.78</ele><time>2012-06-02T13:34:24Z</time></trkpt>
<trkpt lat="46.8143364508" lon="6.5118320100"><ele>966.74</ele><time>2012-06-02T13:34:29Z</time></trkpt>
<trkpt lat="46.8143492751" lon="6.5117945429"><ele>967.22</ele><time>2012-06-02T13:34:32Z</time></trkpt>
<trkpt lat="46.8143124785" lon="6.5116077941"><ele>968.18</ele><time>2012-06-02T13:34:44Z</time></trkpt>
<trkpt lat="46.8142544758" lon="6.5113242343"><ele>970.11</ele><time>2012-06-02T13:34:59Z</time></trkpt>
<trkpt lat="46.8141873367" lon="6.5110514034"><ele>972.03</ele><time>2012-06-02T13:35:14Z</time></trkpt>
<trkpt lat="46.8141198624" lon="6.5107587073"><ele>974.43</ele><time>2012-06-02T13:35:29Z</time></trkpt>
<trkpt lat="46.8140616082" lon="6.5104924981"><ele>975.88</ele><time>2012-06-02T13:35:43Z</time></trkpt>
<trkpt lat="46.8139903620" lon="6.5101575572"><ele>977.8</ele><time>2012-06-02T13:36:00Z</time></trkpt>
<trkpt lat="46.8139347062" lon="6.5098949522"><ele>979.72</ele><time>2012-06-02T13:36:14Z</time></trkpt>
<trkpt lat="46.8138838280" lon="6.5095864143"><ele>982.6</ele><time>2012-06-02T13:36:30Z</time></trkpt>
<trkpt lat="46.8138202932" lon="6.5092980769"><ele>984.53</ele><time>2012-06-02T13:36:45Z</time></trkpt>
<trkpt lat="46.8137454428" lon="6.5089975856"><ele>986.45</ele><time>2012-06-02T13:37:01Z</time></trkpt>
<trkpt lat="46.8136883620" lon="6.5086809173"><ele>988.37</ele><time>2012-06-02T13:37:16Z</time></trkpt>
<trkpt lat="46.8136555888" lon="6.5085302107"><ele>989.33</ele><time>2012-06-02T13:37:23Z</time></trkpt>
<trkpt lat="46.8137231469" lon="6.5082443040"><ele>990.78</ele><time>2012-06-02T13:37:36Z</time></trkpt>
<trkpt lat="46.8139653001" lon="6.5081102774"><ele>990.78</ele><time>2012-06-02T13:37:47Z</time></trkpt>
<trkpt lat="46.8141641188" lon="6.5079994686"><ele>992.7</ele><time>2012-06-02T13:37:58Z</time></trkpt>
<trkpt lat="46.8145014904" lon="6.5078149829"><ele>995.1</ele><time>2012-06-02T13:38:14Z</time></trkpt>
<trkpt lat="46.8146228604" lon="6.5076185949"><ele>996.54</ele><time>2012-06-02T13:38:23Z</time></trkpt>
<trkpt lat="46.8148812745" lon="6.5071562491"><ele>997.99</ele><time>2012-06-02T13:38:35Z</time></trkpt>
<trkpt lat="46.8152266089" lon="6.5067585278"><ele>997.51</ele><time>2012-06-02T13:38:46Z</time></trkpt>
<trkpt lat="46.8152865395" lon="6.5066063125"><ele>997.51</ele><time>2012-06-02T13:38:49Z</time></trkpt>
<trkpt lat="46.8156124279" lon="6.5061289631"><ele>997.51</ele><time>2012-06-02T13:38:59Z</time></trkpt>
<trkpt lat="46.8159459438" lon="6.5055101272"><ele>999.43</ele><time>2012-06-02T13:39:12Z</time></trkpt>
<trkpt lat="46.8161450978" lon="6.5049562510"><ele>1000.87</ele><time>2012-06-02T13:39:23Z</time></trkpt>
<trkpt lat="46.8162359577" lon="6.5045219008"><ele>1003.75</ele><time>2012-06-02T13:39:33Z</time></trkpt>
<trkpt lat="46.8163298350" lon="6.5038764104"><ele>1005.2</ele><time>2012-06-02T13:39:46Z</time></trkpt>
<trkpt lat="46.8163413182" lon="6.5036948584"><ele>1006.16</ele><time>2012-06-02T13:39:49Z</time></trkpt>
<trkpt lat="46.8162961397" lon="6.5029980708"><ele>1008.56</ele><time>2012-06-02T13:39:59Z</time></trkpt>
<trkpt lat="46.8162703235" lon="6.5021628980"><ele>1009.04</ele><time>2012-06-02T13:40:08Z</time></trkpt>
<trkpt lat="46.8162850756" lon="6.5019914880"><ele>1009.04</ele><time>2012-06-02T13:40:10Z</time></trkpt>
<trkpt lat="46.8162015919" lon="6.5013418067"><ele>1005.2</ele><time>2012-06-02T13:40:19Z</time></trkpt>
<trkpt lat="46.8161094747" lon="6.5006902814"><ele>1003.75</ele><time>2012-06-02T13:40:28Z</time></trkpt>
<trkpt lat="46.8160617817" lon="6.5003068931"><ele>1003.75</ele><time>2012-06-02T13:40:34Z</time></trkpt>
<trkpt lat="46.8160086405" lon="6.4997675177"><ele>1004.23</ele><time>2012-06-02T13:40:45Z</time></trkpt>
<trkpt lat="46.8159042858" lon="6.4993446507"><ele>1006.16</ele><time>2012-06-02T13:40:54Z</time></trkpt>
<trkpt lat="46.8157783058" lon="6.4989274833"><ele>1008.56</ele><time>2012-06-02T13:41:03Z</time></trkpt>
<trkpt lat="46.8156654853" lon="6.4986592624"><ele>1008.56</ele><time>2012-06-02T13:41:08Z</time></trkpt>
<trkpt lat="46.8156057224" lon="6.4984698314"><ele>1008.08</ele><time>2012-06-02T13:41:11Z</time></trkpt>
<trkpt lat="46.8153648265" lon="6.4980792347"><ele>1005.2</ele><time>2012-06-02T13:41:17Z</time></trkpt>
<trkpt lat="46.8151781615" lon="6.4976049028"><ele>1003.27</ele><time>2012-06-02T13:41:23Z</time></trkpt>
<trkpt lat="46.8150071707" lon="6.4974693675"><ele>1001.83</ele><time>2012-06-02T13:41:27Z</time></trkpt>
<trkpt lat="46.8149433006" lon="6.4974522684"><ele>1001.35</ele><time>2012-06-02T13:41:29Z</time></trkpt>
<trkpt lat="46.8145180028" lon="6.4976361673"><ele>997.99</ele><time>2012-06-02T13:41:41Z</time></trkpt>
<trkpt lat="46.8141808826" lon="6.4976607263"><ele>999.91</ele><time>2012-06-02T13:41:51Z</time></trkpt>
<trkpt lat="46.8138239812" lon="6.4975733869"><ele>1001.83</ele><time>2012-06-02T13:42:02Z</time></trkpt>
<trkpt lat="46.8135573529" lon="6.4973778371"><ele>1002.79</ele><time>2012-06-02T13:42:13Z</time></trkpt>
<trkpt lat="46.8131752219" lon="6.4971666969"><ele>1002.31</ele><time>2012-06-02T13:42:24Z</time></trkpt>
<trkpt lat="46.8125687074" lon="6.4968317561"><ele>999.43</ele><time>2012-06-02T13:42:37Z</time></trkpt>
<trkpt lat="46.8120423239" lon="6.4965219609"><ele>997.02</ele><time>2012-06-02T13:42:48Z</time></trkpt>
<trkpt lat="46.8114241585" lon="6.4961611200"><ele>996.54</ele><time>2012-06-02T13:43:01Z</time></trkpt>
<trkpt lat="46.8113780580" lon="6.4961337112"><ele>996.06</ele><time>2012-06-02T13:43:02Z</time></trkpt>
<trkpt lat="46.8110761419" lon="6.4960013609"><ele>995.58</ele><time>2012-06-02T13:43:08Z</time></trkpt>
<trkpt lat="46.8106970284" lon="6.4960696734"><ele>995.1</ele><time>2012-06-02T13:43:13Z</time></trkpt>
<trkpt lat="46.8104049191" lon="6.4962458611"><ele>996.06</ele><time>2012-06-02T13:43:17Z</time></trkpt>
<trkpt lat="46.8103839643" lon="6.4964365494"><ele>997.99</ele><time>2012-06-02T13:43:22Z</time></trkpt>
<trkpt lat="46.8104187492" lon="6.4965843223"><ele>999.43</ele><time>2012-06-02T13:43:31Z</time></trkpt>
<trkpt lat="46.8104013149" lon="6.4966046065"><ele>1000.87</ele><time>2012-06-02T13:43:36Z</time></trkpt>
<trkpt lat="46.8105085194" lon="6.4964404050"><ele>1004.72</ele><time>2012-06-02T13:43:43Z</time></trkpt>
<trkpt lat="46.8105324917" lon="6.4963798039"><ele>1005.2</ele><time>2012-06-02T13:43:44Z</time></trkpt>
<trkpt lat="46.8108160514" lon="6.4961479604"><ele>1010.48</ele><time>2012-06-02T13:43:51Z</time></trkpt>
<trkpt lat="46.8108726293" lon="6.4961662330"><ele>1010.96</ele><time>2012-06-02T13:43:53Z</time></trkpt>
<trkpt lat="46.8111214880" lon="6.4961436857"><ele>1012.89</ele><time>2012-06-02T13:44:05Z</time></trkpt>
<trkpt lat="46.8113441113" lon="6.4961655624"><ele>1014.81</ele><time>2012-06-02T13:44:14Z</time></trkpt>
<trkpt lat="46.8118204549" lon="6.4963444322"><ele>1014.33</ele><time>2012-06-02T13:44:26Z</time></trkpt>
<trkpt lat="46.8122042622" lon="6.4964948874"><ele>1011.93</ele><time>2012-06-02T13:44:36Z</time></trkpt>
<trkpt lat="46.8127718009" lon="6.4968734141"><ele>1007.6</ele><time>2012-06-02T13:44:51Z</time></trkpt>
<trkpt lat="46.8131749704" lon="6.4971152321"><ele>1008.08</ele><time>2012-06-02T13:45:02Z</time></trkpt>
<trkpt lat="46.8134420179" lon="6.4972910844"><ele>1005.68</ele><time>2012-06-02T13:45:09Z</time></trkpt>
<trkpt lat="46.8139932957" lon="6.4975330699"><ele>1003.27</ele><time>2012-06-02T13:45:21Z</time></trkpt>
<trkpt lat="46.8141933717" lon="6.4975817688"><ele>1003.75</ele><time>2012-06-02T13:45:25Z</time></trkpt>
<trkpt lat="46.8143839762" lon="6.4975861274"><ele>1004.72</ele><time>2012-06-02T13:45:28Z</time></trkpt>
<trkpt lat="46.8147174921" lon="6.4974354208"><ele>1007.6</ele><time>2012-06-02T13:45:33Z</time></trkpt>
<trkpt lat="46.8151341565" lon="6.4973011427"><ele>1006.16</ele><time>2012-06-02T13:45:40Z</time></trkpt>
<trkpt lat="46.8151320610" lon="6.4970024955"><ele>1005.68</ele><time>2012-06-02T13:45:44Z</time></trkpt>
<trkpt lat="46.8151403591" lon="6.4967911039"><ele>1006.16</ele><time>2012-06-02T13:45:51Z</time></trkpt>
<trkpt lat="46.8151307199" lon="6.4967706520"><ele>1006.64</ele><time>2012-06-02T13:45:53Z</time></trkpt>
<trkpt lat="46.8151189853" lon="6.4965253137"><ele>1010.96</ele><time>2012-06-02T13:46:05Z</time></trkpt>
<trkpt lat="46.8149875570" lon="6.4963974059"><ele>1015.29</ele><time>2012-06-02T13:46:15Z</time></trkpt>
<trkpt lat="46.8148746528" lon="6.4962185360"><ele>1017.21</ele><time>2012-06-02T13:46:24Z</time></trkpt>
<trkpt lat="46.8146974593" lon="6.4959150273"><ele>1015.77</ele><time>2012-06-02T13:46:36Z</time></trkpt>
<trkpt lat="46.8145724852" lon="6.4956639055"><ele>1015.29</ele><time>2012-06-02T13:46:46Z</time></trkpt>
<trkpt lat="46.8143578246" lon="6.4955259394"><ele>1014.81</ele><time>2012-06-02T13:46:59Z</time></trkpt>
<trkpt lat="46.8141640350" lon="6.4955826011"><ele>1012.89</ele><time>2012-06-02T13:47:11Z</time></trkpt>
<trkpt lat="46.8140033539" lon="6.4955672622"><ele>1014.33</ele><time>2012-06-02T13:47:20Z</time></trkpt>
<trkpt lat="46.8138623703" lon="6.4954951778"><ele>1015.77</ele><time>2012-06-02T13:47:30Z</time></trkpt>
<trkpt lat="46.8137358036" lon="6.4954087604"><ele>1018.65</ele><time>2012-06-02T13:47:41Z</time></trkpt>
<trkpt lat="46.8135762960" lon="6.4953073394"><ele>1022.98</ele><time>2012-06-02T13:47:56Z</time></trkpt>
<trkpt lat="46.8134177942" lon="6.4952693693"><ele>1027.79</ele><time>2012-06-02T13:48:09Z</time></trkpt>
<trkpt lat="46.8132750504" lon="6.4951491728"><ele>1031.63</ele><time>2012-06-02T13:48:21Z</time></trkpt>
<trkpt lat="46.8131534290" lon="6.4950516913"><ele>1034.52</ele><time>2012-06-02T13:48:34Z</time></trkpt>
<trkpt lat="46.8130892236" lon="6.4948877413"><ele>1040.28</ele><time>2012-06-02T13:48:46Z</time></trkpt>
<trkpt lat="46.8130647484" lon="6.4948670380"><ele>1042.21</ele><time>2012-06-02T13:48:49Z</time></trkpt>
<trkpt lat="46.8129172269" lon="6.4947070275"><ele>1047.97</ele><time>2012-06-02T13:49:04Z</time></trkpt>
<trkpt lat="46.8127272092" lon="6.4945772756"><ele>1052.78</ele><time>2012-06-02T13:49:18Z</time></trkpt>
<trkpt lat="46.8124496005" lon="6.4944524691"><ele>1048.45</ele><time>2012-06-02T13:49:30Z</time></trkpt>
<trkpt lat="46.8124113791" lon="6.4944265690"><ele>1047.01</ele><time>2012-06-02T13:49:32Z</time></trkpt>
<trkpt lat="46.8122848123" lon="6.4942900278"><ele>1046.05</ele><time>2012-06-02T13:49:44Z</time></trkpt>
<trkpt lat="46.8122501113" lon="6.4942524768"><ele>1047.01</ele><time>2012-06-02T13:49:55Z</time></trkpt>
<trkpt lat="46.8121952098" lon="6.4942508005"><ele>1053.26</ele><time>2012-06-02T13:50:05Z</time></trkpt>
<trkpt lat="46.8121336028" lon="6.4941583481"><ele>1059.51</ele><time>2012-06-02T13:50:17Z</time></trkpt>
<trkpt lat="46.8120619375" lon="6.4940415043"><ele>1065.28</ele><time>2012-06-02T13:50:28Z</time></trkpt>
<trkpt lat="46.8119994085" lon="6.4939749520"><ele>1069.12</ele><time>2012-06-02T13:50:41Z</time></trkpt>
<trkpt lat="46.8118195329" lon="6.4939129259"><ele>1074.41</ele><time>2012-06-02T13:50:52Z</time></trkpt>
<trkpt lat="46.8117191177" lon="6.4938226528"><ele>1078.74</ele><time>2012-06-02T13:51:03Z</time></trkpt>
<trkpt lat="46.8116488773" lon="6.4937457070"><ele>1079.7</ele><time>2012-06-02T13:51:14Z</time></trkpt>
<trkpt lat="46.8115595262" lon="6.4936618041"><ele>1083.06</ele><time>2012-06-02T13:51:25Z</time></trkpt>
<trkpt lat="46.8112204783" lon="6.4936201461"><ele>1070.57</ele><time>2012-06-02T13:51:35Z</time></trkpt>
<trkpt lat="46.8110621441" lon="6.4935378358"><ele>1065.28</ele><time>2012-06-02T13:51:46Z</time></trkpt>
<trkpt lat="46.8110043928" lon="6.4935041405"><ele>1066.24</ele><time>2012-06-02T13:51:56Z</time></trkpt>
<trkpt lat="46.8110058177" lon="6.4934762288"><ele>1070.57</ele><time>2012-06-02T13:52:05Z</time></trkpt>
<trkpt lat="46.8109173886" lon="6.4934295416"><ele>1080.66</ele><time>2012-06-02T13:52:17Z</time></trkpt>
<trkpt lat="46.8108279537" lon="6.4933631569"><ele>1085.95</ele><time>2012-06-02T13:52:27Z</time></trkpt>
<trkpt lat="46.8107448053" lon="6.4932238497"><ele>1090.27</ele><time>2012-06-02T13:52:37Z</time></trkpt>
<trkpt lat="46.8106101919" lon="6.4930724725"><ele>1088.35</ele><time>2012-06-02T13:52:47Z</time></trkpt>
<trkpt lat="46.8105621636" lon="6.4930317365"><ele>1095.56</ele><time>2012-06-02T13:52:59Z</time></trkpt>
<trkpt lat="46.8105156440" lon="6.4929733146"><ele>1101.33</ele><time>2012-06-02T13:53:10Z</time></trkpt>
<trkpt lat="46.8105046637" lon="6.4929631725"><ele>1101.81</ele><time>2012-06-02T13:53:11Z</time></trkpt>
<trkpt lat="46.8104457390" lon="6.4928817842"><ele>1105.17</ele><time>2012-06-02T13:53:19Z</time></trkpt>
<trkpt lat="46.8103753310" lon="6.4928068500"><ele>1109.02</ele><time>2012-06-02T13:53:30Z</time></trkpt>
<trkpt lat="46.8103564717" lon="6.4926716499"><ele>1111.42</ele><time>2012-06-02T13:53:38Z</time></trkpt>
<trkpt lat="46.8103273027" lon="6.4924402256"><ele>1115.75</ele><time>2012-06-02T13:53:48Z</time></trkpt>
<trkpt lat="46.8102206849" lon="6.4922802988"><ele>1116.71</ele><time>2012-06-02T13:53:59Z</time></trkpt>
<trkpt lat="46.8100191839" lon="6.4921051171"><ele>1100.85</ele><time>2012-06-02T13:54:09Z</time></trkpt>
<trkpt lat="46.8099657912" lon="6.4920413308"><ele>1097.96</ele><time>2012-06-02T13:54:18Z</time></trkpt>
<trkpt lat="46.8099273182" lon="6.4919658098"><ele>1099.4</ele><time>2012-06-02T13:54:27Z</time></trkpt>
<trkpt lat="46.8098747637" lon="6.4919513930"><ele>1100.85</ele><time>2012-06-02T13:54:35Z</time></trkpt>
<trkpt lat="46.8097562436" lon="6.4919072203"><ele>1103.25</ele><time>2012-06-02T13:54:45Z</time></trkpt>
<trkpt lat="46.8096261565" lon="6.4918178692"><ele>1102.77</ele><time>2012-06-02T13:54:55Z</time></trkpt>
<trkpt lat="46.8096016813" lon="6.4917832520"><ele>1102.29</ele><time>2012-06-02T13:54:58Z</time></trkpt>
<trkpt lat="46.8094411679" lon="6.4917001873"><ele>1100.37</ele><time>2012-06-02T13:55:09Z</time></trkpt>
<trkpt lat="46.8093455303" lon="6.4916196372"><ele>1101.33</ele><time>2012-06-02T13:55:19Z</time></trkpt>
<trkpt lat="46.8092329614" lon="6.4914838504"><ele>1104.21</ele><time>2012-06-02T13:55:31Z</time></trkpt>
<trkpt lat="46.8091589492" lon="6.4914267696"><ele>1107.58</ele><time>2012-06-02T13:55:42Z</time></trkpt>
<trkpt lat="46.8091247510" lon="6.4912565332"><ele>1113.34</ele><time>2012-06-02T13:55:53Z</time></trkpt>
<trkpt lat="46.8090829253" lon="6.4912287891"><ele>1116.71</ele><time>2012-06-02T13:56:01Z</time></trkpt>
<trkpt lat="46.8090058956" lon="6.4911641646"><ele>1117.19</ele><time>2012-06-02T13:56:08Z</time></trkpt>
<trkpt lat="46.8089193106" lon="6.4909373503"><ele>1119.59</ele><time>2012-06-02T13:56:20Z</time></trkpt>
<trkpt lat="46.8089042231" lon="6.4909332432"><ele>1119.59</ele><time>2012-06-02T13:56:21Z</time></trkpt>
<trkpt lat="46.8088289537" lon="6.4908618294"><ele>1121.03</ele><time>2012-06-02T13:56:28Z</time></trkpt>
<trkpt lat="46.8087209947" lon="6.4908368513"><ele>1120.07</ele><time>2012-06-02T13:56:34Z</time></trkpt>
<trkpt lat="46.8086079229" lon="6.4905394614"><ele>1118.15</ele><time>2012-06-02T13:56:47Z</time></trkpt>
<trkpt lat="46.8085647561" lon="6.4903025050"><ele>1123.44</ele><time>2012-06-02T13:56:59Z</time></trkpt>
<trkpt lat="46.8084713817" lon="6.4901914448"><ele>1128.24</ele><time>2012-06-02T13:57:09Z</time></trkpt>
<trkpt lat="46.8084424641" lon="6.4901445899"><ele>1128.24</ele><time>2012-06-02T13:57:12Z</time></trkpt>
<trkpt lat="46.8083117064" lon="6.4900062047"><ele>1127.76</ele><time>2012-06-02T13:57:26Z</time></trkpt>
<trkpt lat="46.8082335033" lon="6.4900010917"><ele>1127.28</ele><time>2012-06-02T13:57:30Z</time></trkpt>
<trkpt lat="46.8079854827" lon="6.4899910334"><ele>1125.36</ele><time>2012-06-02T13:57:42Z</time></trkpt>
<trkpt lat="46.8079083692" lon="6.4898565039"><ele>1122.48</ele><time>2012-06-02T13:57:47Z</time></trkpt>
<trkpt lat="46.8078225385" lon="6.4896827471"><ele>1121.52</ele><time>2012-06-02T13:57:57Z</time></trkpt>
<trkpt lat="46.8077450898" lon="6.4895371534"><ele>1124.88</ele><time>2012-06-02T13:58:08Z</time></trkpt>
<trkpt lat="46.8077256437" lon="6.4895157795"><ele>1126.32</ele><time>2012-06-02T13:58:10Z</time></trkpt>
<trkpt lat="46.8076978996" lon="6.4893873688"><ele>1126.32</ele><time>2012-06-02T13:58:16Z</time></trkpt>
<trkpt lat="46.8076777831" lon="6.4893375803"><ele>1126.8</ele><time>2012-06-02T13:58:19Z</time></trkpt>
<trkpt lat="46.8075992446" lon="6.4892422780"><ele>1128.24</ele><time>2012-06-02T13:58:28Z</time></trkpt>
<trkpt lat="46.8075850792" lon="6.4892296214"><ele>1128.73</ele><time>2012-06-02T13:58:30Z</time></trkpt>
<trkpt lat="46.8075495400" lon="6.4891432878"><ele>1129.69</ele><time>2012-06-02T13:58:35Z</time></trkpt>
<trkpt lat="46.8075292557" lon="6.4891033899"><ele>1129.69</ele><time>2012-06-02T13:58:38Z</time></trkpt>
<trkpt lat="46.8074357137" lon="6.4889365062"><ele>1130.17</ele><time>2012-06-02T13:58:49Z</time></trkpt>
<trkpt lat="46.8074026052" lon="6.4886902459"><ele>1131.13</ele><time>2012-06-02T13:58:56Z</time></trkpt>
<trkpt lat="46.8071524054" lon="6.4885548782"><ele>1126.8</ele><time>2012-06-02T13:59:07Z</time></trkpt>
<trkpt lat="46.8070152774" lon="6.4884238690"><ele>1132.09</ele><time>2012-06-02T13:59:21Z</time></trkpt>
<trkpt lat="46.8069372419" lon="6.4883370325"><ele>1133.53</ele><time>2012-06-02T13:59:30Z</time></trkpt>
<trkpt lat="46.8068565242" lon="6.4882233739"><ele>1135.45</ele><time>2012-06-02T13:59:39Z</time></trkpt>
<trkpt lat="46.8067565281" lon="6.4880810492"><ele>1139.78</ele><time>2012-06-02T13:59:50Z</time></trkpt>
<trkpt lat="46.8067457154" lon="6.4880679734"><ele>1139.78</ele><time>2012-06-02T13:59:51Z</time></trkpt>
<trkpt lat="46.8064563721" lon="6.4880442526"><ele>1134.97</ele><time>2012-06-02T14:00:04Z</time></trkpt>
<trkpt lat="46.8063021451" lon="6.4879200328"><ele>1138.82</ele><time>2012-06-02T14:00:17Z</time></trkpt>
<trkpt lat="46.8062536139" lon="6.4879404847"><ele>1140.26</ele><time>2012-06-02T14:00:21Z</time></trkpt>
<trkpt lat="46.8061930127" lon="6.4878954738"><ele>1145.55</ele><time>2012-06-02T14:00:32Z</time></trkpt>
<trkpt lat="46.8061777577" lon="6.4877363853"><ele>1151.8</ele><time>2012-06-02T14:00:42Z</time></trkpt>
<trkpt lat="46.8060563877" lon="6.4874727745"><ele>1160.45</ele><time>2012-06-02T14:00:53Z</time></trkpt>
<trkpt lat="46.8060225248" lon="6.4874454495"><ele>1163.33</ele><time>2012-06-02T14:00:56Z</time></trkpt>
<trkpt lat="46.8058401346" lon="6.4873665757"><ele>1163.81</ele><time>2012-06-02T14:01:07Z</time></trkpt>
<trkpt lat="46.8058299925" lon="6.4873405080"><ele>1163.33</ele><time>2012-06-02T14:01:08Z</time></trkpt>
<trkpt lat="46.8056637794" lon="6.4871518314"><ele>1162.85</ele><time>2012-06-02T14:01:21Z</time></trkpt>
<trkpt lat="46.8055559881" lon="6.4870268572"><ele>1162.85</ele><time>2012-06-02T14:01:29Z</time></trkpt>
<trkpt lat="46.8054358754" lon="6.4869730454"><ele>1162.85</ele><time>2012-06-02T14:01:36Z</time></trkpt>
<trkpt lat="46.8053142540" lon="6.4868470654"><ele>1163.33</ele><time>2012-06-02T14:01:44Z</time></trkpt>
<trkpt lat="46.8051068019" lon="6.4868119452"><ele>1154.68</ele><time>2012-06-02T14:01:52Z</time></trkpt>
<trkpt lat="46.8050497212" lon="6.4867493324"><ele>1155.16</ele><time>2012-06-02T14:01:57Z</time></trkpt>
<trkpt lat="46.8049321231" lon="6.4864938520"><ele>1152.76</ele><time>2012-06-02T14:02:09Z</time></trkpt>
<trkpt lat="46.8048844300" lon="6.4863795228"><ele>1153.72</ele><time>2012-06-02T14:02:15Z</time></trkpt>
<trkpt lat="46.8048432749" lon="6.4861866552"><ele>1154.2</ele><time>2012-06-02T14:02:25Z</time></trkpt>
<trkpt lat="46.8047870323" lon="6.4861692209"><ele>1154.2</ele><time>2012-06-02T14:02:34Z</time></trkpt>
<trkpt lat="46.8047870323" lon="6.4861692209"><ele>1154.2</ele><time>2012-06-02T14:02:56Z</time></trkpt>
<trkpt lat="46.8047856074" lon="6.4861636888"><ele>1154.2</ele><time>2012-06-02T14:03:20Z</time></trkpt>
<trkpt lat="46.8047856074" lon="6.4861636888"><ele>1154.2</ele><time>2012-06-02T14:03:47Z</time></trkpt>
<trkpt lat="46.8047773931" lon="6.4861575700"><ele>1154.2</ele><time>2012-06-02T14:04:11Z</time></trkpt>
<trkpt lat="46.8047509063" lon="6.4860406425"><ele>1156.12</ele><time>2012-06-02T14:04:21Z</time></trkpt>
<trkpt lat="46.8046612199" lon="6.4859643672"><ele>1161.41</ele><time>2012-06-02T14:04:32Z</time></trkpt>
<trkpt lat="46.8045919016" lon="6.4859173447"><ele>1169.58</ele><time>2012-06-02T14:04:42Z</time></trkpt>
<trkpt lat="46.8045771495" lon="6.4857728407"><ele>1182.08</ele><time>2012-06-02T14:04:54Z</time></trkpt>
<trkpt lat="46.8045468070" lon="6.4857072104"><ele>1191.21</ele><time>2012-06-02T14:05:03Z</time></trkpt>
<trkpt lat="46.8044727948" lon="6.4856235590"><ele>1200.82</ele><time>2012-06-02T14:05:12Z</time></trkpt>
<trkpt lat="46.8044572044" lon="6.4855834097"><ele>1200.82</ele><time>2012-06-02T14:05:14Z</time></trkpt>
<trkpt lat="46.8043022230" lon="6.4854548313"><ele>1201.3</ele><time>2012-06-02T14:05:26Z</time></trkpt>
<trkpt lat="46.8042853754" lon="6.4854467008"><ele>1201.3</ele><time>2012-06-02T14:05:27Z</time></trkpt>
<trkpt lat="46.8041277118" lon="6.4852499776"><ele>1202.27</ele><time>2012-06-02T14:05:39Z</time></trkpt>
<trkpt lat="46.8040073477" lon="6.4850656595"><ele>1203.71</ele><time>2012-06-02T14:05:51Z</time></trkpt>
<trkpt lat="46.8039219361" lon="6.4849136956"><ele>1204.67</ele><time>2012-06-02T14:06:01Z</time></trkpt>
<trkpt lat="46.8038288970" lon="6.4848427847"><ele>1206.59</ele><time>2012-06-02T14:06:12Z</time></trkpt>
<trkpt lat="46.8037602492" lon="6.4847298805"><ele>1210.44</ele><time>2012-06-02T14:06:22Z</time></trkpt>
<trkpt lat="46.8037206028" lon="6.4846052416"><ele>1213.32</ele><time>2012-06-02T14:06:28Z</time></trkpt>
<trkpt lat="46.8037009891" lon="6.4845369291"><ele>1214.76</ele><time>2012-06-02T14:06:40Z</time></trkpt>
<trkpt lat="46.8036905117" lon="6.4845221769"><ele>1215.72</ele><time>2012-06-02T14:06:48Z</time></trkpt>
<trkpt lat="46.8035763502" lon="6.4842326660"><ele>1219.57</ele><time>2012-06-02T14:06:58Z</time></trkpt>
<trkpt lat="46.8034942914" lon="6.4840050973"><ele>1221.97</ele><time>2012-06-02T14:07:08Z</time></trkpt>
<trkpt lat="46.8033713289" lon="6.4837191906"><ele>1221.49</ele><time>2012-06-02T14:07:19Z</time></trkpt>
<trkpt lat="46.8033646233" lon="6.4837086294"><ele>1221.97</ele><time>2012-06-02T14:07:21Z</time></trkpt>
<trkpt lat="46.8033172656" lon="6.4835197013"><ele>1225.82</ele><time>2012-06-02T14:07:31Z</time></trkpt>
<trkpt lat="46.8033144157" lon="6.4833279233"><ele>1230.14</ele><time>2012-06-02T14:07:42Z</time></trkpt>
<trkpt lat="46.8033114821" lon="6.4833091479"><ele>1231.11</ele><time>2012-06-02T14:07:52Z</time></trkpt>
<trkpt lat="46.8033114821" lon="6.4833091479"><ele>1231.11</ele><time>2012-06-02T14:07:55Z</time></trkpt>
<trkpt lat="46.8034598418" lon="6.4830446150"><ele>1235.43</ele><time>2012-06-02T14:08:11Z</time></trkpt>
<trkpt lat="46.8034746777" lon="6.4830147754"><ele>1237.83</ele><time>2012-06-02T14:08:27Z</time></trkpt>
<trkpt lat="46.8033849914" lon="6.4830014482"><ele>1238.32</ele><time>2012-06-02T14:08:38Z</time></trkpt>
<trkpt lat="46.8032320216" lon="6.4829360694"><ele>1237.83</ele><time>2012-06-02T14:08:47Z</time></trkpt>
<trkpt lat="46.8030695803" lon="6.4828267694"><ele>1238.32</ele><time>2012-06-02T14:08:58Z</time></trkpt>
<trkpt lat="46.8029163592" lon="6.4827261027"><ele>1240.72</ele><time>2012-06-02T14:09:11Z</time></trkpt>
<trkpt lat="46.8027999345" lon="6.4825541060"><ele>1241.68</ele><time>2012-06-02T14:09:23Z</time></trkpt>
<trkpt lat="46.8027888704" lon="6.4825437963"><ele>1242.16</ele><time>2012-06-02T14:09:30Z</time></trkpt>
<trkpt lat="46.8025506567" lon="6.4822847117"><ele>1228.7</ele><time>2012-06-02T14:09:39Z</time></trkpt>
<trkpt lat="46.8022581283" lon="6.4821050875"><ele>1216.21</ele><time>2012-06-02T14:09:51Z</time></trkpt>
<trkpt lat="46.8020785879" lon="6.4819708094"><ele>1211.88</ele><time>2012-06-02T14:10:03Z</time></trkpt>
<trkpt lat="46.8018827029" lon="6.4819148183"><ele>1209.48</ele><time>2012-06-02T14:10:13Z</time></trkpt>
<trkpt lat="46.8018129654" lon="6.4818952885"><ele>1214.28</ele><time>2012-06-02T14:10:23Z</time></trkpt>
<trkpt lat="46.8017782643" lon="6.4818278980"><ele>1225.82</ele><time>2012-06-02T14:10:35Z</time></trkpt>
<trkpt lat="46.8017993029" lon="6.4815560728"><ele>1233.99</ele><time>2012-06-02T14:10:45Z</time></trkpt>
<trkpt lat="46.8017201778" lon="6.4813499618"><ele>1243.12</ele><time>2012-06-02T14:10:56Z</time></trkpt>
<trkpt lat="46.8016840518" lon="6.4812003449"><ele>1245.53</ele><time>2012-06-02T14:11:05Z</time></trkpt>
<trkpt lat="46.8015917670" lon="6.4811147656"><ele>1248.89</ele><time>2012-06-02T14:11:15Z</time></trkpt>
<trkpt lat="46.8015669566" lon="6.4810049627"><ele>1256.58</ele><time>2012-06-02T14:11:28Z</time></trkpt>
<trkpt lat="46.8015934434" lon="6.4808863588"><ele>1259.46</ele><time>2012-06-02T14:11:32Z</time></trkpt>
<trkpt lat="46.8015817087" lon="6.4807302877"><ele>1263.31</ele><time>2012-06-02T14:11:39Z</time></trkpt>
<trkpt lat="46.8015103787" lon="6.4807395078"><ele>1258.02</ele><time>2012-06-02T14:11:51Z</time></trkpt>
<trkpt lat="46.8015103787" lon="6.4807395078"><ele>1258.02</ele><time>2012-06-02T14:12:08Z</time></trkpt>
<trkpt lat="46.8014529627" lon="6.4807395078"><ele>1252.74</ele><time>2012-06-02T14:12:28Z</time></trkpt>
<trkpt lat="46.8014529627" lon="6.4807395078"><ele>1252.74</ele><time>2012-06-02T14:12:42Z</time></trkpt>
<trkpt lat="46.8014529627" lon="6.4807395078"><ele>1252.74</ele><time>2012-06-02T14:13:00Z</time></trkpt>
<trkpt lat="46.8014009949" lon="6.4807446208"><ele>1247.45</ele><time>2012-06-02T14:13:25Z</time></trkpt>
<trkpt lat="46.8013619352" lon="6.4807472192"><ele>1243.6</ele><time>2012-06-02T14:13:44Z</time></trkpt>
<trkpt lat="46.8013619352" lon="6.4807472192"><ele>1243.6</ele><time>2012-06-02T14:14:07Z</time></trkpt>
<trkpt lat="46.8013267312" lon="6.4807411004"><ele>1240.72</ele><time>2012-06-02T14:14:22Z</time></trkpt>
<trkpt lat="46.8013267312" lon="6.4807411004"><ele>1240.72</ele><time>2012-06-02T14:14:36Z</time></trkpt>
<trkpt lat="46.8013267312" lon="6.4807411004"><ele>1240.72</ele><time>2012-06-02T14:14:49Z</time></trkpt>
<trkpt lat="46.8013274018" lon="6.4807416033"><ele>1240.72</ele><time>2012-06-02T14:15:02Z</time></trkpt>
<trkpt lat="46.8013274018" lon="6.4807416033"><ele>1240.72</ele><time>2012-06-02T14:15:21Z</time></trkpt>
<trkpt lat="46.8013196904" lon="6.4807470515"><ele>1241.2</ele><time>2012-06-02T14:15:31Z</time></trkpt>
<trkpt lat="46.8013149966" lon="6.4807507396"><ele>1241.2</ele><time>2012-06-02T14:15:32Z</time></trkpt>
<trkpt lat="46.8011905253" lon="6.4806463011"><ele>1239.28</ele><time>2012-06-02T14:15:42Z</time></trkpt>
<trkpt lat="46.8010726757" lon="6.4805281162"><ele>1239.28</ele><time>2012-06-02T14:15:53Z</time></trkpt>
<trkpt lat="46.8010244798" lon="6.4804184809"><ele>1240.72</ele><time>2012-06-02T14:16:04Z</time></trkpt>
<trkpt lat="46.8009311892" lon="6.4803174790"><ele>1242.64</ele><time>2012-06-02T14:16:16Z</time></trkpt>
<trkpt lat="46.8008192070" lon="6.4802153874"><ele>1244.56</ele><time>2012-06-02T14:16:28Z</time></trkpt>
<trkpt lat="46.8007747829" lon="6.4801474940"><ele>1244.56</ele><time>2012-06-02T14:16:34Z</time></trkpt>
<trkpt lat="46.8006800674" lon="6.4799591526"><ele>1246.01</ele><time>2012-06-02T14:16:47Z</time></trkpt>
<trkpt lat="46.8005304504" lon="6.4798304066"><ele>1243.6</ele><time>2012-06-02T14:17:00Z</time></trkpt>
<trkpt lat="46.8004903849" lon="6.4796696417"><ele>1250.33</ele><time>2012-06-02T14:17:13Z</time></trkpt>
<trkpt lat="46.8004350644" lon="6.4795662090"><ele>1252.74</ele><time>2012-06-02T14:17:23Z</time></trkpt>
<trkpt lat="46.8004089966" lon="6.4794831444"><ele>1255.14</ele><time>2012-06-02T14:17:36Z</time></trkpt>
<trkpt lat="46.8001732975" lon="6.4792797156"><ele>1249.85</ele><time>2012-06-02T14:17:48Z</time></trkpt>
<trkpt lat="46.8000367563" lon="6.4791793842"><ele>1244.56</ele><time>2012-06-02T14:17:59Z</time></trkpt>
<trkpt lat="46.7999862134" lon="6.4790896140"><ele>1249.37</ele><time>2012-06-02T14:18:12Z</time></trkpt>
<trkpt lat="46.7999519315" lon="6.4790466148"><ele>1253.22</ele><time>2012-06-02T14:18:22Z</time></trkpt>
<trkpt lat="46.7998961080" lon="6.4789885283"><ele>1257.54</ele><time>2012-06-02T14:18:33Z</time></trkpt>
<trkpt lat="46.7998910788" lon="6.4789348003"><ele>1260.43</ele><time>2012-06-02T14:18:41Z</time></trkpt>
<trkpt lat="46.7998904921" lon="6.4786940720"><ele>1264.75</ele><time>2012-06-02T14:18:52Z</time></trkpt>
<trkpt lat="46.7998509295" lon="6.4784937445"><ele>1272.44</ele><time>2012-06-02T14:19:03Z</time></trkpt>
<trkpt lat="46.7997867242" lon="6.4784008730"><ele>1273.88</ele><time>2012-06-02T14:19:10Z</time></trkpt>
<trkpt lat="46.7996925954" lon="6.4782028925"><ele>1271.96</ele><time>2012-06-02T14:19:22Z</time></trkpt>
<trkpt lat="46.7996358499" lon="6.4780797623"><ele>1272.92</ele><time>2012-06-02T14:19:32Z</time></trkpt>
<trkpt lat="46.7995765898" lon="6.4778946061"><ele>1274.36</ele><time>2012-06-02T14:19:42Z</time></trkpt>
<trkpt lat="46.7995093670" lon="6.4777599927"><ele>1274.36</ele><time>2012-06-02T14:19:50Z</time></trkpt>
<trkpt lat="46.7994790245" lon="6.4777220227"><ele>1272.44</ele><time>2012-06-02T14:19:52Z</time></trkpt>
<trkpt lat="46.7992734164" lon="6.4775486849"><ele>1263.79</ele><time>2012-06-02T14:20:04Z</time></trkpt>
<trkpt lat="46.7991719954" lon="6.4775199350"><ele>1258.02</ele><time>2012-06-02T14:20:08Z</time></trkpt>
<trkpt lat="46.7990499549" lon="6.4774837252"><ele>1260.43</ele><time>2012-06-02T14:20:22Z</time></trkpt>
<trkpt lat="46.7990499549" lon="6.4774837252"><ele>1260.43</ele><time>2012-06-02T14:20:35Z</time></trkpt>
<trkpt lat="46.7990499549" lon="6.4774837252"><ele>1260.43</ele><time>2012-06-02T14:20:47Z</time></trkpt>
<trkpt lat="46.7990569957" lon="6.4774607588"><ele>1261.39</ele><time>2012-06-02T14:21:02Z</time></trkpt>
<trkpt lat="46.7990569957" lon="6.4774607588"><ele>1261.39</ele><time>2012-06-02T14:21:23Z</time></trkpt>
<trkpt lat="46.7990632821" lon="6.4774327632"><ele>1262.83</ele><time>2012-06-02T14:21:44Z</time></trkpt>
<trkpt lat="46.7990491167" lon="6.4773778617"><ele>1264.75</ele><time>2012-06-02T14:21:53Z</time></trkpt>
<trkpt lat="46.7989891022" lon="6.4773626905"><ele>1260.91</ele><time>2012-06-02T14:22:03Z</time></trkpt>
<trkpt lat="46.7989777029" lon="6.4773579966"><ele>1260.91</ele><time>2012-06-02T14:22:13Z</time></trkpt>
<trkpt lat="46.7989777029" lon="6.4773579966"><ele>1260.91</ele><time>2012-06-02T14:22:35Z</time></trkpt>
<trkpt lat="46.7989633698" lon="6.4773404785"><ele>1260.91</ele><time>2012-06-02T14:22:58Z</time></trkpt>
<trkpt lat="46.7989633698" lon="6.4773404785"><ele>1260.91</ele><time>2012-06-02T14:23:24Z</time></trkpt>
<trkpt lat="46.7989636213" lon="6.4773180988"><ele>1261.39</ele><time>2012-06-02T14:23:54Z</time></trkpt>
<trkpt lat="46.7989649624" lon="6.4773057774"><ele>1261.39</ele><time>2012-06-02T14:24:21Z</time></trkpt>
<trkpt lat="46.7989632860" lon="6.4772846550"><ele>1260.91</ele><time>2012-06-02T14:24:47Z</time></trkpt>
<trkpt lat="46.7989632860" lon="6.4772846550"><ele>1260.91</ele><time>2012-06-02T14:25:14Z</time></trkpt>
<trkpt lat="46.7989597656" lon="6.4772780333"><ele>1260.91</ele><time>2012-06-02T14:25:38Z</time></trkpt>
<trkpt lat="46.7989618611" lon="6.4772739261"><ele>1260.91</ele><time>2012-06-02T14:26:07Z</time></trkpt>
<trkpt lat="46.7989618611" lon="6.4772739261"><ele>1260.91</ele><time>2012-06-02T14:26:27Z</time></trkpt>
<trkpt lat="46.7989622802" lon="6.4772681426"><ele>1260.43</ele><time>2012-06-02T14:26:51Z</time></trkpt>
<trkpt lat="46.7989622802" lon="6.4772681426"><ele>1260.43</ele><time>2012-06-02T14:27:17Z</time></trkpt>
<trkpt lat="46.7989621125" lon="6.4772706572"><ele>1259.94</ele><time>2012-06-02T14:27:46Z</time></trkpt>
<trkpt lat="46.7989629507" lon="6.4772666339"><ele>1259.94</ele><time>2012-06-02T14:28:09Z</time></trkpt>
<trkpt lat="46.7989629507" lon="6.4772666339"><ele>1259.94</ele><time>2012-06-02T14:28:28Z</time></trkpt>
<trkpt lat="46.7989658844" lon="6.4772387221"><ele>1259.94</ele><time>2012-06-02T14:28:50Z</time></trkpt>
<trkpt lat="46.7989658844" lon="6.4772387221"><ele>1259.94</ele><time>2012-06-02T14:29:20Z</time></trkpt>
<trkpt lat="46.7989626154" lon="6.4772305917"><ele>1259.46</ele><time>2012-06-02T14:29:43Z</time></trkpt>
<trkpt lat="46.7989615258" lon="6.4772286639"><ele>1258.98</ele><time>2012-06-02T14:30:12Z</time></trkpt>
<trkpt lat="46.7989615258" lon="6.4772286639"><ele>1258.98</ele><time>2012-06-02T14:30:41Z</time></trkpt>
<trkpt lat="46.7989637051" lon="6.4772306755"><ele>1259.46</ele><time>2012-06-02T14:31:11Z</time></trkpt>
<trkpt lat="46.7989627831" lon="6.4772300888"><ele>1258.98</ele><time>2012-06-02T14:31:37Z</time></trkpt>
<trkpt lat="46.7989627831" lon="6.4772300888"><ele>1258.98</ele><time>2012-06-02T14:32:01Z</time></trkpt>
<trkpt lat="46.7989602685" lon="6.4772266522"><ele>1258.5</ele><time>2012-06-02T14:32:26Z</time></trkpt>
<trkpt lat="46.7989542335" lon="6.4772306755"><ele>1258.02</ele><time>2012-06-02T14:32:53Z</time></trkpt>
<trkpt lat="46.7989542335" lon="6.4772306755"><ele>1258.02</ele><time>2012-06-02T14:33:23Z</time></trkpt>
<trkpt lat="46.7989489529" lon="6.4772214554"><ele>1257.54</ele><time>2012-06-02T14:33:57Z</time></trkpt>
<trkpt lat="46.7989463545" lon="6.4772195276"><ele>1257.06</ele><time>2012-06-02T14:34:22Z</time></trkpt>
<trkpt lat="46.7989471089" lon="6.4772128221"><ele>1257.06</ele><time>2012-06-02T14:34:50Z</time></trkpt>
<trkpt lat="46.7989471089" lon="6.4772128221"><ele>1257.06</ele><time>2012-06-02T14:35:19Z</time></trkpt>
<trkpt lat="46.7989471927" lon="6.4772114810"><ele>1257.06</ele><time>2012-06-02T14:35:42Z</time></trkpt>
<trkpt lat="46.7989478633" lon="6.4772113971"><ele>1257.06</ele><time>2012-06-02T14:36:09Z</time></trkpt>
<trkpt lat="46.7989478633" lon="6.4772113971"><ele>1257.06</ele><time>2012-06-02T14:36:26Z</time></trkpt>
<trkpt lat="46.7989479471" lon="6.4772021770"><ele>1256.58</ele><time>2012-06-02T14:36:47Z</time></trkpt>
<trkpt lat="46.7989479471" lon="6.4772021770"><ele>1256.58</ele><time>2012-06-02T14:37:04Z</time></trkpt>
<trkpt lat="46.7989427503" lon="6.4771935437"><ele>1257.54</ele><time>2012-06-02T14:37:14Z</time></trkpt>
<trkpt lat="46.7989329435" lon="6.4772011712"><ele>1260.91</ele><time>2012-06-02T14:37:30Z</time></trkpt>
<trkpt lat="46.7989538144" lon="6.4771908615"><ele>1262.35</ele><time>2012-06-02T14:37:46Z</time></trkpt>
<trkpt lat="46.7989538144" lon="6.4771908615"><ele>1262.35</ele><time>2012-06-02T14:38:07Z</time></trkpt>
<trkpt lat="46.7989568319" lon="6.4771876764"><ele>1262.35</ele><time>2012-06-02T14:38:29Z</time></trkpt>
<trkpt lat="46.7989362124" lon="6.4772113971"><ele>1266.19</ele><time>2012-06-02T14:38:39Z</time></trkpt>
<trkpt lat="46.7988948897" lon="6.4771398995"><ele>1276.29</ele><time>2012-06-02T14:38:47Z</time></trkpt>
<trkpt lat="46.7988851666" lon="6.4771058690"><ele>1279.17</ele><time>2012-06-02T14:38:49Z</time></trkpt>
<trkpt lat="46.7988590151" lon="6.4769905340"><ele>1288.78</ele><time>2012-06-02T14:39:01Z</time></trkpt>
<trkpt lat="46.7987790518" lon="6.4768623747"><ele>1299.84</ele><time>2012-06-02T14:39:11Z</time></trkpt>
<trkpt lat="46.7986777984" lon="6.4768407494"><ele>1292.63</ele><time>2012-06-02T14:39:16Z</time></trkpt>
<trkpt lat="46.7983801570" lon="6.4766215626"><ele>1275.33</ele><time>2012-06-02T14:39:29Z</time></trkpt>
<trkpt lat="46.7982175481" lon="6.4764457103"><ele>1267.64</ele><time>2012-06-02T14:39:41Z</time></trkpt>
<trkpt lat="46.7979986966" lon="6.4762051497"><ele>1259.46</ele><time>2012-06-02T14:39:52Z</time></trkpt>
<trkpt lat="46.7978317291" lon="6.4759828616"><ele>1254.66</ele><time>2012-06-02T14:40:04Z</time></trkpt>
<trkpt lat="46.7976789270" lon="6.4757357631"><ele>1255.14</ele><time>2012-06-02T14:40:21Z</time></trkpt>
<trkpt lat="46.7976652645" lon="6.4756951947"><ele>1255.14</ele><time>2012-06-02T14:40:24Z</time></trkpt>
<trkpt lat="46.7975867260" lon="6.4756241161"><ele>1255.14</ele><time>2012-06-02T14:40:31Z</time></trkpt>
<trkpt lat="46.7974563036" lon="6.4755870681"><ele>1255.14</ele><time>2012-06-02T14:40:43Z</time></trkpt>
<trkpt lat="46.7974185850" lon="6.4755081944"><ele>1256.1</ele><time>2012-06-02T14:40:49Z</time></trkpt>
<trkpt lat="46.7973397113" lon="6.4753983077"><ele>1258.02</ele><time>2012-06-02T14:40:59Z</time></trkpt>
<trkpt lat="46.7972256336" lon="6.4752057754"><ele>1259.46</ele><time>2012-06-02T14:41:13Z</time></trkpt>
<trkpt lat="46.7971567344" lon="6.4750331920"><ele>1260.91</ele><time>2012-06-02T14:41:25Z</time></trkpt>
<trkpt lat="46.7970630247" lon="6.4748287573"><ele>1262.83</ele><time>2012-06-02T14:41:38Z</time></trkpt>
<trkpt lat="46.7969740927" lon="6.4746134263"><ele>1265.23</ele><time>2012-06-02T14:41:51Z</time></trkpt>
<trkpt lat="46.7968528904" lon="6.4743354823"><ele>1265.71</ele><time>2012-06-02T14:42:04Z</time></trkpt>
<trkpt lat="46.7967609409" lon="6.4740805048"><ele>1267.64</ele><time>2012-06-02T14:42:16Z</time></trkpt>
<trkpt lat="46.7965929676" lon="6.4737006370"><ele>1267.64</ele><time>2012-06-02T14:42:30Z</time></trkpt>
<trkpt lat="46.7964360584" lon="6.4734433126"><ele>1267.64</ele><time>2012-06-02T14:42:43Z</time></trkpt>
<trkpt lat="46.7963271774" lon="6.4732215274"><ele>1267.64</ele><time>2012-06-02T14:42:56Z</time></trkpt>
<trkpt lat="46.7963032052" lon="6.4731940348"><ele>1267.16</ele><time>2012-06-02T14:43:04Z</time></trkpt>
<trkpt lat="46.7962977570" lon="6.4731877483"><ele>1267.16</ele><time>2012-06-02T14:43:22Z</time></trkpt>
<trkpt lat="46.7962929793" lon="6.4731622674"><ele>1268.6</ele><time>2012-06-02T14:43:31Z</time></trkpt>
<trkpt lat="46.7962859385" lon="6.4731492754"><ele>1270.52</ele><time>2012-06-02T14:43:42Z</time></trkpt>
<trkpt lat="46.7962623015" lon="6.4731053542"><ele>1270.52</ele><time>2012-06-02T14:43:53Z</time></trkpt>
<trkpt lat="46.7962683365" lon="6.4730636124"><ele>1269.56</ele><time>2012-06-02T14:44:03Z</time></trkpt>
<trkpt lat="46.7962449510" lon="6.4729982335"><ele>1268.12</ele><time>2012-06-02T14:44:10Z</time></trkpt>
<trkpt lat="46.7962249182" lon="6.4730010834"><ele>1267.64</ele><time>2012-06-02T14:44:19Z</time></trkpt>
<trkpt lat="46.7961919773" lon="6.4730158355"><ele>1267.16</ele><time>2012-06-02T14:44:27Z</time></trkpt>
<trkpt lat="46.7961919773" lon="6.4730158355"><ele>1267.16</ele><time>2012-06-02T14:44:46Z</time></trkpt>
<trkpt lat="46.7961892951" lon="6.4730149973"><ele>1267.64</ele><time>2012-06-02T14:45:03Z</time></trkpt>
<trkpt lat="46.7961892951" lon="6.4730149973"><ele>1267.64</ele><time>2012-06-02T14:45:14Z</time></trkpt>
<trkpt lat="46.7961933184" lon="6.4730078727"><ele>1268.12</ele><time>2012-06-02T14:45:22Z</time></trkpt>
<trkpt lat="46.7963123415" lon="6.4729198627"><ele>1268.12</ele><time>2012-06-02T14:45:28Z</time></trkpt>
<trkpt lat="46.7968118191" lon="6.4725913759"><ele>1268.12</ele><time>2012-06-02T14:45:37Z</time></trkpt>
<trkpt lat="46.7974539567" lon="6.4722063951"><ele>1268.12</ele><time>2012-06-02T14:45:47Z</time></trkpt>
<trkpt lat="46.7974916752" lon="6.4721863624"><ele>1268.12</ele><time>2012-06-02T14:45:48Z</time></trkpt>
<trkpt lat="46.7974725645" lon="6.4721250068"><ele>1262.83</ele><time>2012-06-02T14:45:54Z</time></trkpt>
<trkpt lat="46.7971743364" lon="6.4719778206"><ele>1261.87</ele><time>2012-06-02T14:46:10Z</time></trkpt>
<trkpt lat="46.7969732545" lon="6.4718310535"><ele>1262.35</ele><time>2012-06-02T14:46:21Z</time></trkpt>
<trkpt lat="46.7966486234" lon="6.4716224279"><ele>1262.35</ele><time>2012-06-02T14:46:36Z</time></trkpt>
<trkpt lat="46.7962740362" lon="6.4713346772"><ele>1263.31</ele><time>2012-06-02T14:46:51Z</time></trkpt>
<trkpt lat="46.7959094234" lon="6.4710370358"><ele>1263.31</ele><time>2012-06-02T14:47:03Z</time></trkpt>
<trkpt lat="46.7955483310" lon="6.4707122371"><ele>1264.27</ele><time>2012-06-02T14:47:16Z</time></trkpt>
<trkpt lat="46.7952029966" lon="6.4703527372"><ele>1266.67</ele><time>2012-06-02T14:47:31Z</time></trkpt>
<trkpt lat="46.7948373780" lon="6.4699808322"><ele>1269.08</ele><time>2012-06-02T14:47:47Z</time></trkpt>
<trkpt lat="46.7944687419" lon="6.4695987012"><ele>1270.52</ele><time>2012-06-02T14:48:04Z</time></trkpt>
<trkpt lat="46.7941623833" lon="6.4692391176"><ele>1272.92</ele><time>2012-06-02T14:48:20Z</time></trkpt>
<trkpt lat="46.7939011194" lon="6.4689490199"><ele>1276.29</ele><time>2012-06-02T14:48:34Z</time></trkpt>
<trkpt lat="46.7936897278" lon="6.4687310066"><ele>1281.57</ele><time>2012-06-02T14:48:47Z</time></trkpt>
<trkpt lat="46.7934759893" lon="6.4685948845"><ele>1283.5</ele><time>2012-06-02T14:48:56Z</time></trkpt>
<trkpt lat="46.7932781763" lon="6.4684248157"><ele>1286.38</ele><time>2012-06-02T14:49:07Z</time></trkpt>
<trkpt lat="46.7930400465" lon="6.4682891965"><ele>1291.19</ele><time>2012-06-02T14:49:18Z</time></trkpt>
<trkpt lat="46.7928672116" lon="6.4680828340"><ele>1292.15</ele><time>2012-06-02T14:49:27Z</time></trkpt>
<trkpt lat="46.7927023396" lon="6.4678750467"><ele>1294.07</ele><time>2012-06-02T14:49:36Z</time></trkpt>
<trkpt lat="46.7925478611" lon="6.4677001163"><ele>1298.88</ele><time>2012-06-02T14:49:47Z</time></trkpt>
<trkpt lat="46.7922812328" lon="6.4675209951"><ele>1301.28</ele><time>2012-06-02T14:50:00Z</time></trkpt>
<trkpt lat="46.7921413388" lon="6.4673733898"><ele>1301.76</ele><time>2012-06-02T14:50:09Z</time></trkpt>
<trkpt lat="46.7920123413" lon="6.4672571328"><ele>1305.61</ele><time>2012-06-02T14:50:19Z</time></trkpt>
<trkpt lat="46.7919594515" lon="6.4672165643"><ele>1305.13</ele><time>2012-06-02T14:50:23Z</time></trkpt>
<trkpt lat="46.7919750419" lon="6.4673870523"><ele>1307.53</ele><time>2012-06-02T14:50:33Z</time></trkpt>
<trkpt lat="46.7919729464" lon="6.4674883895"><ele>1307.05</ele><time>2012-06-02T14:50:42Z</time></trkpt>
<trkpt lat="46.7920839228" lon="6.4676117711"><ele>1308.49</ele><time>2012-06-02T14:50:52Z</time></trkpt>
<trkpt lat="46.7922293488" lon="6.4677912276"><ele>1307.53</ele><time>2012-06-02T14:51:04Z</time></trkpt>
<trkpt lat="46.7922994215" lon="6.4679455385"><ele>1306.09</ele><time>2012-06-02T14:51:15Z</time></trkpt>
<trkpt lat="46.7923469469" lon="6.4680881985"><ele>1305.61</ele><time>2012-06-02T14:51:24Z</time></trkpt>
<trkpt lat="46.7923859227" lon="6.4681584388"><ele>1305.13</ele><time>2012-06-02T14:51:28Z</time></trkpt>
<trkpt lat="46.7924182769" lon="6.4682170283"><ele>1304.65</ele><time>2012-06-02T14:51:31Z</time></trkpt>
<trkpt lat="46.7925413232" lon="6.4684208762"><ele>1303.69</ele><time>2012-06-02T14:51:43Z</time></trkpt>
<trkpt lat="46.7926263995" lon="6.4685958903"><ele>1305.61</ele><time>2012-06-02T14:51:54Z</time></trkpt>
<trkpt lat="46.7927458417" lon="6.4687640313"><ele>1308.49</ele><time>2012-06-02T14:52:08Z</time></trkpt>
<trkpt lat="46.7928354442" lon="6.4689199347"><ele>1309.45</ele><time>2012-06-02T14:52:20Z</time></trkpt>
<trkpt lat="46.7928941175" lon="6.4690111298"><ele>1310.41</ele><time>2012-06-02T14:52:29Z</time></trkpt>
<trkpt lat="46.7929594126" lon="6.4691605791"><ele>1309.93</ele><time>2012-06-02T14:52:40Z</time></trkpt>
<trkpt lat="46.7929848097" lon="6.4691908378"><ele>1310.41</ele><time>2012-06-02T14:52:43Z</time></trkpt>
<trkpt lat="46.7930452432" lon="6.4692889061"><ele>1313.3</ele><time>2012-06-02T14:52:53Z</time></trkpt>
<trkpt lat="46.7930732388" lon="6.4693253674"><ele>1314.74</ele><time>2012-06-02T14:52:56Z</time></trkpt>
<trkpt lat="46.7931779288" lon="6.4695072547"><ele>1318.59</ele><time>2012-06-02T14:53:07Z</time></trkpt>
<trkpt lat="46.7932694592" lon="6.4696192369"><ele>1322.43</ele><time>2012-06-02T14:53:17Z</time></trkpt>
<trkpt lat="46.7933261208" lon="6.4697396848"><ele>1325.8</ele><time>2012-06-02T14:53:26Z</time></trkpt>
<trkpt lat="46.7933876440" lon="6.4699273556"><ele>1330.6</ele><time>2012-06-02T14:53:39Z</time></trkpt>
<trkpt lat="46.7934480775" lon="6.4700139407"><ele>1332.52</ele><time>2012-06-02T14:53:48Z</time></trkpt>
<trkpt lat="46.7934994586" lon="6.4701375738"><ele>1334.93</ele><time>2012-06-02T14:53:57Z</time></trkpt>
<trkpt lat="46.7935456429" lon="6.4702499751"><ele>1337.33</ele><time>2012-06-02T14:54:05Z</time></trkpt>
<trkpt lat="46.7936257739" lon="6.4703945629"><ele>1339.73</ele><time>2012-06-02T14:54:16Z</time></trkpt>
<trkpt lat="46.7937095091" lon="6.4705392346"><ele>1343.58</ele><time>2012-06-02T14:54:27Z</time></trkpt>
<trkpt lat="46.7937901430" lon="6.4707025979"><ele>1345.5</ele><time>2012-06-02T14:54:38Z</time></trkpt>
<trkpt lat="46.7938578688" lon="6.4708476048"><ele>1347.43</ele><time>2012-06-02T14:54:48Z</time></trkpt>
<trkpt lat="46.7939072382" lon="6.4709921088"><ele>1347.43</ele><time>2012-06-02T14:54:57Z</time></trkpt>
<trkpt lat="46.7939133570" lon="6.4710241277"><ele>1347.91</ele><time>2012-06-02T14:54:59Z</time></trkpt>
<trkpt lat="46.7939364910" lon="6.4710888360"><ele>1348.39</ele><time>2012-06-02T14:55:03Z</time></trkpt>
<trkpt lat="46.7940000258" lon="6.4712722320"><ele>1348.87</ele><time>2012-06-02T14:55:16Z</time></trkpt>
<trkpt lat="46.7940643150" lon="6.4715027343"><ele>1351.75</ele><time>2012-06-02T14:55:30Z</time></trkpt>
<trkpt lat="46.7940576933" lon="6.4715506788"><ele>1351.27</ele><time>2012-06-02T14:55:32Z</time></trkpt>
<trkpt lat="46.7941266764" lon="6.4717703685"><ele>1350.79</ele><time>2012-06-02T14:55:44Z</time></trkpt>
<trkpt lat="46.7942008562" lon="6.4718990307"><ele>1354.15</ele><time>2012-06-02T14:55:56Z</time></trkpt>
<trkpt lat="46.7942678276" lon="6.4720560238"><ele>1356.56</ele><time>2012-06-02T14:56:08Z</time></trkpt>
<trkpt lat="46.7942700069" lon="6.4720722008"><ele>1357.04</ele><time>2012-06-02T14:56:09Z</time></trkpt>
<trkpt lat="46.7943259981" lon="6.4722876996"><ele>1359.44</ele><time>2012-06-02T14:56:22Z</time></trkpt>
<trkpt lat="46.7943684943" lon="6.4724549185"><ele>1360.4</ele><time>2012-06-02T14:56:33Z</time></trkpt>
<trkpt lat="46.7944133375" lon="6.4725530706"><ele>1364.25</ele><time>2012-06-02T14:56:45Z</time></trkpt>
<trkpt lat="46.7944503017" lon="6.4726736024"><ele>1369.05</ele><time>2012-06-02T14:56:56Z</time></trkpt>
<trkpt lat="46.7944978271" lon="6.4727782924"><ele>1373.86</ele><time>2012-06-02T14:57:07Z</time></trkpt>
<trkpt lat="46.7945293430" lon="6.4729473554"><ele>1378.19</ele><time>2012-06-02T14:57:18Z</time></trkpt>
<trkpt lat="46.7945705820" lon="6.4730509557"><ele>1382.03</ele><time>2012-06-02T14:57:28Z</time></trkpt>
<trkpt lat="46.7946252320" lon="6.4731632732"><ele>1386.36</ele><time>2012-06-02T14:57:41Z</time></trkpt>
<trkpt lat="46.7946531437" lon="6.4732879959"><ele>1388.76</ele><time>2012-06-02T14:57:50Z</time></trkpt>
<trkpt lat="46.7946409062" lon="6.4735348430"><ele>1390.2</ele><time>2012-06-02T14:58:02Z</time></trkpt>
<trkpt lat="46.7946835700" lon="6.4736179914"><ele>1394.05</ele><time>2012-06-02T14:58:13Z</time></trkpt>
<trkpt lat="46.7947020940" lon="6.4737051632"><ele>1396.45</ele><time>2012-06-02T14:58:22Z</time></trkpt>
<trkpt lat="46.7947475240" lon="6.4738008007"><ele>1401.74</ele><time>2012-06-02T14:58:33Z</time></trkpt>
<trkpt lat="46.7947582528" lon="6.4739608951"><ele>1407.99</ele><time>2012-06-02T14:58:45Z</time></trkpt>
<trkpt lat="46.7947594263" lon="6.4740103483"><ele>1409.43</ele><time>2012-06-02T14:58:54Z</time></trkpt>
<trkpt lat="46.7947594263" lon="6.4740103483"><ele>1409.43</ele><time>2012-06-02T14:59:09Z</time></trkpt>
<trkpt lat="46.7947486974" lon="6.4740433730"><ele>1409.43</ele><time>2012-06-02T14:59:33Z</time></trkpt>
<trkpt lat="46.7947486974" lon="6.4740433730"><ele>1409.43</ele><time>2012-06-02T14:59:55Z</time></trkpt>
<trkpt lat="46.7947496194" lon="6.4740494918"><ele>1408.95</ele><time>2012-06-02T15:00:16Z</time></trkpt>
<trkpt lat="46.7947496194" lon="6.4740494918"><ele>1408.95</ele><time>2012-06-02T15:00:37Z</time></trkpt>
<trkpt lat="46.7947524693" lon="6.4740915690"><ele>1408.95</ele><time>2012-06-02T15:00:50Z</time></trkpt>
<trkpt lat="46.7947682273" lon="6.4743013680"><ele>1410.39</ele><time>2012-06-02T15:01:02Z</time></trkpt>
<trkpt lat="46.7947787046" lon="6.4744498115"><ele>1413.76</ele><time>2012-06-02T15:01:13Z</time></trkpt>
<trkpt lat="46.7948048562" lon="6.4746112470"><ele>1418.08</ele><time>2012-06-02T15:01:25Z</time></trkpt>
<trkpt lat="46.7948363721" lon="6.4747592714"><ele>1421.45</ele><time>2012-06-02T15:01:36Z</time></trkpt>
<trkpt lat="46.7948417366" lon="6.4749098103"><ele>1421.93</ele><time>2012-06-02T15:01:43Z</time></trkpt>
<trkpt lat="46.7948374618" lon="6.4749461878"><ele>1421.93</ele><time>2012-06-02T15:01:45Z</time></trkpt>
<trkpt lat="46.7948636971" lon="6.4751663804"><ele>1422.89</ele><time>2012-06-02T15:01:58Z</time></trkpt>
<trkpt lat="46.7948704865" lon="6.4753257204"><ele>1424.81</ele><time>2012-06-02T15:02:07Z</time></trkpt>
<trkpt lat="46.7948765215" lon="6.4753850643"><ele>1426.73</ele><time>2012-06-02T15:02:18Z</time></trkpt>
<trkpt lat="46.7948868312" lon="6.4755864814"><ele>1431.06</ele><time>2012-06-02T15:02:28Z</time></trkpt>
<trkpt lat="46.7948543932" lon="6.4759161416"><ele>1426.73</ele><time>2012-06-02T15:02:37Z</time></trkpt>
<trkpt lat="46.7948545609" lon="6.4760915749"><ele>1423.85</ele><time>2012-06-02T15:02:46Z</time></trkpt>
<trkpt lat="46.7948638648" lon="6.4762116037"><ele>1427.7</ele><time>2012-06-02T15:02:57Z</time></trkpt>
<trkpt lat="46.7948703188" lon="6.4763576165"><ele>1428.18</ele><time>2012-06-02T15:03:07Z</time></trkpt>
<trkpt lat="46.7948751803" lon="6.4764263481"><ele>1428.18</ele><time>2012-06-02T15:03:11Z</time></trkpt>
<trkpt lat="46.7948996555" lon="6.4765504841"><ele>1428.66</ele><time>2012-06-02T15:03:18Z</time></trkpt>
<trkpt lat="46.7948662117" lon="6.4766614605"><ele>1419.52</ele><time>2012-06-02T15:03:29Z</time></trkpt>
<trkpt lat="46.7948979791" lon="6.4769198745"><ele>1420.49</ele><time>2012-06-02T15:03:40Z</time></trkpt>
<trkpt lat="46.7948481906" lon="6.4771464374"><ele>1418.56</ele><time>2012-06-02T15:03:51Z</time></trkpt>
<trkpt lat="46.7948442511" lon="6.4772855770"><ele>1421.93</ele><time>2012-06-02T15:04:03Z</time></trkpt>
<trkpt lat="46.7948424071" lon="6.4773787837"><ele>1423.85</ele><time>2012-06-02T15:04:11Z</time></trkpt>
<trkpt lat="46.7948419880" lon="6.4775009919"><ele>1427.7</ele><time>2012-06-02T15:04:21Z</time></trkpt>
<trkpt lat="46.7948496994" lon="6.4776191767"><ele>1428.66</ele><time>2012-06-02T15:04:31Z</time></trkpt>
<trkpt lat="46.7948735878" lon="6.4778232761"><ele>1429.62</ele><time>2012-06-02T15:04:43Z</time></trkpt>
<trkpt lat="46.7948908545" lon="6.4779925067"><ele>1432.98</ele><time>2012-06-02T15:04:53Z</time></trkpt>
<trkpt lat="46.7949300818" lon="6.4780738950"><ele>1437.79</ele><time>2012-06-02T15:05:03Z</time></trkpt>
<trkpt lat="46.7949263938" lon="6.4780875575"><ele>1439.71</ele><time>2012-06-02T15:05:14Z</time></trkpt>
<trkpt lat="46.7949263938" lon="6.4780875575"><ele>1439.71</ele><time>2012-06-02T15:05:37Z</time></trkpt>
<trkpt lat="46.7949352786" lon="6.4781248569"><ele>1440.67</ele><time>2012-06-02T15:05:55Z</time></trkpt>
<trkpt lat="46.7949703988" lon="6.4782365039"><ele>1445.96</ele><time>2012-06-02T15:06:05Z</time></trkpt>
<trkpt lat="46.7950224504" lon="6.4783559460"><ele>1452.21</ele><time>2012-06-02T15:06:16Z</time></trkpt>
<trkpt lat="46.7950585764" lon="6.4784867037"><ele>1457.02</ele><time>2012-06-02T15:06:28Z</time></trkpt>
<trkpt lat="46.7950615939" lon="6.4785123523"><ele>1457.5</ele><time>2012-06-02T15:06:30Z</time></trkpt>
<trkpt lat="46.7951141484" lon="6.4785590395"><ele>1463.26</ele><time>2012-06-02T15:06:41Z</time></trkpt>
<trkpt lat="46.7951320019" lon="6.4786446188"><ele>1463.74</ele><time>2012-06-02T15:06:51Z</time></trkpt>
<trkpt lat="46.7951051798" lon="6.4788815752"><ele>1463.74</ele><time>2012-06-02T15:06:59Z</time></trkpt>
<trkpt lat="46.7951016594" lon="6.4790750295"><ele>1463.26</ele><time>2012-06-02T15:07:09Z</time></trkpt>
<trkpt lat="46.7950941995" lon="6.4791563340"><ele>1462.78</ele><time>2012-06-02T15:07:20Z</time></trkpt>
<trkpt lat="46.7950300779" lon="6.4793510456"><ele>1462.78</ele><time>2012-06-02T15:07:32Z</time></trkpt>
<trkpt lat="46.7950216960" lon="6.4794004988"><ele>1463.74</ele><time>2012-06-02T15:07:42Z</time></trkpt>
<trkpt lat="46.7950216960" lon="6.4794004988"><ele>1463.74</ele><time>2012-06-02T15:08:07Z</time></trkpt>
<trkpt lat="46.7950170022" lon="6.4794004988"><ele>1463.74</ele><time>2012-06-02T15:08:30Z</time></trkpt>
<trkpt lat="46.7950170022" lon="6.4794004988"><ele>1463.74</ele><time>2012-06-02T15:08:41Z</time></trkpt>
<trkpt lat="46.7950180080" lon="6.4794020914"><ele>1463.74</ele><time>2012-06-02T15:09:01Z</time></trkpt>
<trkpt lat="46.7950154096" lon="6.4794647042"><ele>1464.71</ele><time>2012-06-02T15:09:11Z</time></trkpt>
<trkpt lat="46.7950245459" lon="6.4795724116"><ele>1465.67</ele><time>2012-06-02T15:09:18Z</time></trkpt>
<trkpt lat="46.7950900085" lon="6.4797766786"><ele>1467.59</ele><time>2012-06-02T15:09:29Z</time></trkpt>
<trkpt lat="46.7951659486" lon="6.4800024033"><ele>1470.95</ele><time>2012-06-02T15:09:41Z</time></trkpt>
<trkpt lat="46.7952273879" lon="6.4801671077"><ele>1476.24</ele><time>2012-06-02T15:09:51Z</time></trkpt>
<trkpt lat="46.7952786013" lon="6.4802970272"><ele>1476.72</ele><time>2012-06-02T15:09:59Z</time></trkpt>
<trkpt lat="46.7952875700" lon="6.4804999530"><ele>1475.28</ele><time>2012-06-02T15:10:05Z</time></trkpt>
<trkpt lat="46.7953396216" lon="6.4807106741"><ele>1472.88</ele><time>2012-06-02T15:10:13Z</time></trkpt>
<trkpt lat="46.7954319064" lon="6.4809635561"><ele>1469.51</ele><time>2012-06-02T15:10:25Z</time></trkpt>
<trkpt lat="46.7955231015" lon="6.4812381472"><ele>1467.11</ele><time>2012-06-02T15:10:36Z</time></trkpt>
<trkpt lat="46.7955879774" lon="6.4814027678"><ele>1464.71</ele><time>2012-06-02T15:10:47Z</time></trkpt>
<trkpt lat="46.7955879774" lon="6.4814027678"><ele>1464.71</ele><time>2012-06-02T15:10:52Z</time></trkpt>
<trkpt lat="46.7955930065" lon="6.4814300090"><ele>1464.71</ele><time>2012-06-02T15:10:55Z</time></trkpt>
<trkpt lat="46.7956676055" lon="6.4816746768"><ele>1463.74</ele><time>2012-06-02T15:11:05Z</time></trkpt>
<trkpt lat="46.7957230099" lon="6.4818903431"><ele>1462.78</ele><time>2012-06-02T15:11:14Z</time></trkpt>
<trkpt lat="46.7957359180" lon="6.4819905069"><ele>1462.78</ele><time>2012-06-02T15:11:18Z</time></trkpt>
<trkpt lat="46.7957382649" lon="6.4820664469"><ele>1462.3</ele><time>2012-06-02T15:11:21Z</time></trkpt>
<trkpt lat="46.7957592197" lon="6.4822614938"><ele>1462.3</ele><time>2012-06-02T15:11:29Z</time></trkpt>
<trkpt lat="46.7957572080" lon="6.4823127910"><ele>1462.3</ele><time>2012-06-02T15:11:31Z</time></trkpt>
<trkpt lat="46.7957893107" lon="6.4824594744"><ele>1462.78</ele><time>2012-06-02T15:11:36Z</time></trkpt>
<trkpt lat="46.7957889754" lon="6.4827726223"><ele>1462.3</ele><time>2012-06-02T15:11:47Z</time></trkpt>
<trkpt lat="46.7958627362" lon="6.4831410069"><ele>1461.82</ele><time>2012-06-02T15:11:59Z</time></trkpt>
<trkpt lat="46.7959245946" lon="6.4833981637"><ele>1461.34</ele><time>2012-06-02T15:12:09Z</time></trkpt>
<trkpt lat="46.7959245946" lon="6.4834175259"><ele>1461.34</ele><time>2012-06-02T15:12:10Z</time></trkpt>
<trkpt lat="46.7959125247" lon="6.4834605251"><ele>1461.34</ele><time>2012-06-02T15:12:14Z</time></trkpt>
<trkpt lat="46.7958814278" lon="6.4836753532"><ele>1461.82</ele><time>2012-06-02T15:12:22Z</time></trkpt>
<trkpt lat="46.7958749738" lon="6.4838281553"><ele>1462.78</ele><time>2012-06-02T15:12:26Z</time></trkpt>
<trkpt lat="46.7959126923" lon="6.4841827098"><ele>1462.78</ele><time>2012-06-02T15:12:35Z</time></trkpt>
<trkpt lat="46.7959774844" lon="6.4845977817"><ele>1462.78</ele><time>2012-06-02T15:12:47Z</time></trkpt>
<trkpt lat="46.7960162926" lon="6.4849041402"><ele>1462.3</ele><time>2012-06-02T15:12:59Z</time></trkpt>
<trkpt lat="46.7960605491" lon="6.4850410167"><ele>1462.3</ele><time>2012-06-02T15:13:03Z</time></trkpt>
<trkpt lat="46.7961054761" lon="6.4851541724"><ele>1462.3</ele><time>2012-06-02T15:13:06Z</time></trkpt>
<trkpt lat="46.7961570248" lon="6.4852896240"><ele>1462.3</ele><time>2012-06-02T15:13:12Z</time></trkpt>
<trkpt lat="46.7961930670" lon="6.4856080525"><ele>1463.74</ele><time>2012-06-02T15:13:22Z</time></trkpt>
<trkpt lat="46.7961943243" lon="6.4859626070"><ele>1462.3</ele><time>2012-06-02T15:13:35Z</time></trkpt>
<trkpt lat="46.7962877825" lon="6.4861757588"><ele>1462.78</ele><time>2012-06-02T15:13:44Z</time></trkpt>
<trkpt lat="46.7963643093" lon="6.4863805287"><ele>1463.74</ele><time>2012-06-02T15:13:54Z</time></trkpt>
<trkpt lat="46.7963828333" lon="6.4864256233"><ele>1463.26</ele><time>2012-06-02T15:13:56Z</time></trkpt>
<trkpt lat="46.7964798119" lon="6.4866830315"><ele>1462.78</ele><time>2012-06-02T15:14:08Z</time></trkpt>
<trkpt lat="46.7965527344" lon="6.4868234284"><ele>1463.74</ele><time>2012-06-02T15:14:18Z</time></trkpt>
<trkpt lat="46.7965555005" lon="6.4868444670"><ele>1463.74</ele><time>2012-06-02T15:14:21Z</time></trkpt>
<trkpt lat="46.7965642177" lon="6.4868812636"><ele>1464.23</ele><time>2012-06-02T15:14:24Z</time></trkpt>
<trkpt lat="46.7965768743" lon="6.4869095944"><ele>1464.23</ele><time>2012-06-02T15:14:26Z</time></trkpt>
<trkpt lat="46.7965861782" lon="6.4869563654"><ele>1464.71</ele><time>2012-06-02T15:14:29Z</time></trkpt>
<trkpt lat="46.7966207117" lon="6.4870321378"><ele>1465.19</ele><time>2012-06-02T15:14:34Z</time></trkpt>
<trkpt lat="46.7966438457" lon="6.4870720357"><ele>1464.71</ele><time>2012-06-02T15:14:37Z</time></trkpt>
<trkpt lat="46.7967063747" lon="6.4872003626"><ele>1464.71</ele><time>2012-06-02T15:14:48Z</time></trkpt>
<trkpt lat="46.7967473622" lon="6.4873251691"><ele>1464.71</ele><time>2012-06-02T15:15:00Z</time></trkpt>
<trkpt lat="46.7967565823" lon="6.4873488899"><ele>1465.19</ele><time>2012-06-02T15:15:10Z</time></trkpt>
<trkpt lat="46.7967668083" lon="6.4874584414"><ele>1466.15</ele><time>2012-06-02T15:15:20Z</time></trkpt>
<trkpt lat="46.7967836559" lon="6.4875816554"><ele>1466.63</ele><time>2012-06-02T15:15:30Z</time></trkpt>
<trkpt lat="46.7967986595" lon="6.4876967389"><ele>1468.07</ele><time>2012-06-02T15:15:40Z</time></trkpt>
<trkpt lat="46.7967987433" lon="6.4877023548"><ele>1468.07</ele><time>2012-06-02T15:15:56Z</time></trkpt>
<trkpt lat="46.7968373001" lon="6.4878333639"><ele>1469.03</ele><time>2012-06-02T15:16:05Z</time></trkpt>
<trkpt lat="46.7968768626" lon="6.4880684763"><ele>1469.03</ele><time>2012-06-02T15:16:18Z</time></trkpt>
<trkpt lat="46.7968720850" lon="6.4880977292"><ele>1469.03</ele><time>2012-06-02T15:16:20Z</time></trkpt>
<trkpt lat="46.7968664691" lon="6.4881258085"><ele>1469.51</ele><time>2012-06-02T15:16:22Z</time></trkpt>
<trkpt lat="46.7968486995" lon="6.4881838113"><ele>1469.99</ele><time>2012-06-02T15:16:33Z</time></trkpt>
<trkpt lat="46.7968486995" lon="6.4881838113"><ele>1469.99</ele><time>2012-06-02T15:16:45Z</time></trkpt>
<trkpt lat="46.7968486995" lon="6.4881838113"><ele>1469.99</ele><time>2012-06-02T15:16:54Z</time></trkpt>
<trkpt lat="46.7968484480" lon="6.4881834760"><ele>1469.99</ele><time>2012-06-02T15:17:09Z</time></trkpt>
<trkpt lat="46.7968484480" lon="6.4881834760"><ele>1469.99</ele><time>2012-06-02T15:17:26Z</time></trkpt>
<trkpt lat="46.7968484480" lon="6.4881834760"><ele>1469.99</ele><time>2012-06-02T15:17:35Z</time></trkpt>
<trkpt lat="46.7968502082" lon="6.4881921094"><ele>1469.99</ele><time>2012-06-02T15:17:55Z</time></trkpt>
<trkpt lat="46.7968502082" lon="6.4881921094"><ele>1469.99</ele><time>2012-06-02T15:18:13Z</time></trkpt>
<trkpt lat="46.7968519684" lon="6.4882035088"><ele>1469.99</ele><time>2012-06-02T15:18:32Z</time></trkpt>
<trkpt lat="46.7968519684" lon="6.4882035088"><ele>1469.99</ele><time>2012-06-02T15:18:46Z</time></trkpt>
<trkpt lat="46.7968519684" lon="6.4882035088"><ele>1469.99</ele><time>2012-06-02T15:18:56Z</time></trkpt>
<trkpt lat="46.7968534771" lon="6.4882038441"><ele>1469.99</ele><time>2012-06-02T15:19:09Z</time></trkpt>
<trkpt lat="46.7968534771" lon="6.4882038441"><ele>1469.99</ele><time>2012-06-02T15:19:22Z</time></trkpt>
<trkpt lat="46.7968534771" lon="6.4882038441"><ele>1469.99</ele><time>2012-06-02T15:19:38Z</time></trkpt>
<trkpt lat="46.7968534771" lon="6.4882038441"><ele>1469.99</ele><time>2012-06-02T15:19:46Z</time></trkpt>
<trkpt lat="46.7968523037" lon="6.4882068615"><ele>1469.99</ele><time>2012-06-02T15:19:57Z</time></trkpt>
<trkpt lat="46.7968523037" lon="6.4882068615"><ele>1469.99</ele><time>2012-06-02T15:20:09Z</time></trkpt>
<trkpt lat="46.7968523037" lon="6.4882068615"><ele>1469.99</ele><time>2012-06-02T15:20:21Z</time></trkpt>
<trkpt lat="46.7968531419" lon="6.4882026706"><ele>1469.99</ele><time>2012-06-02T15:20:36Z</time></trkpt>
<trkpt lat="46.7968531419" lon="6.4882026706"><ele>1469.99</ele><time>2012-06-02T15:20:52Z</time></trkpt>
<trkpt lat="46.7968531419" lon="6.4882026706"><ele>1469.99</ele><time>2012-06-02T15:21:04Z</time></trkpt>
<trkpt lat="46.7968494538" lon="6.4882097952"><ele>1469.99</ele><time>2012-06-02T15:21:19Z</time></trkpt>
<trkpt lat="46.7968494538" lon="6.4882097952"><ele>1469.99</ele><time>2012-06-02T15:21:27Z</time></trkpt>
<trkpt lat="46.7968494538" lon="6.4882097952"><ele>1469.99</ele><time>2012-06-02T15:21:45Z</time></trkpt>
<trkpt lat="46.7968547344" lon="6.4882064424"><ele>1469.51</ele><time>2012-06-02T15:22:05Z</time></trkpt>
<trkpt lat="46.7968547344" lon="6.4882064424"><ele>1469.51</ele><time>2012-06-02T15:22:18Z</time></trkpt>
<trkpt lat="46.7968544830" lon="6.4882123936"><ele>1469.51</ele><time>2012-06-02T15:22:35Z</time></trkpt>
<trkpt lat="46.7968544830" lon="6.4882123936"><ele>1469.51</ele><time>2012-06-02T15:22:51Z</time></trkpt>
<trkpt lat="46.7968505435" lon="6.4882062748"><ele>1469.51</ele><time>2012-06-02T15:23:00Z</time></trkpt>
<trkpt lat="46.7968505435" lon="6.4882062748"><ele>1469.51</ele><time>2012-06-02T15:23:12Z</time></trkpt>
<trkpt lat="46.7968505435" lon="6.4882062748"><ele>1469.51</ele><time>2012-06-02T15:23:28Z</time></trkpt>
<trkpt lat="46.7968498729" lon="6.4882009942"><ele>1469.51</ele><time>2012-06-02T15:23:43Z</time></trkpt>
<trkpt lat="46.7968498729" lon="6.4882009942"><ele>1469.51</ele><time>2012-06-02T15:24:02Z</time></trkpt>
<trkpt lat="46.7968498729" lon="6.4882009942"><ele>1469.51</ele><time>2012-06-02T15:24:12Z</time></trkpt>
<trkpt lat="46.7968498729" lon="6.4882012457"><ele>1469.51</ele><time>2012-06-02T15:24:27Z</time></trkpt>
<trkpt lat="46.7968498729" lon="6.4882012457"><ele>1469.51</ele><time>2012-06-02T15:24:46Z</time></trkpt>
<trkpt lat="46.7968514655" lon="6.4882040955"><ele>1469.51</ele><time>2012-06-02T15:25:00Z</time></trkpt>
<trkpt lat="46.7968514655" lon="6.4882040955"><ele>1469.51</ele><time>2012-06-02T15:25:19Z</time></trkpt>
<trkpt lat="46.7968514655" lon="6.4882040955"><ele>1469.51</ele><time>2012-06-02T15:25:32Z</time></trkpt>
<trkpt lat="46.7968528904" lon="6.4882038441"><ele>1469.51</ele><time>2012-06-02T15:25:47Z</time></trkpt>
<trkpt lat="46.7968528904" lon="6.4882038441"><ele>1469.51</ele><time>2012-06-02T15:26:05Z</time></trkpt>
<trkpt lat="46.7968554050" lon="6.4882060234"><ele>1469.51</ele><time>2012-06-02T15:26:18Z</time></trkpt>
<trkpt lat="46.7968554050" lon="6.4882060234"><ele>1469.51</ele><time>2012-06-02T15:26:29Z</time></trkpt>
<trkpt lat="46.7968554050" lon="6.4882060234"><ele>1469.51</ele><time>2012-06-02T15:26:46Z</time></trkpt>
<trkpt lat="46.7968573328" lon="6.4882096276"><ele>1469.51</ele><time>2012-06-02T15:27:16Z</time></trkpt>
<trkpt lat="46.7968573328" lon="6.4882096276"><ele>1469.51</ele><time>2012-06-02T15:27:32Z</time></trkpt>
<trkpt lat="46.7968603503" lon="6.4882216137"><ele>1469.03</ele><time>2012-06-02T15:27:47Z</time></trkpt>
<trkpt lat="46.7968603503" lon="6.4882216137"><ele>1469.03</ele><time>2012-06-02T15:28:06Z</time></trkpt>
<trkpt lat="46.7968605179" lon="6.4882222842"><ele>1468.55</ele><time>2012-06-02T15:28:19Z</time></trkpt>
<trkpt lat="46.7968605179" lon="6.4882222842"><ele>1468.55</ele><time>2012-06-02T15:28:37Z</time></trkpt>
<trkpt lat="46.7968605179" lon="6.4882222842"><ele>1468.55</ele><time>2012-06-02T15:28:53Z</time></trkpt>
<trkpt lat="46.7968627810" lon="6.4882278163"><ele>1468.55</ele><time>2012-06-02T15:29:11Z</time></trkpt>
<trkpt lat="46.7968627810" lon="6.4882278163"><ele>1468.55</ele><time>2012-06-02T15:29:26Z</time></trkpt>
<trkpt lat="46.7968627810" lon="6.4882278163"><ele>1468.55</ele><time>2012-06-02T15:29:34Z</time></trkpt>
<trkpt lat="46.7970320955" lon="6.4882852323"><ele>1468.07</ele><time>2012-06-02T15:29:44Z</time></trkpt>
<trkpt lat="46.7970367055" lon="6.4882911835"><ele>1467.59</ele><time>2012-06-02T15:29:51Z</time></trkpt>
<trkpt lat="46.7970839795" lon="6.4882952906"><ele>1466.63</ele><time>2012-06-02T15:30:02Z</time></trkpt>
<trkpt lat="46.7972241249" lon="6.4882669598"><ele>1463.74</ele><time>2012-06-02T15:30:09Z</time></trkpt>
<trkpt lat="46.7973929364" lon="6.4883781038"><ele>1459.9</ele><time>2012-06-02T15:30:18Z</time></trkpt>
<trkpt lat="46.7975714710" lon="6.4886447322"><ele>1453.65</ele><time>2012-06-02T15:30:27Z</time></trkpt>
<trkpt lat="46.7977666017" lon="6.4888598956"><ele>1449.81</ele><time>2012-06-02T15:30:35Z</time></trkpt>
<trkpt lat="46.7978391051" lon="6.4889819361"><ele>1448.36</ele><time>2012-06-02T15:30:45Z</time></trkpt>
<trkpt lat="46.7978911567" lon="6.4890452195"><ele>1448.36</ele><time>2012-06-02T15:30:53Z</time></trkpt>
<trkpt lat="46.7979057413" lon="6.4890578762"><ele>1447.88</ele><time>2012-06-02T15:31:03Z</time></trkpt>
<trkpt lat="46.7979458906" lon="6.4890988637"><ele>1447.88</ele><time>2012-06-02T15:31:19Z</time></trkpt>
<trkpt lat="46.7981224973" lon="6.4893965051"><ele>1447.4</ele><time>2012-06-02T15:31:27Z</time></trkpt>
<trkpt lat="46.7982249241" lon="6.4896224812"><ele>1445.96</ele><time>2012-06-02T15:31:36Z</time></trkpt>
<trkpt lat="46.7982795741" lon="6.4897290990"><ele>1446.44</ele><time>2012-06-02T15:31:46Z</time></trkpt>
<trkpt lat="46.7982987687" lon="6.4898340404"><ele>1448.36</ele><time>2012-06-02T15:31:55Z</time></trkpt>
<trkpt lat="46.7983421870" lon="6.4899254031"><ele>1450.29</ele><time>2012-06-02T15:32:01Z</time></trkpt>
<trkpt lat="46.7984143551" lon="6.4900928736"><ele>1451.73</ele><time>2012-06-02T15:32:08Z</time></trkpt>
<trkpt lat="46.7984664068" lon="6.4902322646"><ele>1454.13</ele><time>2012-06-02T15:32:17Z</time></trkpt>
<trkpt lat="46.7984664068" lon="6.4902322646"><ele>1454.13</ele><time>2012-06-02T15:32:29Z</time></trkpt>
<trkpt lat="46.7984664068" lon="6.4902322646"><ele>1454.13</ele><time>2012-06-02T15:32:53Z</time></trkpt>
<trkpt lat="46.7984710168" lon="6.4902374614"><ele>1454.13</ele><time>2012-06-02T15:33:19Z</time></trkpt>
<trkpt lat="46.7985211406" lon="6.4904069435"><ele>1456.53</ele><time>2012-06-02T15:33:26Z</time></trkpt>
<trkpt lat="46.7986065522" lon="6.4905602485"><ele>1457.5</ele><time>2012-06-02T15:33:33Z</time></trkpt>
<trkpt lat="46.7986482102" lon="6.4907822851"><ele>1458.46</ele><time>2012-06-02T15:33:41Z</time></trkpt>
<trkpt lat="46.7986584362" lon="6.4908593148"><ele>1460.38</ele><time>2012-06-02T15:33:50Z</time></trkpt>
<trkpt lat="46.7986889463" lon="6.4909613226"><ele>1458.94</ele><time>2012-06-02T15:34:00Z</time></trkpt>
<trkpt lat="46.7986979149" lon="6.4909783378"><ele>1458.94</ele><time>2012-06-02T15:34:02Z</time></trkpt>
<trkpt lat="46.7988217156" lon="6.4911147114"><ele>1445.48</ele><time>2012-06-02T15:34:13Z</time></trkpt>
<trkpt lat="46.7988217156" lon="6.4911147114"><ele>1445.48</ele><time>2012-06-02T15:34:17Z</time></trkpt>
<trkpt lat="46.7988692410" lon="6.4911866281"><ele>1443.56</ele><time>2012-06-02T15:34:22Z</time></trkpt>
<trkpt lat="46.7989468575" lon="6.4912737999"><ele>1439.71</ele><time>2012-06-02T15:34:27Z</time></trkpt>
<trkpt lat="46.7989922874" lon="6.4913612232"><ele>1436.35</ele><time>2012-06-02T15:34:35Z</time></trkpt>
<trkpt lat="46.7990378849" lon="6.4914468024"><ele>1432.98</ele><time>2012-06-02T15:34:45Z</time></trkpt>
<trkpt lat="46.7991128191" lon="6.4916037954"><ele>1428.66</ele><time>2012-06-02T15:34:53Z</time></trkpt>
<trkpt lat="46.7991591711" lon="6.4917462878"><ele>1426.25</ele><time>2012-06-02T15:35:01Z</time></trkpt>
<trkpt lat="46.7991657928" lon="6.4917726908"><ele>1425.77</ele><time>2012-06-02T15:35:04Z</time></trkpt>
<trkpt lat="46.7991732527" lon="6.4918099064"><ele>1425.29</ele><time>2012-06-02T15:35:13Z</time></trkpt>
<trkpt lat="46.7992005777" lon="6.4918648079"><ele>1424.81</ele><time>2012-06-02T15:35:20Z</time></trkpt>
<trkpt lat="46.7992567364" lon="6.4920118265"><ele>1423.37</ele><time>2012-06-02T15:35:31Z</time></trkpt>
<trkpt lat="46.7992997356" lon="6.4920715895"><ele>1423.37</ele><time>2012-06-02T15:35:43Z</time></trkpt>
<trkpt lat="46.7992997356" lon="6.4920715895"><ele>1423.37</ele><time>2012-06-02T15:36:00Z</time></trkpt>
<trkpt lat="46.7993035913" lon="6.4920821507"><ele>1423.85</ele><time>2012-06-02T15:36:24Z</time></trkpt>
<trkpt lat="46.7993035913" lon="6.4920821507"><ele>1423.85</ele><time>2012-06-02T15:36:45Z</time></trkpt>
<trkpt lat="46.7993103806" lon="6.4920864254"><ele>1423.85</ele><time>2012-06-02T15:36:58Z</time></trkpt>
<trkpt lat="46.7993103806" lon="6.4920864254"><ele>1423.85</ele><time>2012-06-02T15:37:15Z</time></trkpt>
<trkpt lat="46.7993961275" lon="6.4923161734"><ele>1420</ele><time>2012-06-02T15:37:26Z</time></trkpt>
<trkpt lat="46.7994929384" lon="6.4925704803"><ele>1418.08</ele><time>2012-06-02T15:37:35Z</time></trkpt>
<trkpt lat="46.7995208502" lon="6.4928401262"><ele>1413.76</ele><time>2012-06-02T15:37:45Z</time></trkpt>
<trkpt lat="46.7996593192" lon="6.4931410365"><ele>1413.76</ele><time>2012-06-02T15:37:54Z</time></trkpt>
<trkpt lat="46.7997464910" lon="6.4932495821"><ele>1412.31</ele><time>2012-06-02T15:38:03Z</time></trkpt>
<trkpt lat="46.7997757439" lon="6.4933126140"><ele>1410.87</ele><time>2012-06-02T15:38:13Z</time></trkpt>
<trkpt lat="46.7998512648" lon="6.4934274461"><ele>1407.99</ele><time>2012-06-02T15:38:23Z</time></trkpt>
<trkpt lat="46.7999499198" lon="6.4935387578"><ele>1402.22</ele><time>2012-06-02T15:38:34Z</time></trkpt>
<trkpt lat="46.7999542784" lon="6.4935466368"><ele>1401.26</ele><time>2012-06-02T15:38:43Z</time></trkpt>
<trkpt lat="46.7999635823" lon="6.4935659990"><ele>1401.26</ele><time>2012-06-02T15:38:51Z</time></trkpt>
<trkpt lat="46.8000122812" lon="6.4936442859"><ele>1401.74</ele><time>2012-06-02T15:39:00Z</time></trkpt>
<trkpt lat="46.8000200763" lon="6.4936564397"><ele>1401.74</ele><time>2012-06-02T15:39:03Z</time></trkpt>
<trkpt lat="46.8001338188" lon="6.4938639756"><ele>1399.82</ele><time>2012-06-02T15:39:14Z</time></trkpt>
<trkpt lat="46.8001691066" lon="6.4939690847"><ele>1396.93</ele><time>2012-06-02T15:39:24Z</time></trkpt>
<trkpt lat="46.8001691066" lon="6.4939690847"><ele>1396.93</ele><time>2012-06-02T15:39:45Z</time></trkpt>
<trkpt lat="46.8001865409" lon="6.4941516425"><ele>1395.01</ele><time>2012-06-02T15:39:56Z</time></trkpt>
<trkpt lat="46.8001967669" lon="6.4942072984"><ele>1394.05</ele><time>2012-06-02T15:40:05Z</time></trkpt>
<trkpt lat="46.8001967669" lon="6.4942072984"><ele>1394.05</ele><time>2012-06-02T15:40:15Z</time></trkpt>
<trkpt lat="46.8002054840" lon="6.4942647144"><ele>1394.05</ele><time>2012-06-02T15:40:23Z</time></trkpt>
<trkpt lat="46.8002478965" lon="6.4944360405"><ele>1393.09</ele><time>2012-06-02T15:40:34Z</time></trkpt>
<trkpt lat="46.8002550211" lon="6.4944644552"><ele>1392.61</ele><time>2012-06-02T15:40:35Z</time></trkpt>
<trkpt lat="46.8003217410" lon="6.4947362803"><ele>1392.13</ele><time>2012-06-02T15:40:44Z</time></trkpt>
<trkpt lat="46.8003373314" lon="6.4947926067"><ele>1392.13</ele><time>2012-06-02T15:40:48Z</time></trkpt>
<trkpt lat="46.8003943283" lon="6.4949457441"><ele>1391.17</ele><time>2012-06-02T15:40:52Z</time></trkpt>
<trkpt lat="46.8005088251" lon="6.4952099416"><ele>1388.28</ele><time>2012-06-02T15:41:01Z</time></trkpt>
<trkpt lat="46.8005910516" lon="6.4954176452"><ele>1386.36</ele><time>2012-06-02T15:41:07Z</time></trkpt>
<trkpt lat="46.8006881978" lon="6.4957640693"><ele>1386.84</ele><time>2012-06-02T15:41:15Z</time></trkpt>
<trkpt lat="46.8007296883" lon="6.4959157817"><ele>1385.88</ele><time>2012-06-02T15:41:18Z</time></trkpt>
<trkpt lat="46.8007992581" lon="6.4961182885"><ele>1384.92</ele><time>2012-06-02T15:41:23Z</time></trkpt>
<trkpt lat="46.8008544948" lon="6.4964699931"><ele>1384.92</ele><time>2012-06-02T15:41:32Z</time></trkpt>
<trkpt lat="46.8008622900" lon="6.4965021797"><ele>1385.4</ele><time>2012-06-02T15:41:47Z</time></trkpt>
<trkpt lat="46.8009000085" lon="6.4966807980"><ele>1384.44</ele><time>2012-06-02T15:41:51Z</time></trkpt>
<trkpt lat="46.8009914551" lon="6.4969479293"><ele>1382.51</ele><time>2012-06-02T15:41:55Z</time></trkpt>
<trkpt lat="46.8011050299" lon="6.4972682856"><ele>1381.07</ele><time>2012-06-02T15:42:03Z</time></trkpt>
<trkpt lat="46.8011196982" lon="6.4973868895"><ele>1382.03</ele><time>2012-06-02T15:42:12Z</time></trkpt>
<trkpt lat="46.8011430837" lon="6.4974411204"><ele>1381.55</ele><time>2012-06-02T15:42:17Z</time></trkpt>
<trkpt lat="46.8012357876" lon="6.4976098482"><ele>1373.86</ele><time>2012-06-02T15:42:24Z</time></trkpt>
<trkpt lat="46.8013016693" lon="6.4979260135"><ele>1369.05</ele><time>2012-06-02T15:42:32Z</time></trkpt>
<trkpt lat="46.8012999929" lon="6.4979947452"><ele>1368.57</ele><time>2012-06-02T15:42:34Z</time></trkpt>
<trkpt lat="46.8013106380" lon="6.4980507363"><ele>1367.61</ele><time>2012-06-02T15:42:36Z</time></trkpt>
<trkpt lat="46.8014023360" lon="6.4983726852"><ele>1365.21</ele><time>2012-06-02T15:42:44Z</time></trkpt>
<trkpt lat="46.8014012463" lon="6.4984294306"><ele>1364.25</ele><time>2012-06-02T15:42:46Z</time></trkpt>
<trkpt lat="46.8015013263" lon="6.4986931253"><ele>1358.96</ele><time>2012-06-02T15:42:54Z</time></trkpt>
<trkpt lat="46.8015347701" lon="6.4987712447"><ele>1357.52</ele><time>2012-06-02T15:42:56Z</time></trkpt>
<trkpt lat="46.8015817925" lon="6.4988646191"><ele>1355.6</ele><time>2012-06-02T15:42:59Z</time></trkpt>
<trkpt lat="46.8016455788" lon="6.4990395494"><ele>1353.67</ele><time>2012-06-02T15:43:04Z</time></trkpt>
<trkpt lat="46.8017149810" lon="6.4991611708"><ele>1352.23</ele><time>2012-06-02T15:43:08Z</time></trkpt>
<trkpt lat="46.8017866462" lon="6.4994029887"><ele>1348.87</ele><time>2012-06-02T15:43:19Z</time></trkpt>
<trkpt lat="46.8018123787" lon="6.4994930942"><ele>1348.39</ele><time>2012-06-02T15:43:31Z</time></trkpt>
<trkpt lat="46.8019053340" lon="6.4996648394"><ele>1344.54</ele><time>2012-06-02T15:43:39Z</time></trkpt>
<trkpt lat="46.8019461539" lon="6.4997479040"><ele>1342.14</ele><time>2012-06-02T15:43:42Z</time></trkpt>
<trkpt lat="46.8019772507" lon="6.4997784980"><ele>1341.18</ele><time>2012-06-02T15:43:44Z</time></trkpt>
<trkpt lat="46.8020209204" lon="6.4998312201"><ele>1340.7</ele><time>2012-06-02T15:43:47Z</time></trkpt>
<trkpt lat="46.8020511791" lon="6.4998725429"><ele>1338.77</ele><time>2012-06-02T15:44:01Z</time></trkpt>
<trkpt lat="46.8020511791" lon="6.4998725429"><ele>1338.77</ele><time>2012-06-02T15:44:05Z</time></trkpt>
<trkpt lat="46.8021191563" lon="6.5000273567"><ele>1332.04</ele><time>2012-06-02T15:44:11Z</time></trkpt>
<trkpt lat="46.8021689449" lon="6.5001567733"><ele>1327.72</ele><time>2012-06-02T15:44:18Z</time></trkpt>
<trkpt lat="46.8022307195" lon="6.5003173705"><ele>1327.72</ele><time>2012-06-02T15:44:27Z</time></trkpt>
<trkpt lat="46.8022473995" lon="6.5003798157"><ele>1328.2</ele><time>2012-06-02T15:44:35Z</time></trkpt>
<trkpt lat="46.8022580445" lon="6.5003973339"><ele>1327.72</ele><time>2012-06-02T15:44:36Z</time></trkpt>
<trkpt lat="46.8022781610" lon="6.5004355554"><ele>1327.24</ele><time>2012-06-02T15:44:38Z</time></trkpt>
<trkpt lat="46.8023712840" lon="6.5007842425"><ele>1323.39</ele><time>2012-06-02T15:44:47Z</time></trkpt>
<trkpt lat="46.8023753073" lon="6.5008252300"><ele>1322.91</ele><time>2012-06-02T15:44:48Z</time></trkpt>
<trkpt lat="46.8023643270" lon="6.5009906888"><ele>1321.47</ele><time>2012-06-02T15:44:57Z</time></trkpt>
<trkpt lat="46.8023643270" lon="6.5009906888"><ele>1321.47</ele><time>2012-06-02T15:45:10Z</time></trkpt>
<trkpt lat="46.8023643270" lon="6.5009906888"><ele>1321.47</ele><time>2012-06-02T15:45:12Z</time></trkpt>
<trkpt lat="46.8024430331" lon="6.5011173394"><ele>1322.91</ele><time>2012-06-02T15:45:18Z</time></trkpt>
<trkpt lat="46.8024757225" lon="6.5011802875"><ele>1323.39</ele><time>2012-06-02T15:45:20Z</time></trkpt>
<trkpt lat="46.8025073223" lon="6.5013340116"><ele>1326.28</ele><time>2012-06-02T15:45:25Z</time></trkpt>
<trkpt lat="46.8025146984" lon="6.5014496818"><ele>1331.08</ele><time>2012-06-02T15:45:30Z</time></trkpt>
<trkpt lat="46.8025329709" lon="6.5014822036"><ele>1332.04</ele><time>2012-06-02T15:45:32Z</time></trkpt>
<trkpt lat="46.8026255909" lon="6.5020113532"><ele>1330.12</ele><time>2012-06-02T15:45:40Z</time></trkpt>
<trkpt lat="46.8026120123" lon="6.5025353059"><ele>1325.8</ele><time>2012-06-02T15:45:49Z</time></trkpt>
<trkpt lat="46.8026398402" lon="6.5029273275"><ele>1321.47</ele><time>2012-06-02T15:45:58Z</time></trkpt>
<trkpt lat="46.8026421871" lon="6.5031047724"><ele>1320.99</ele><time>2012-06-02T15:46:06Z</time></trkpt>
<trkpt lat="46.8026379123" lon="6.5032667946"><ele>1320.51</ele><time>2012-06-02T15:46:16Z</time></trkpt>
<trkpt lat="46.8026669975" lon="6.5034791920"><ele>1320.03</ele><time>2012-06-02T15:46:35Z</time></trkpt>
<trkpt lat="46.8026669975" lon="6.5034791920"><ele>1320.03</ele><time>2012-06-02T15:46:56Z</time></trkpt>
<trkpt lat="46.8026621360" lon="6.5035848878"><ele>1318.1</ele><time>2012-06-02T15:47:19Z</time></trkpt>
<trkpt lat="46.8026621360" lon="6.5035848878"><ele>1318.1</ele><time>2012-06-02T15:47:38Z</time></trkpt>
<trkpt lat="46.8026650697" lon="6.5036306530"><ele>1316.66</ele><time>2012-06-02T15:47:52Z</time></trkpt>
<trkpt lat="46.8026638962" lon="6.5036543738"><ele>1316.66</ele><time>2012-06-02T15:47:53Z</time></trkpt>
<trkpt lat="46.8026928138" lon="6.5037657693"><ele>1314.74</ele><time>2012-06-02T15:47:57Z</time></trkpt>
<trkpt lat="46.8028249964" lon="6.5040869638"><ele>1311.38</ele><time>2012-06-02T15:48:06Z</time></trkpt>
<trkpt lat="46.8029172812" lon="6.5044037998"><ele>1306.57</ele><time>2012-06-02T15:48:16Z</time></trkpt>
<trkpt lat="46.8029425107" lon="6.5044690948"><ele>1305.13</ele><time>2012-06-02T15:48:24Z</time></trkpt>
<trkpt lat="46.8029490486" lon="6.5044942405"><ele>1304.65</ele><time>2012-06-02T15:48:38Z</time></trkpt>
<trkpt lat="46.8029490486" lon="6.5044942405"><ele>1304.65</ele><time>2012-06-02T15:48:51Z</time></trkpt>
<trkpt lat="46.8029490486" lon="6.5044942405"><ele>1304.65</ele><time>2012-06-02T15:49:03Z</time></trkpt>
<trkpt lat="46.8030455243" lon="6.5047006030"><ele>1303.69</ele><time>2012-06-02T15:49:11Z</time></trkpt>
<trkpt lat="46.8031141721" lon="6.5049793851"><ele>1302.72</ele><time>2012-06-02T15:49:17Z</time></trkpt>
<trkpt lat="46.8032052834" lon="6.5053983126"><ele>1301.28</ele><time>2012-06-02T15:49:25Z</time></trkpt>
<trkpt lat="46.8032676447" lon="6.5055617597"><ele>1300.8</ele><time>2012-06-02T15:49:28Z</time></trkpt>
<trkpt lat="46.8033905234" lon="6.5058136359"><ele>1297.92</ele><time>2012-06-02T15:49:33Z</time></trkpt>
<trkpt lat="46.8035165034" lon="6.5062203258"><ele>1296.48</ele><time>2012-06-02T15:49:41Z</time></trkpt>
<trkpt lat="46.8035450019" lon="6.5062868781"><ele>1296.48</ele><time>2012-06-02T15:49:42Z</time></trkpt>
<trkpt lat="46.8037017435" lon="6.5067819972"><ele>1292.15</ele><time>2012-06-02T15:49:48Z</time></trkpt>
<trkpt lat="46.8037076946" lon="6.5071345400"><ele>1283.5</ele><time>2012-06-02T15:49:55Z</time></trkpt>
<trkpt lat="46.8036264740" lon="6.5074236318"><ele>1282.06</ele><time>2012-06-02T15:49:59Z</time></trkpt>
<trkpt lat="46.8034465984" lon="6.5076201875"><ele>1283.02</ele><time>2012-06-02T15:50:02Z</time></trkpt>
<trkpt lat="46.8031557463" lon="6.5079893265"><ele>1282.54</ele><time>2012-06-02T15:50:09Z</time></trkpt>
<trkpt lat="46.8031269126" lon="6.5081137139"><ele>1281.57</ele><time>2012-06-02T15:50:11Z</time></trkpt>
<trkpt lat="46.8030756991" lon="6.5085821785"><ele>1283.5</ele><time>2012-06-02T15:50:20Z</time></trkpt>
<trkpt lat="46.8030949775" lon="6.5089435223"><ele>1273.4</ele><time>2012-06-02T15:50:30Z</time></trkpt>
<trkpt lat="46.8031816464" lon="6.5092130005"><ele>1264.27</ele><time>2012-06-02T15:50:39Z</time></trkpt>
<trkpt lat="46.8031818978" lon="6.5094053652"><ele>1259.94</ele><time>2012-06-02T15:50:50Z</time></trkpt>
<trkpt lat="46.8032772001" lon="6.5098139830"><ele>1258.98</ele><time>2012-06-02T15:51:00Z</time></trkpt>
<trkpt lat="46.8033728376" lon="6.5102226846"><ele>1255.14</ele><time>2012-06-02T15:51:09Z</time></trkpt>
<trkpt lat="46.8034398090" lon="6.5105587989"><ele>1253.22</ele><time>2012-06-02T15:51:17Z</time></trkpt>
<trkpt lat="46.8034956325" lon="6.5107236709"><ele>1254.66</ele><time>2012-06-02T15:51:25Z</time></trkpt>
<trkpt lat="46.8035662081" lon="6.5109636448"><ele>1252.74</ele><time>2012-06-02T15:51:35Z</time></trkpt>
<trkpt lat="46.8036038429" lon="6.5111721866"><ele>1252.74</ele><time>2012-06-02T15:51:43Z</time></trkpt>
<trkpt lat="46.8035782780" lon="6.5113119129"><ele>1251.77</ele><time>2012-06-02T15:51:53Z</time></trkpt>
<trkpt lat="46.8035841454" lon="6.5114234760"><ele>1252.25</ele><time>2012-06-02T15:52:03Z</time></trkpt>
<trkpt lat="46.8035841454" lon="6.5114234760"><ele>1252.25</ele><time>2012-06-02T15:52:12Z</time></trkpt>
<trkpt lat="46.8036247138" lon="6.5116424114"><ele>1252.74</ele><time>2012-06-02T15:52:20Z</time></trkpt>
<trkpt lat="46.8035763502" lon="6.5118046012"><ele>1251.77</ele><time>2012-06-02T15:52:26Z</time></trkpt>
<trkpt lat="46.8035558984" lon="6.5119978879"><ele>1251.29</ele><time>2012-06-02T15:52:36Z</time></trkpt>
<trkpt lat="46.8035333510" lon="6.5120908432"><ele>1251.77</ele><time>2012-06-02T15:52:47Z</time></trkpt>
<trkpt lat="46.8035823014" lon="6.5122799389"><ele>1252.25</ele><time>2012-06-02T15:52:56Z</time></trkpt>
<trkpt lat="46.8036825489" lon="6.5124598984"><ele>1257.54</ele><time>2012-06-02T15:53:02Z</time></trkpt>
<trkpt lat="46.8038864806" lon="6.5125935897"><ele>1264.75</ele><time>2012-06-02T15:53:10Z</time></trkpt>
<trkpt lat="46.8042961881" lon="6.5127390157"><ele>1272.92</ele><time>2012-06-02T15:53:19Z</time></trkpt>
<trkpt lat="46.8045376707" lon="6.5128711145"><ele>1272.44</ele><time>2012-06-02T15:53:23Z</time></trkpt>
<trkpt lat="46.8047223240" lon="6.5129843540"><ele>1271.48</ele><time>2012-06-02T15:53:27Z</time></trkpt>
<trkpt lat="46.8047758006" lon="6.5130113438"><ele>1269.56</ele><time>2012-06-02T15:53:38Z</time></trkpt>
<trkpt lat="46.8047758006" lon="6.5130113438"><ele>1269.56</ele><time>2012-06-02T15:53:49Z</time></trkpt>
<trkpt lat="46.8047758006" lon="6.5130113438"><ele>1269.56</ele><time>2012-06-02T15:53:56Z</time></trkpt>
<trkpt lat="46.8048530817" lon="6.5131321270"><ele>1266.19</ele><time>2012-06-02T15:54:00Z</time></trkpt>
<trkpt lat="46.8049309496" lon="6.5132625494"><ele>1255.14</ele><time>2012-06-02T15:54:09Z</time></trkpt>
<trkpt lat="46.8049340509" lon="6.5133404173"><ele>1253.7</ele><time>2012-06-02T15:54:23Z</time></trkpt>
<trkpt lat="46.8049495574" lon="6.5133581869"><ele>1252.25</ele><time>2012-06-02T15:54:32Z</time></trkpt>
<trkpt lat="46.8049495574" lon="6.5133581869"><ele>1252.25</ele><time>2012-06-02T15:54:34Z</time></trkpt>
<trkpt lat="46.8049742840" lon="6.5134088974"><ele>1249.37</ele><time>2012-06-02T15:54:43Z</time></trkpt>
<trkpt lat="46.8049742840" lon="6.5134088974"><ele>1249.37</ele><time>2012-06-02T15:54:55Z</time></trkpt>
<trkpt lat="46.8049742840" lon="6.5134088974"><ele>1249.37</ele><time>2012-06-02T15:55:06Z</time></trkpt>
<trkpt lat="46.8049742840" lon="6.5134088974"><ele>1249.37</ele><time>2012-06-02T15:55:19Z</time></trkpt>
<trkpt lat="46.8049776368" lon="6.5134066343"><ele>1249.37</ele><time>2012-06-02T15:55:46Z</time></trkpt>
<trkpt lat="46.8049788941" lon="6.5134071372"><ele>1249.37</ele><time>2012-06-02T15:56:15Z</time></trkpt>
<trkpt lat="46.8049801514" lon="6.5134064667"><ele>1249.85</ele><time>2012-06-02T15:56:45Z</time></trkpt>
<trkpt lat="46.8049801514" lon="6.5134064667"><ele>1249.85</ele><time>2012-06-02T15:57:13Z</time></trkpt>
<trkpt lat="46.8049815763" lon="6.5134057123"><ele>1249.85</ele><time>2012-06-02T15:57:40Z</time></trkpt>
<trkpt lat="46.8049823307" lon="6.5134070534"><ele>1249.85</ele><time>2012-06-02T15:58:10Z</time></trkpt>
<trkpt lat="46.8049823307" lon="6.5134070534"><ele>1249.85</ele><time>2012-06-02T15:58:41Z</time></trkpt>
<trkpt lat="46.8049713504" lon="6.5134482086"><ele>1249.37</ele><time>2012-06-02T15:59:03Z</time></trkpt>
<trkpt lat="46.8049713504" lon="6.5134482086"><ele>1249.37</ele><time>2012-06-02T15:59:28Z</time></trkpt>
<trkpt lat="46.8049707636" lon="6.5134551656"><ele>1248.89</ele><time>2012-06-02T15:59:54Z</time></trkpt>
<trkpt lat="46.8049702607" lon="6.5134601947"><ele>1248.89</ele><time>2012-06-02T16:00:24Z</time></trkpt>
<trkpt lat="46.8049702607" lon="6.5134601947"><ele>1248.89</ele><time>2012-06-02T16:00:54Z</time></trkpt>
<trkpt lat="46.8049735297" lon="6.5134639665"><ele>1248.41</ele><time>2012-06-02T16:01:25Z</time></trkpt>
<trkpt lat="46.8049750384" lon="6.5134640504"><ele>1247.93</ele><time>2012-06-02T16:01:53Z</time></trkpt>
<trkpt lat="46.8049782235" lon="6.5134669840"><ele>1247.45</ele><time>2012-06-02T16:02:20Z</time></trkpt>
<trkpt lat="46.8049782235" lon="6.5134669840"><ele>1247.45</ele><time>2012-06-02T16:02:38Z</time></trkpt>
<trkpt lat="46.8049848452" lon="6.5134806465"><ele>1246.97</ele><time>2012-06-02T16:03:05Z</time></trkpt>
<trkpt lat="46.8049882818" lon="6.5134866815"><ele>1246.49</ele><time>2012-06-02T16:03:38Z</time></trkpt>
<trkpt lat="46.8049882818" lon="6.5134866815"><ele>1246.49</ele><time>2012-06-02T16:04:09Z</time></trkpt>
<trkpt lat="46.8049893714" lon="6.5134883579"><ele>1246.49</ele><time>2012-06-02T16:04:40Z</time></trkpt>
<trkpt lat="46.8049894553" lon="6.5134898666"><ele>1246.01</ele><time>2012-06-02T16:05:11Z</time></trkpt>
<trkpt lat="46.8049916346" lon="6.5134896990"><ele>1246.01</ele><time>2012-06-02T16:05:43Z</time></trkpt>
<trkpt lat="46.8049916346" lon="6.5134896990"><ele>1246.01</ele><time>2012-06-02T16:06:15Z</time></trkpt>
<trkpt lat="46.8049934786" lon="6.5134925488"><ele>1245.53</ele><time>2012-06-02T16:06:42Z</time></trkpt>
<trkpt lat="46.8049940653" lon="6.5134908725"><ele>1245.53</ele><time>2012-06-02T16:07:10Z</time></trkpt>
<trkpt lat="46.8049940653" lon="6.5134908725"><ele>1245.53</ele><time>2012-06-02T16:07:34Z</time></trkpt>
<trkpt lat="46.8049930595" lon="6.5134882741"><ele>1245.53</ele><time>2012-06-02T16:07:59Z</time></trkpt>
<trkpt lat="46.8049929757" lon="6.5134879388"><ele>1245.53</ele><time>2012-06-02T16:08:24Z</time></trkpt>
<trkpt lat="46.8049929757" lon="6.5134879388"><ele>1245.53</ele><time>2012-06-02T16:08:50Z</time></trkpt>
<trkpt lat="46.8049937300" lon="6.5134877712"><ele>1245.53</ele><time>2012-06-02T16:09:14Z</time></trkpt>
<trkpt lat="46.8049907126" lon="6.5134896990"><ele>1245.04</ele><time>2012-06-02T16:09:43Z</time></trkpt>
<trkpt lat="46.8049907126" lon="6.5134896990"><ele>1245.04</ele><time>2012-06-02T16:10:14Z</time></trkpt>
<trkpt lat="46.8049888685" lon="6.5134933870"><ele>1245.04</ele><time>2012-06-02T16:10:45Z</time></trkpt>
<trkpt lat="46.8049843423" lon="6.5134949796"><ele>1245.04</ele><time>2012-06-02T16:11:13Z</time></trkpt>
<trkpt lat="46.8049819116" lon="6.5134933870"><ele>1244.56</ele><time>2012-06-02T16:11:42Z</time></trkpt>
<trkpt lat="46.8049819116" lon="6.5134933870"><ele>1244.56</ele><time>2012-06-02T16:12:16Z</time></trkpt>
<trkpt lat="46.8049813248" lon="6.5134933870"><ele>1244.56</ele><time>2012-06-02T16:12:43Z</time></trkpt>
<trkpt lat="46.8049817439" lon="6.5134997573"><ele>1244.08</ele><time>2012-06-02T16:13:16Z</time></trkpt>
<trkpt lat="46.8049816601" lon="6.5135020204"><ele>1243.6</ele><time>2012-06-02T16:13:42Z</time></trkpt>
<trkpt lat="46.8049816601" lon="6.5135020204"><ele>1243.6</ele><time>2012-06-02T16:14:09Z</time></trkpt>
<trkpt lat="46.8049815763" lon="6.5135026071"><ele>1243.6</ele><time>2012-06-02T16:14:40Z</time></trkpt>
<trkpt lat="46.8049830012" lon="6.5135026071"><ele>1243.12</ele><time>2012-06-02T16:15:11Z</time></trkpt>
<trkpt lat="46.8049809895" lon="6.5135016851"><ele>1243.12</ele><time>2012-06-02T16:15:41Z</time></trkpt>
<trkpt lat="46.8049809895" lon="6.5135016851"><ele>1243.12</ele><time>2012-06-02T16:16:08Z</time></trkpt>
<trkpt lat="46.8049795646" lon="6.5134985838"><ele>1242.64</ele><time>2012-06-02T16:16:28Z</time></trkpt>
<trkpt lat="46.8049795646" lon="6.5134985838"><ele>1242.64</ele><time>2012-06-02T16:16:54Z</time></trkpt>
<trkpt lat="46.8049788941" lon="6.5134973265"><ele>1242.64</ele><time>2012-06-02T16:17:17Z</time></trkpt>
<trkpt lat="46.8049797323" lon="6.5134950634"><ele>1242.16</ele><time>2012-06-02T16:17:42Z</time></trkpt>
<trkpt lat="46.8049797323" lon="6.5134950634"><ele>1242.16</ele><time>2012-06-02T16:18:12Z</time></trkpt>
<trkpt lat="46.8049784750" lon="6.5134920459"><ele>1242.16</ele><time>2012-06-02T16:18:38Z</time></trkpt>
<trkpt lat="46.8049773015" lon="6.5134921297"><ele>1241.68</ele><time>2012-06-02T16:19:07Z</time></trkpt>
<trkpt lat="46.8049773015" lon="6.5134921297"><ele>1241.68</ele><time>2012-06-02T16:19:29Z</time></trkpt>
<trkpt lat="46.8049765471" lon="6.5134912077"><ele>1241.68</ele><time>2012-06-02T16:19:58Z</time></trkpt>
<trkpt lat="46.8049759604" lon="6.5134892799"><ele>1241.68</ele><time>2012-06-02T16:20:26Z</time></trkpt>
<trkpt lat="46.8049759604" lon="6.5134892799"><ele>1241.68</ele><time>2012-06-02T16:20:50Z</time></trkpt>
<trkpt lat="46.8049749546" lon="6.5134887770"><ele>1242.16</ele><time>2012-06-02T16:21:16Z</time></trkpt>
<trkpt lat="46.8049736973" lon="6.5134878550"><ele>1242.16</ele><time>2012-06-02T16:21:41Z</time></trkpt>
<trkpt lat="46.8049736973" lon="6.5134878550"><ele>1242.16</ele><time>2012-06-02T16:22:09Z</time></trkpt>
<trkpt lat="46.8049749546" lon="6.5134845022"><ele>1241.68</ele><time>2012-06-02T16:22:35Z</time></trkpt>
<trkpt lat="46.8049762957" lon="6.5134828258"><ele>1241.68</ele><time>2012-06-02T16:23:00Z</time></trkpt>
<trkpt lat="46.8049776368" lon="6.5134850051"><ele>1241.68</ele><time>2012-06-02T16:23:18Z</time></trkpt>
<trkpt lat="46.8049779721" lon="6.5134896152"><ele>1241.68</ele><time>2012-06-02T16:23:39Z</time></trkpt>
<trkpt lat="46.8049779721" lon="6.5134896152"><ele>1241.68</ele><time>2012-06-02T16:24:07Z</time></trkpt>
<trkpt lat="46.8049763795" lon="6.5134892799"><ele>1241.68</ele><time>2012-06-02T16:24:29Z</time></trkpt>
<trkpt lat="46.8049763795" lon="6.5134892799"><ele>1241.68</ele><time>2012-06-02T16:24:53Z</time></trkpt>
<trkpt lat="46.8049730267" lon="6.5134891961"><ele>1241.68</ele><time>2012-06-02T16:25:18Z</time></trkpt>
<trkpt lat="46.8049722724" lon="6.5134924650"><ele>1241.2</ele><time>2012-06-02T16:25:32Z</time></trkpt>
<trkpt lat="46.8049722724" lon="6.5134924650"><ele>1241.2</ele><time>2012-06-02T16:25:45Z</time></trkpt>
<trkpt lat="46.8049728591" lon="6.5135000087"><ele>1240.24</ele><time>2012-06-02T16:26:00Z</time></trkpt>
<trkpt lat="46.8049728591" lon="6.5135000087"><ele>1240.24</ele><time>2012-06-02T16:26:16Z</time></trkpt>
<trkpt lat="46.8050003517" lon="6.5135867614"><ele>1233.51</ele><time>2012-06-02T16:26:26Z</time></trkpt>
<trkpt lat="46.8050046265" lon="6.5135781281"><ele>1233.51</ele><time>2012-06-02T16:26:41Z</time></trkpt>
<trkpt lat="46.8050056323" lon="6.5135484561"><ele>1233.51</ele><time>2012-06-02T16:26:50Z</time></trkpt>
<trkpt lat="46.8050146010" lon="6.5135339554"><ele>1233.51</ele><time>2012-06-02T16:27:01Z</time></trkpt>
<trkpt lat="46.8050146010" lon="6.5135339554"><ele>1233.51</ele><time>2012-06-02T16:27:16Z</time></trkpt>
<trkpt lat="46.8050146010" lon="6.5135339554"><ele>1233.51</ele><time>2012-06-02T16:27:28Z</time></trkpt>
<trkpt lat="46.8050264195" lon="6.5135206282"><ele>1233.99</ele><time>2012-06-02T16:27:39Z</time></trkpt>
<trkpt lat="46.8050358910" lon="6.5136440098"><ele>1232.07</ele><time>2012-06-02T16:27:46Z</time></trkpt>
<trkpt lat="46.8050158583" lon="6.5137340315"><ele>1231.59</ele><time>2012-06-02T16:27:51Z</time></trkpt>
<trkpt lat="46.8049970828" lon="6.5138107259"><ele>1231.11</ele><time>2012-06-02T16:27:54Z</time></trkpt>
<trkpt lat="46.8049621303" lon="6.5138367936"><ele>1231.59</ele><time>2012-06-02T16:27:57Z</time></trkpt>
<trkpt lat="46.8049073126" lon="6.5139458422"><ele>1230.62</ele><time>2012-06-02T16:28:01Z</time></trkpt>
<trkpt lat="46.8048792332" lon="6.5141047630"><ele>1230.62</ele><time>2012-06-02T16:28:04Z</time></trkpt>
<trkpt lat="46.8047998566" lon="6.5142480098"><ele>1230.14</ele><time>2012-06-02T16:28:07Z</time></trkpt>
<trkpt lat="46.8046376668" lon="6.5145915002"><ele>1227.26</ele><time>2012-06-02T16:28:12Z</time></trkpt>
<trkpt lat="46.8045276124" lon="6.5148363356"><ele>1225.34</ele><time>2012-06-02T16:28:19Z</time></trkpt>
<trkpt lat="46.8045254331" lon="6.5148535185"><ele>1225.34</ele><time>2012-06-02T16:28:20Z</time></trkpt>
<trkpt lat="46.8044635747" lon="6.5149858687"><ele>1227.26</ele><time>2012-06-02T16:28:28Z</time></trkpt>
<trkpt lat="46.8044323940" lon="6.5150433686"><ele>1227.26</ele><time>2012-06-02T16:28:32Z</time></trkpt>
<trkpt lat="46.8043729663" lon="6.5151032992"><ele>1227.26</ele><time>2012-06-02T16:28:38Z</time></trkpt>
<trkpt lat="46.8043505866" lon="6.5151731204"><ele>1227.26</ele><time>2012-06-02T16:28:43Z</time></trkpt>
<trkpt lat="46.8043358345" lon="6.5152825043"><ele>1227.26</ele><time>2012-06-02T16:28:53Z</time></trkpt>
<trkpt lat="46.8043209147" lon="6.5153561812"><ele>1228.22</ele><time>2012-06-02T16:29:04Z</time></trkpt>
<trkpt lat="46.8043028936" lon="6.5154404193"><ele>1228.7</ele><time>2012-06-02T16:29:12Z</time></trkpt>
<trkpt lat="46.8042811844" lon="6.5155542456"><ele>1227.74</ele><time>2012-06-02T16:29:20Z</time></trkpt>
<trkpt lat="46.8042204995" lon="6.5157118253"><ele>1227.74</ele><time>2012-06-02T16:29:31Z</time></trkpt>
<trkpt lat="46.8041494209" lon="6.5158049483"><ele>1229.18</ele><time>2012-06-02T16:29:42Z</time></trkpt>
<trkpt lat="46.8041148875" lon="6.5158466063"><ele>1230.14</ele><time>2012-06-02T16:29:51Z</time></trkpt>
<trkpt lat="46.8040744867" lon="6.5159569960"><ele>1234.47</ele><time>2012-06-02T16:30:03Z</time></trkpt>
<trkpt lat="46.8040288892" lon="6.5160544775"><ele>1239.76</ele><time>2012-06-02T16:30:16Z</time></trkpt>
<trkpt lat="46.8039545417" lon="6.5161267295"><ele>1242.64</ele><time>2012-06-02T16:30:27Z</time></trkpt>
<trkpt lat="46.8038771767" lon="6.5162274800"><ele>1242.64</ele><time>2012-06-02T16:30:39Z</time></trkpt>
<trkpt lat="46.8038614187" lon="6.5162557270"><ele>1242.64</ele><time>2012-06-02T16:30:42Z</time></trkpt>
<trkpt lat="46.8038268015" lon="6.5163544659"><ele>1242.64</ele><time>2012-06-02T16:30:53Z</time></trkpt>
<trkpt lat="46.8038283940" lon="6.5163884964"><ele>1243.6</ele><time>2012-06-02T16:30:58Z</time></trkpt>
<trkpt lat="46.8037755042" lon="6.5164635144"><ele>1246.97</ele><time>2012-06-02T16:31:08Z</time></trkpt>
<trkpt lat="46.8037393782" lon="6.5164915938"><ele>1248.89</ele><time>2012-06-02T16:31:11Z</time></trkpt>
<trkpt lat="46.8036747538" lon="6.5165250376"><ele>1251.29</ele><time>2012-06-02T16:31:15Z</time></trkpt>
<trkpt lat="46.8035449181" lon="6.5165313240"><ele>1255.62</ele><time>2012-06-02T16:31:21Z</time></trkpt>
<trkpt lat="46.8034943752" lon="6.5166583098"><ele>1255.62</ele><time>2012-06-02T16:31:26Z</time></trkpt>
<trkpt lat="46.8034764379" lon="6.5170647483"><ele>1259.46</ele><time>2012-06-02T16:31:33Z</time></trkpt>
<trkpt lat="46.8035160005" lon="6.5172021277"><ele>1259.94</ele><time>2012-06-02T16:31:35Z</time></trkpt>
<trkpt lat="46.8036077823" lon="6.5178451873"><ele>1254.66</ele><time>2012-06-02T16:31:43Z</time></trkpt>
<trkpt lat="46.8036312517" lon="6.5185088664"><ele>1245.53</ele><time>2012-06-02T16:31:52Z</time></trkpt>
<trkpt lat="46.8036527932" lon="6.5188200865"><ele>1241.68</ele><time>2012-06-02T16:31:57Z</time></trkpt>
<trkpt lat="46.8036995642" lon="6.5190569591"><ele>1239.28</ele><time>2012-06-02T16:32:01Z</time></trkpt>
<trkpt lat="46.8038392067" lon="6.5192486532"><ele>1236.39</ele><time>2012-06-02T16:32:07Z</time></trkpt>
<trkpt lat="46.8040576391" lon="6.5194469690"><ele>1233.51</ele><time>2012-06-02T16:32:16Z</time></trkpt>
<trkpt lat="46.8042406999" lon="6.5197242424"><ele>1230.14</ele><time>2012-06-02T16:32:23Z</time></trkpt>
<trkpt lat="46.8044387642" lon="6.5199835785"><ele>1226.78</ele><time>2012-06-02T16:32:30Z</time></trkpt>
<trkpt lat="46.8044779077" lon="6.5204473492"><ele>1223.9</ele><time>2012-06-02T16:32:36Z</time></trkpt>
<trkpt lat="46.8045315519" lon="6.5207521990"><ele>1218.61</ele><time>2012-06-02T16:32:43Z</time></trkpt>
<trkpt lat="46.8045317195" lon="6.5208061785"><ele>1217.17</ele><time>2012-06-02T16:32:53Z</time></trkpt>
<trkpt lat="46.8045317195" lon="6.5208061785"><ele>1217.17</ele><time>2012-06-02T16:33:08Z</time></trkpt>
<trkpt lat="46.8045317195" lon="6.5208061785"><ele>1217.17</ele><time>2012-06-02T16:33:12Z</time></trkpt>
<trkpt lat="46.8044368364" lon="6.5211605653"><ele>1214.28</ele><time>2012-06-02T16:33:20Z</time></trkpt>
<trkpt lat="46.8043050729" lon="6.5215043910"><ele>1208.03</ele><time>2012-06-02T16:33:29Z</time></trkpt>
<trkpt lat="46.8042731378" lon="6.5216265991"><ele>1206.59</ele><time>2012-06-02T16:33:38Z</time></trkpt>
<trkpt lat="46.8042679410" lon="6.5216362383"><ele>1206.59</ele><time>2012-06-02T16:33:48Z</time></trkpt>
<trkpt lat="46.8042679410" lon="6.5216362383"><ele>1206.59</ele><time>2012-06-02T16:34:04Z</time></trkpt>
<trkpt lat="46.8042593915" lon="6.5216663294"><ele>1205.63</ele><time>2012-06-02T16:34:16Z</time></trkpt>
<trkpt lat="46.8042593915" lon="6.5216663294"><ele>1205.63</ele><time>2012-06-02T16:34:42Z</time></trkpt>
<trkpt lat="46.8042563740" lon="6.5216800757"><ele>1204.19</ele><time>2012-06-02T16:34:57Z</time></trkpt>
<trkpt lat="46.8041791767" lon="6.5216981806"><ele>1203.23</ele><time>2012-06-02T16:35:09Z</time></trkpt>
<trkpt lat="46.8040478323" lon="6.5216973424"><ele>1200.82</ele><time>2012-06-02T16:35:19Z</time></trkpt>
<trkpt lat="46.8039115425" lon="6.5216191392"><ele>1200.82</ele><time>2012-06-02T16:35:30Z</time></trkpt>
<trkpt lat="46.8038352672" lon="6.5214349888"><ele>1204.19</ele><time>2012-06-02T16:35:39Z</time></trkpt>
<trkpt lat="46.8037708942" lon="6.5213897265"><ele>1203.23</ele><time>2012-06-02T16:35:43Z</time></trkpt>
<trkpt lat="46.8036230374" lon="6.5212893113"><ele>1199.86</ele><time>2012-06-02T16:35:52Z</time></trkpt>
<trkpt lat="46.8035453372" lon="6.5211986192"><ele>1199.86</ele><time>2012-06-02T16:36:01Z</time></trkpt>
<trkpt lat="46.8034828920" lon="6.5212014690"><ele>1201.79</ele><time>2012-06-02T16:36:07Z</time></trkpt>
<trkpt lat="46.8033248931" lon="6.5212751459"><ele>1207.07</ele><time>2012-06-02T16:36:17Z</time></trkpt>
<trkpt lat="46.8033384718" lon="6.5215851925"><ele>1206.59</ele><time>2012-06-02T16:36:25Z</time></trkpt>
<trkpt lat="46.8033989891" lon="6.5219154395"><ele>1205.63</ele><time>2012-06-02T16:36:33Z</time></trkpt>
<trkpt lat="46.8035447504" lon="6.5222654678"><ele>1205.15</ele><time>2012-06-02T16:36:41Z</time></trkpt>
<trkpt lat="46.8035988975" lon="6.5223850776"><ele>1204.19</ele><time>2012-06-02T16:36:50Z</time></trkpt>
<trkpt lat="46.8036167510" lon="6.5224382188"><ele>1203.23</ele><time>2012-06-02T16:37:01Z</time></trkpt>
<trkpt lat="46.8036407232" lon="6.5226745047"><ele>1198.42</ele><time>2012-06-02T16:37:08Z</time></trkpt>
<trkpt lat="46.8036343530" lon="6.5226906817"><ele>1198.42</ele><time>2012-06-02T16:37:26Z</time></trkpt>
<trkpt lat="46.8036327604" lon="6.5227160789"><ele>1197.46</ele><time>2012-06-02T16:37:29Z</time></trkpt>
<trkpt lat="46.8036069442" lon="6.5228085313"><ele>1194.58</ele><time>2012-06-02T16:37:32Z</time></trkpt>
<trkpt lat="46.8036369514" lon="6.5230927616"><ele>1190.73</ele><time>2012-06-02T16:37:41Z</time></trkpt>
<trkpt lat="46.8036482669" lon="6.5231310669"><ele>1190.73</ele><time>2012-06-02T16:37:43Z</time></trkpt>
<trkpt lat="46.8037857302" lon="6.5234768204"><ele>1185.44</ele><time>2012-06-02T16:37:53Z</time></trkpt>
<trkpt lat="46.8039099500" lon="6.5237768926"><ele>1185.44</ele><time>2012-06-02T16:38:00Z</time></trkpt>
<trkpt lat="46.8039986305" lon="6.5240498912"><ele>1184.48</ele><time>2012-06-02T16:38:08Z</time></trkpt>
<trkpt lat="46.8040569685" lon="6.5242534038"><ele>1184</ele><time>2012-06-02T16:38:14Z</time></trkpt>
<trkpt lat="46.8040238600" lon="6.5245818067"><ele>1180.64</ele><time>2012-06-02T16:38:23Z</time></trkpt>
<trkpt lat="46.8039765861" lon="6.5248620976"><ele>1178.23</ele><time>2012-06-02T16:38:29Z</time></trkpt>
<trkpt lat="46.8039667793" lon="6.5249848086"><ele>1174.39</ele><time>2012-06-02T16:38:32Z</time></trkpt>
<trkpt lat="46.8038710579" lon="6.5251754969"><ele>1169.58</ele><time>2012-06-02T16:38:37Z</time></trkpt>
<trkpt lat="46.8035745062" lon="6.5254995413"><ele>1162.37</ele><time>2012-06-02T16:38:50Z</time></trkpt>
<trkpt lat="46.8035745062" lon="6.5254995413"><ele>1162.37</ele><time>2012-06-02T16:39:11Z</time></trkpt>
<trkpt lat="46.8035691418" lon="6.5255309734"><ele>1160.45</ele><time>2012-06-02T16:39:14Z</time></trkpt>
<trkpt lat="46.8034383003" lon="6.5255919099"><ele>1153.24</ele><time>2012-06-02T16:39:20Z</time></trkpt>
<trkpt lat="46.8032097258" lon="6.5256171394"><ele>1148.43</ele><time>2012-06-02T16:39:27Z</time></trkpt>
<trkpt lat="46.8030517269" lon="6.5255884733"><ele>1139.3</ele><time>2012-06-02T16:39:35Z</time></trkpt>
<trkpt lat="46.8028695881" lon="6.5254517645"><ele>1132.09</ele><time>2012-06-02T16:39:43Z</time></trkpt>
<trkpt lat="46.8026555981" lon="6.5253598988"><ele>1130.65</ele><time>2012-06-02T16:39:51Z</time></trkpt>
<trkpt lat="46.8023302127" lon="6.5252544545"><ele>1129.69</ele><time>2012-06-02T16:39:59Z</time></trkpt>
<trkpt lat="46.8020604830" lon="6.5251040831"><ele>1128.73</ele><time>2012-06-02T16:40:06Z</time></trkpt>
<trkpt lat="46.8018298969" lon="6.5249258000"><ele>1127.28</ele><time>2012-06-02T16:40:16Z</time></trkpt>
<trkpt lat="46.8016875722" lon="6.5247310046"><ele>1125.84</ele><time>2012-06-02T16:40:23Z</time></trkpt>
<trkpt lat="46.8014541361" lon="6.5245376341"><ele>1124.4</ele><time>2012-06-02T16:40:31Z</time></trkpt>
<trkpt lat="46.8013783637" lon="6.5244977362"><ele>1123.92</ele><time>2012-06-02T16:40:34Z</time></trkpt>
<trkpt lat="46.8012036849" lon="6.5243984107"><ele>1122.48</ele><time>2012-06-02T16:40:44Z</time></trkpt>
<trkpt lat="46.8012196105" lon="6.5243931301"><ele>1122</ele><time>2012-06-02T16:41:02Z</time></trkpt>
<trkpt lat="46.8012196105" lon="6.5243931301"><ele>1122</ele><time>2012-06-02T16:41:24Z</time></trkpt>
<trkpt lat="46.8012289144" lon="6.5243860055"><ele>1122</ele><time>2012-06-02T16:41:39Z</time></trkpt>
<trkpt lat="46.8012289144" lon="6.5243860055"><ele>1122</ele><time>2012-06-02T16:41:58Z</time></trkpt>
<trkpt lat="46.8012343626" lon="6.5243851673"><ele>1122</ele><time>2012-06-02T16:42:17Z</time></trkpt>
<trkpt lat="46.8012343626" lon="6.5243851673"><ele>1122</ele><time>2012-06-02T16:42:31Z</time></trkpt>
<trkpt lat="46.8012377992" lon="6.5243772883"><ele>1121.52</ele><time>2012-06-02T16:42:52Z</time></trkpt>
<trkpt lat="46.8011951353" lon="6.5243435092"><ele>1120.07</ele><time>2012-06-02T16:43:13Z</time></trkpt>
<trkpt lat="46.8010811415" lon="6.5242373943"><ele>1119.59</ele><time>2012-06-02T16:43:17Z</time></trkpt>
<trkpt lat="46.8009941373" lon="6.5240788087"><ele>1118.63</ele><time>2012-06-02T16:43:21Z</time></trkpt>
<trkpt lat="46.8009324465" lon="6.5239544213"><ele>1118.15</ele><time>2012-06-02T16:43:24Z</time></trkpt>
<trkpt lat="46.8002657499" lon="6.5234761499"><ele>1090.75</ele><time>2012-06-02T16:43:32Z</time></trkpt>
<trkpt lat="46.8001519237" lon="6.5233407822"><ele>1086.43</ele><time>2012-06-02T16:43:38Z</time></trkpt>
<trkpt lat="46.8001185637" lon="6.5233317297"><ele>1085.95</ele><time>2012-06-02T16:43:40Z</time></trkpt>
<trkpt lat="46.8000665959" lon="6.5231732279"><ele>1085.47</ele><time>2012-06-02T16:43:45Z</time></trkpt>
<trkpt lat="46.8000054918" lon="6.5228820406"><ele>1086.91</ele><time>2012-06-02T16:43:53Z</time></trkpt>
<trkpt lat="46.7999667674" lon="6.5227146540"><ele>1085.47</ele><time>2012-06-02T16:44:04Z</time></trkpt>
<trkpt lat="46.7999235168" lon="6.5226682182"><ele>1084.5</ele><time>2012-06-02T16:44:10Z</time></trkpt>
<trkpt lat="46.7998194974" lon="6.5224596765"><ele>1079.7</ele><time>2012-06-02T16:44:14Z</time></trkpt>
<trkpt lat="46.7996942718" lon="6.5221182816"><ele>1068.16</ele><time>2012-06-02T16:44:24Z</time></trkpt>
<trkpt lat="46.7996316589" lon="6.5219980013"><ele>1062.87</ele><time>2012-06-02T16:44:32Z</time></trkpt>
<trkpt lat="46.7995915934" lon="6.5218391642"><ele>1059.03</ele><time>2012-06-02T16:44:44Z</time></trkpt>
<trkpt lat="46.7995524500" lon="6.5217769705"><ele>1055.18</ele><time>2012-06-02T16:44:54Z</time></trkpt>
<trkpt lat="46.7995397933" lon="6.5217458736"><ele>1054.7</ele><time>2012-06-02T16:45:06Z</time></trkpt>
<trkpt lat="46.7994972132" lon="6.5216505714"><ele>1053.74</ele><time>2012-06-02T16:45:24Z</time></trkpt>
<trkpt lat="46.7994163278" lon="6.5215208195"><ele>1047.97</ele><time>2012-06-02T16:45:34Z</time></trkpt>
<trkpt lat="46.7994163278" lon="6.5215208195"><ele>1047.97</ele><time>2012-06-02T16:45:46Z</time></trkpt>
<trkpt lat="46.7993538827" lon="6.5215518326"><ele>1047.97</ele><time>2012-06-02T16:45:55Z</time></trkpt>
<trkpt lat="46.7993538827" lon="6.5215518326"><ele>1047.97</ele><time>2012-06-02T16:46:00Z</time></trkpt>
<trkpt lat="46.7993073631" lon="6.5215922333"><ele>1045.57</ele><time>2012-06-02T16:46:07Z</time></trkpt>
<trkpt lat="46.7993032560" lon="6.5216030460"><ele>1045.57</ele><time>2012-06-02T16:46:09Z</time></trkpt>
<trkpt lat="46.7992741708" lon="6.5216175467"><ele>1045.57</ele><time>2012-06-02T16:46:11Z</time></trkpt>
<trkpt lat="46.7992304172" lon="6.5216077399"><ele>1043.17</ele><time>2012-06-02T16:46:23Z</time></trkpt>
<trkpt lat="46.7992304172" lon="6.5216077399"><ele>1043.17</ele><time>2012-06-02T16:46:48Z</time></trkpt>
<trkpt lat="46.7992237955" lon="6.5216145292"><ele>1043.17</ele><time>2012-06-02T16:47:01Z</time></trkpt>
<trkpt lat="46.7990846559" lon="6.5214469749"><ele>1039.32</ele><time>2012-06-02T16:47:08Z</time></trkpt>
<trkpt lat="46.7990904395" lon="6.5214628167"><ele>1038.36</ele><time>2012-06-02T16:47:09Z</time></trkpt>
<trkpt lat="46.7989936285" lon="6.5212136228"><ele>1033.55</ele><time>2012-06-02T16:47:17Z</time></trkpt>
<trkpt lat="46.7990067042" lon="6.5210802667"><ele>1033.07</ele><time>2012-06-02T16:47:19Z</time></trkpt>
<trkpt lat="46.7989319377" lon="6.5208356827"><ele>1032.59</ele><time>2012-06-02T16:47:22Z</time></trkpt>
<trkpt lat="46.7988128308" lon="6.5205206908"><ele>1031.63</ele><time>2012-06-02T16:47:26Z</time></trkpt>
<trkpt lat="46.7986369785" lon="6.5200719237"><ele>1031.15</ele><time>2012-06-02T16:47:36Z</time></trkpt>
<trkpt lat="46.7985535786" lon="6.5200366359"><ele>1031.15</ele><time>2012-06-02T16:47:46Z</time></trkpt>
<trkpt lat="46.7988893576" lon="6.5194604639"><ele>1022.02</ele><time>2012-06-02T16:48:07Z</time></trkpt>
<trkpt lat="46.7988114059" lon="6.5192590468"><ele>945.11</ele><time>2012-06-02T16:48:24Z</time></trkpt>
<trkpt lat="46.7987394053" lon="6.5190810990"><ele>944.63</ele><time>2012-06-02T16:48:29Z</time></trkpt>
<trkpt lat="46.7987026926" lon="6.5189015586"><ele>944.63</ele><time>2012-06-02T16:48:33Z</time></trkpt>
<trkpt lat="46.7985886987" lon="6.5184020810"><ele>936.46</ele><time>2012-06-02T16:48:43Z</time></trkpt>
<trkpt lat="46.7984847631" lon="6.5179702453"><ele>925.89</ele><time>2012-06-02T16:48:53Z</time></trkpt>
<trkpt lat="46.7984647304" lon="6.5179145895"><ele>923</ele><time>2012-06-02T16:48:54Z</time></trkpt>
<trkpt lat="46.7984321248" lon="6.5177244879"><ele>921.56</ele><time>2012-06-02T16:48:58Z</time></trkpt>
<trkpt lat="46.7983338889" lon="6.5171006229"><ele>919.64</ele><time>2012-06-02T16:49:09Z</time></trkpt>
<trkpt lat="46.7983021215" lon="6.5168257803"><ele>915.79</ele><time>2012-06-02T16:49:16Z</time></trkpt>
<trkpt lat="46.7982586194" lon="6.5163894184"><ele>913.39</ele><time>2012-06-02T16:49:25Z</time></trkpt>
<trkpt lat="46.7981240060" lon="6.5159749333"><ele>912.91</ele><time>2012-06-02T16:49:31Z</time></trkpt>
<trkpt lat="46.7980604712" lon="6.5158435050"><ele>911.95</ele><time>2012-06-02T16:49:43Z</time></trkpt>
<trkpt lat="46.7980604712" lon="6.5158435050"><ele>911.95</ele><time>2012-06-02T16:49:57Z</time></trkpt>
<trkpt lat="46.7980701104" lon="6.5158331953"><ele>909.54</ele><time>2012-06-02T16:50:08Z</time></trkpt>
<trkpt lat="46.7979981098" lon="6.5160266496"><ele>909.54</ele><time>2012-06-02T16:50:16Z</time></trkpt>
<trkpt lat="46.7977880593" lon="6.5161641967"><ele>911.47</ele><time>2012-06-02T16:50:23Z</time></trkpt>
<trkpt lat="46.7976365145" lon="6.5162096266"><ele>911.47</ele><time>2012-06-02T16:50:31Z</time></trkpt>
<trkpt lat="46.7976293061" lon="6.5161461756"><ele>894.64</ele><time>2012-06-02T16:50:41Z</time></trkpt>
<trkpt lat="46.7976224329" lon="6.5161375422"><ele>893.2</ele><time>2012-06-02T16:50:49Z</time></trkpt>
<trkpt lat="46.7976224329" lon="6.5161375422"><ele>893.2</ele><time>2012-06-02T16:51:11Z</time></trkpt>
<trkpt lat="46.7976353411" lon="6.5161303338"><ele>891.28</ele><time>2012-06-02T16:51:19Z</time></trkpt>
<trkpt lat="46.7976262886" lon="6.5162353590"><ele>885.03</ele><time>2012-06-02T16:51:25Z</time></trkpt>
<trkpt lat="46.7975813616" lon="6.5162030049"><ele>875.9</ele><time>2012-06-02T16:51:34Z</time></trkpt>
<trkpt lat="46.7975161504" lon="6.5161912702"><ele>867.73</ele><time>2012-06-02T16:51:48Z</time></trkpt>
<trkpt lat="46.7974692117" lon="6.5161916055"><ele>863.4</ele><time>2012-06-02T16:52:04Z</time></trkpt>
<trkpt lat="46.7974242009" lon="6.5161823854"><ele>860.52</ele><time>2012-06-02T16:52:10Z</time></trkpt>
<trkpt lat="46.7972689681" lon="6.5159170143"><ele>851.38</ele><time>2012-06-02T16:52:18Z</time></trkpt>
<trkpt lat="46.7970380466" lon="6.5156864282"><ele>847.06</ele><time>2012-06-02T16:52:26Z</time></trkpt>
<trkpt lat="46.7969771940" lon="6.5153094940"><ele>839.37</ele><time>2012-06-02T16:52:34Z</time></trkpt>
<trkpt lat="46.7969946284" lon="6.5152000263"><ele>836</ele><time>2012-06-02T16:52:43Z</time></trkpt>
<trkpt lat="46.7969946284" lon="6.5152000263"><ele>836</ele><time>2012-06-02T16:52:50Z</time></trkpt>
<trkpt lat="46.7969917785" lon="6.5151789878"><ele>835.04</ele><time>2012-06-02T16:52:52Z</time></trkpt>
<trkpt lat="46.7967766989" lon="6.5151504893"><ele>831.68</ele><time>2012-06-02T16:52:59Z</time></trkpt>
<trkpt lat="46.7965496331" lon="6.5152310394"><ele>823.03</ele><time>2012-06-02T16:53:10Z</time></trkpt>
<trkpt lat="46.7965318635" lon="6.5152491443"><ele>822.06</ele><time>2012-06-02T16:53:11Z</time></trkpt>
<trkpt lat="46.7964721005" lon="6.5152795706"><ele>816.3</ele><time>2012-06-02T16:53:15Z</time></trkpt>
<trkpt lat="46.7963682488" lon="6.5153155290"><ele>810.53</ele><time>2012-06-02T16:53:20Z</time></trkpt>
<trkpt lat="46.7962238286" lon="6.5153529961"><ele>802.84</ele><time>2012-06-02T16:53:24Z</time></trkpt>
<trkpt lat="46.7960239202" lon="6.5155805647"><ele>800.92</ele><time>2012-06-02T16:53:32Z</time></trkpt>
<trkpt lat="46.7959094234" lon="6.5157611109"><ele>800.44</ele><time>2012-06-02T16:53:38Z</time></trkpt>
<trkpt lat="46.7959060706" lon="6.5157693252"><ele>800.44</ele><time>2012-06-02T16:53:54Z</time></trkpt>
<trkpt lat="46.7959126085" lon="6.5158467740"><ele>798.51</ele><time>2012-06-02T16:54:00Z</time></trkpt>
<trkpt lat="46.7957904842" lon="6.5160359535"><ele>797.55</ele><time>2012-06-02T16:54:07Z</time></trkpt>
<trkpt lat="46.7956794240" lon="6.5163214412"><ele>797.07</ele><time>2012-06-02T16:54:16Z</time></trkpt>
<trkpt lat="46.7956677731" lon="6.5163812879"><ele>797.07</ele><time>2012-06-02T16:54:18Z</time></trkpt>
<trkpt lat="46.7955940124" lon="6.5166070964"><ele>794.19</ele><time>2012-06-02T16:54:26Z</time></trkpt>
<trkpt lat="46.7955750693" lon="6.5167695377"><ele>793.71</ele><time>2012-06-02T16:54:30Z</time></trkpt>
<trkpt lat="46.7954639252" lon="6.5171911474"><ele>791.78</ele><time>2012-06-02T16:54:37Z</time></trkpt>
<trkpt lat="46.7953021545" lon="6.5170805901"><ele>783.13</ele><time>2012-06-02T16:54:42Z</time></trkpt>
<trkpt lat="46.7952961195" lon="6.5169789176"><ele>780.73</ele><time>2012-06-02T16:54:44Z</time></trkpt>
<trkpt lat="46.7952933535" lon="6.5170350764"><ele>775.44</ele><time>2012-06-02T16:54:48Z</time></trkpt>
<trkpt lat="46.7952617537" lon="6.5171322227"><ele>772.56</ele><time>2012-06-02T16:54:55Z</time></trkpt>
<trkpt lat="46.7952617537" lon="6.5171322227"><ele>772.56</ele><time>2012-06-02T16:54:57Z</time></trkpt>
<trkpt lat="46.7951184232" lon="6.5172297880"><ele>775.44</ele><time>2012-06-02T16:55:03Z</time></trkpt>
<trkpt lat="46.7949594185" lon="6.5176057164"><ele>776.4</ele><time>2012-06-02T16:55:10Z</time></trkpt>
<trkpt lat="46.7948280741" lon="6.5179086383"><ele>776.88</ele><time>2012-06-02T16:55:14Z</time></trkpt>
<trkpt lat="46.7945797183" lon="6.5182134882"><ele>777.36</ele><time>2012-06-02T16:55:20Z</time></trkpt>
<trkpt lat="46.7944788001" lon="6.5182494465"><ele>777.84</ele><time>2012-06-02T16:55:22Z</time></trkpt>
<trkpt lat="46.7942200508" lon="6.5183402225"><ele>778.81</ele><time>2012-06-02T16:55:27Z</time></trkpt>
<trkpt lat="46.7936065793" lon="6.5184736624"><ele>779.77</ele><time>2012-06-02T16:55:37Z</time></trkpt>
<trkpt lat="46.7933346704" lon="6.5184881631"><ele>779.77</ele><time>2012-06-02T16:55:43Z</time></trkpt>
<trkpt lat="46.7930425610" lon="6.5185790230"><ele>778.32</ele><time>2012-06-02T16:55:52Z</time></trkpt>
<trkpt lat="46.7928960454" lon="6.5186811984"><ele>777.84</ele><time>2012-06-02T16:55:55Z</time></trkpt>
<trkpt lat="46.7925757729" lon="6.5194499027"><ele>768.71</ele><time>2012-06-02T16:56:02Z</time></trkpt>
<trkpt lat="46.7922650557" lon="6.5198910423"><ele>758.14</ele><time>2012-06-02T16:56:07Z</time></trkpt>
<trkpt lat="46.7921064701" lon="6.5200028569"><ele>755.73</ele><time>2012-06-02T16:56:10Z</time></trkpt>
<trkpt lat="46.7917823419" lon="6.5205802023"><ele>740.35</ele><time>2012-06-02T16:56:16Z</time></trkpt>
<trkpt lat="46.7914073355" lon="6.5213916544"><ele>731.7</ele><time>2012-06-02T16:56:24Z</time></trkpt>
<trkpt lat="46.7910859734" lon="6.5218892042"><ele>724.49</ele><time>2012-06-02T16:56:30Z</time></trkpt>
<trkpt lat="46.7907391302" lon="6.5227686334"><ele>714.4</ele><time>2012-06-02T16:56:39Z</time></trkpt>
<trkpt lat="46.7903321888" lon="6.5235463902"><ele>698.05</ele><time>2012-06-02T16:56:48Z</time></trkpt>
<trkpt lat="46.7901618686" lon="6.5239510685"><ele>694.21</ele><time>2012-06-02T16:56:54Z</time></trkpt>
<trkpt lat="46.7901167739" lon="6.5242973249"><ele>688.44</ele><time>2012-06-02T16:56:59Z</time></trkpt>
<trkpt lat="46.7900903709" lon="6.5247298311"><ele>685.08</ele><time>2012-06-02T16:57:04Z</time></trkpt>
<trkpt lat="46.7899854295" lon="6.5249169990"><ele>671.62</ele><time>2012-06-02T16:57:08Z</time></trkpt>
<trkpt lat="46.7899205536" lon="6.5249987226"><ele>664.89</ele><time>2012-06-02T16:57:10Z</time></trkpt>
<trkpt lat="46.7898005247" lon="6.5250066016"><ele>646.62</ele><time>2012-06-02T16:57:16Z</time></trkpt>
<trkpt lat="46.7897278536" lon="6.5250156540"><ele>638.45</ele><time>2012-06-02T16:57:22Z</time></trkpt>
<trkpt lat="46.7896960024" lon="6.5250091162"><ele>635.09</ele><time>2012-06-02T16:57:30Z</time></trkpt>
<trkpt lat="46.7896768078" lon="6.5250170790"><ele>632.2</ele><time>2012-06-02T16:57:40Z</time></trkpt>
<trkpt lat="46.7896721140" lon="6.5250185039"><ele>631.24</ele><time>2012-06-02T16:57:52Z</time></trkpt>
<trkpt lat="46.7896721140" lon="6.5250185039"><ele>631.24</ele><time>2012-06-02T16:58:13Z</time></trkpt>
</trkseg></trk></gpx>